<?xml version="1.0" encoding="UTF-8" standalone="no" ?>
<gpx xmlns="http://www.topografix.com/GPX/1/1" xmlns:xsi="http://www.w3.org/2001/XMLSchema-instance" xsi:schemaLocation="http://www.topografix.com/GPX/1/1 http://www.topografix.com/GPX/1/1/gpx.xsd" version="1.1" creator="VisuGPX - https://www.visugpx.com">
  <metadata>
    <name>Saint-Paul-sur-Ubaye - Tête de Paneyron</name>
  </metadata>
  <trk>
    <name><![CDATA[Saint-Paul-sur-Ubaye - TÃªte de Paneyron - 8174 - UtagawaVTT.com]]></name>
    <trkseg>
      <trkpt lat="44.51716" lon="6.75783">
        <ele>1389</ele>
        <time>2013-08-18T07:26:27Z</time>
      </trkpt>
      <trkpt lat="44.51567" lon="6.75396">
        <ele>1408</ele>
        <time>2013-08-18T07:30:32Z</time>
      </trkpt>
      <trkpt lat="44.51563" lon="6.75381">
        <ele>1408</ele>
        <time>2013-08-18T07:30:37Z</time>
      </trkpt>
      <trkpt lat="44.51549" lon="6.7532">
        <ele>1407</ele>
        <time>2013-08-18T07:30:51Z</time>
      </trkpt>
      <trkpt lat="44.51533" lon="6.75273">
        <ele>1407</ele>
        <time>2013-08-18T07:31:05Z</time>
      </trkpt>
      <trkpt lat="44.51525" lon="6.75248">
        <ele>1408</ele>
        <time>2013-08-18T07:31:18Z</time>
      </trkpt>
      <trkpt lat="44.51512" lon="6.75197">
        <ele>1410</ele>
        <time>2013-08-18T07:31:33Z</time>
      </trkpt>
      <trkpt lat="44.51488" lon="6.7515">
        <ele>1410</ele>
        <time>2013-08-18T07:31:47Z</time>
      </trkpt>
      <trkpt lat="44.51476" lon="6.75095">
        <ele>1410</ele>
        <time>2013-08-18T07:31:58Z</time>
      </trkpt>
      <trkpt lat="44.51461" lon="6.75051">
        <ele>1411</ele>
        <time>2013-08-18T07:32:11Z</time>
      </trkpt>
      <trkpt lat="44.51455" lon="6.7501">
        <ele>1411</ele>
        <time>2013-08-18T07:32:22Z</time>
      </trkpt>
      <trkpt lat="44.51451" lon="6.75005">
        <ele>1411</ele>
        <time>2013-08-18T07:32:31Z</time>
      </trkpt>
      <trkpt lat="44.51464" lon="6.75023">
        <ele>1411</ele>
        <time>2013-08-18T07:32:42Z</time>
      </trkpt>
      <trkpt lat="44.51463" lon="6.75035">
        <ele>1411</ele>
        <time>2013-08-18T07:32:47Z</time>
      </trkpt>
      <trkpt lat="44.51457" lon="6.7504">
        <ele>1411</ele>
        <time>2013-08-18T07:32:53Z</time>
      </trkpt>
      <trkpt lat="44.51462" lon="6.75023">
        <ele>1411</ele>
        <time>2013-08-18T07:33:00Z</time>
      </trkpt>
      <trkpt lat="44.5144" lon="6.75003">
        <ele>1410</ele>
        <time>2013-08-18T07:33:06Z</time>
      </trkpt>
      <trkpt lat="44.51414" lon="6.75015">
        <ele>1408</ele>
        <time>2013-08-18T07:33:13Z</time>
      </trkpt>
      <trkpt lat="44.51397" lon="6.7498">
        <ele>1403</ele>
        <time>2013-08-18T07:33:21Z</time>
      </trkpt>
      <trkpt lat="44.51378" lon="6.74889">
        <ele>1396</ele>
        <time>2013-08-18T07:33:30Z</time>
      </trkpt>
      <trkpt lat="44.51358" lon="6.74839">
        <ele>1390</ele>
        <time>2013-08-18T07:33:41Z</time>
      </trkpt>
      <trkpt lat="44.51309" lon="6.74774">
        <ele>1388</ele>
        <time>2013-08-18T07:33:56Z</time>
      </trkpt>
      <trkpt lat="44.51305" lon="6.74735">
        <ele>1382</ele>
        <time>2013-08-18T07:34:05Z</time>
      </trkpt>
      <trkpt lat="44.51322" lon="6.74694">
        <ele>1374</ele>
        <time>2013-08-18T07:34:12Z</time>
      </trkpt>
      <trkpt lat="44.51312" lon="6.74658">
        <ele>1371</ele>
        <time>2013-08-18T07:34:20Z</time>
      </trkpt>
      <trkpt lat="44.51324" lon="6.74639">
        <ele>1371</ele>
        <time>2013-08-18T07:34:28Z</time>
      </trkpt>
      <trkpt lat="44.5135" lon="6.74614">
        <ele>1374</ele>
        <time>2013-08-18T07:34:42Z</time>
      </trkpt>
      <trkpt lat="44.51352" lon="6.74608">
        <ele>1374</ele>
        <time>2013-08-18T07:34:46Z</time>
      </trkpt>
      <trkpt lat="44.51351" lon="6.74597">
        <ele>1374</ele>
        <time>2013-08-18T07:34:57Z</time>
      </trkpt>
      <trkpt lat="44.51341" lon="6.74593">
        <ele>1374</ele>
        <time>2013-08-18T07:35:07Z</time>
      </trkpt>
      <trkpt lat="44.51333" lon="6.74594">
        <ele>1375</ele>
        <time>2013-08-18T07:35:27Z</time>
      </trkpt>
      <trkpt lat="44.51332" lon="6.74599">
        <ele>1374</ele>
        <time>2013-08-18T07:35:41Z</time>
      </trkpt>
      <trkpt lat="44.51326" lon="6.74594">
        <ele>1373</ele>
        <time>2013-08-18T07:38:26Z</time>
      </trkpt>
      <trkpt lat="44.51285" lon="6.74587">
        <ele>1372</ele>
        <time>2013-08-18T07:38:39Z</time>
      </trkpt>
      <trkpt lat="44.51251" lon="6.74577">
        <ele>1371</ele>
        <time>2013-08-18T07:38:50Z</time>
      </trkpt>
      <trkpt lat="44.51222" lon="6.74553">
        <ele>1371</ele>
        <time>2013-08-18T07:39:01Z</time>
      </trkpt>
      <trkpt lat="44.51187" lon="6.74521">
        <ele>1373</ele>
        <time>2013-08-18T07:39:17Z</time>
      </trkpt>
      <trkpt lat="44.51158" lon="6.74509">
        <ele>1376</ele>
        <time>2013-08-18T07:39:31Z</time>
      </trkpt>
      <trkpt lat="44.51129" lon="6.74493">
        <ele>1378</ele>
        <time>2013-08-18T07:39:47Z</time>
      </trkpt>
      <trkpt lat="44.51105" lon="6.74469">
        <ele>1380</ele>
        <time>2013-08-18T07:40:01Z</time>
      </trkpt>
      <trkpt lat="44.51091" lon="6.74449">
        <ele>1380</ele>
        <time>2013-08-18T07:40:10Z</time>
      </trkpt>
      <trkpt lat="44.51103" lon="6.74436">
        <ele>1381</ele>
        <time>2013-08-18T07:40:21Z</time>
      </trkpt>
      <trkpt lat="44.51134" lon="6.74417">
        <ele>1382</ele>
        <time>2013-08-18T07:40:35Z</time>
      </trkpt>
      <trkpt lat="44.51136" lon="6.74404">
        <ele>1383</ele>
        <time>2013-08-18T07:40:41Z</time>
      </trkpt>
      <trkpt lat="44.5112" lon="6.74403">
        <ele>1384</ele>
        <time>2013-08-18T07:40:48Z</time>
      </trkpt>
      <trkpt lat="44.51085" lon="6.74431">
        <ele>1383</ele>
        <time>2013-08-18T07:41:02Z</time>
      </trkpt>
      <trkpt lat="44.51072" lon="6.74432">
        <ele>1385</ele>
        <time>2013-08-18T07:41:11Z</time>
      </trkpt>
      <trkpt lat="44.51054" lon="6.74406">
        <ele>1390</ele>
        <time>2013-08-18T07:41:30Z</time>
      </trkpt>
      <trkpt lat="44.5104" lon="6.74388">
        <ele>1395</ele>
        <time>2013-08-18T07:41:46Z</time>
      </trkpt>
      <trkpt lat="44.51034" lon="6.74384">
        <ele>1397</ele>
        <time>2013-08-18T07:41:55Z</time>
      </trkpt>
      <trkpt lat="44.51016" lon="6.74397">
        <ele>1399</ele>
        <time>2013-08-18T07:42:09Z</time>
      </trkpt>
      <trkpt lat="44.51005" lon="6.74411">
        <ele>1402</ele>
        <time>2013-08-18T07:42:22Z</time>
      </trkpt>
      <trkpt lat="44.50997" lon="6.7442">
        <ele>1404</ele>
        <time>2013-08-18T07:42:32Z</time>
      </trkpt>
      <trkpt lat="44.50989" lon="6.74427">
        <ele>1407</ele>
        <time>2013-08-18T07:42:44Z</time>
      </trkpt>
      <trkpt lat="44.50986" lon="6.74429">
        <ele>1408</ele>
        <time>2013-08-18T07:42:53Z</time>
      </trkpt>
      <trkpt lat="44.50974" lon="6.74436">
        <ele>1410</ele>
        <time>2013-08-18T07:43:12Z</time>
      </trkpt>
      <trkpt lat="44.50972" lon="6.74441">
        <ele>1411</ele>
        <time>2013-08-18T07:43:21Z</time>
      </trkpt>
      <trkpt lat="44.50969" lon="6.7444">
        <ele>1412</ele>
        <time>2013-08-18T07:43:30Z</time>
      </trkpt>
      <trkpt lat="44.50961" lon="6.74445">
        <ele>1413</ele>
        <time>2013-08-18T07:43:41Z</time>
      </trkpt>
      <trkpt lat="44.50955" lon="6.74448">
        <ele>1416</ele>
        <time>2013-08-18T07:43:54Z</time>
      </trkpt>
      <trkpt lat="44.50937" lon="6.74447">
        <ele>1423</ele>
        <time>2013-08-18T07:44:31Z</time>
      </trkpt>
      <trkpt lat="44.50935" lon="6.74424">
        <ele>1426</ele>
        <time>2013-08-18T07:44:47Z</time>
      </trkpt>
      <trkpt lat="44.50935" lon="6.74409">
        <ele>1428</ele>
        <time>2013-08-18T07:45:01Z</time>
      </trkpt>
      <trkpt lat="44.50944" lon="6.74402">
        <ele>1430</ele>
        <time>2013-08-18T07:45:12Z</time>
      </trkpt>
      <trkpt lat="44.50952" lon="6.744">
        <ele>1432</ele>
        <time>2013-08-18T07:45:34Z</time>
      </trkpt>
      <trkpt lat="44.50955" lon="6.74384">
        <ele>1434</ele>
        <time>2013-08-18T07:45:47Z</time>
      </trkpt>
      <trkpt lat="44.50944" lon="6.74368">
        <ele>1438</ele>
        <time>2013-08-18T07:46:15Z</time>
      </trkpt>
      <trkpt lat="44.50929" lon="6.74386">
        <ele>1441</ele>
        <time>2013-08-18T07:46:31Z</time>
      </trkpt>
      <trkpt lat="44.50919" lon="6.74393">
        <ele>1442</ele>
        <time>2013-08-18T07:46:43Z</time>
      </trkpt>
      <trkpt lat="44.50897" lon="6.74409">
        <ele>1447</ele>
        <time>2013-08-18T07:47:12Z</time>
      </trkpt>
      <trkpt lat="44.50889" lon="6.744">
        <ele>1448</ele>
        <time>2013-08-18T07:47:23Z</time>
      </trkpt>
      <trkpt lat="44.5088" lon="6.7438">
        <ele>1453</ele>
        <time>2013-08-18T07:47:51Z</time>
      </trkpt>
      <trkpt lat="44.50879" lon="6.74377">
        <ele>1454</ele>
        <time>2013-08-18T07:47:57Z</time>
      </trkpt>
      <trkpt lat="44.50895" lon="6.74356">
        <ele>1459</ele>
        <time>2013-08-18T07:48:21Z</time>
      </trkpt>
      <trkpt lat="44.50902" lon="6.74353">
        <ele>1463</ele>
        <time>2013-08-18T07:48:41Z</time>
      </trkpt>
      <trkpt lat="44.5089" lon="6.74329">
        <ele>1471</ele>
        <time>2013-08-18T07:49:33Z</time>
      </trkpt>
      <trkpt lat="44.50877" lon="6.74326">
        <ele>1475</ele>
        <time>2013-08-18T07:49:56Z</time>
      </trkpt>
      <trkpt lat="44.50863" lon="6.7432">
        <ele>1480</ele>
        <time>2013-08-18T07:50:27Z</time>
      </trkpt>
      <trkpt lat="44.50855" lon="6.74304">
        <ele>1486</ele>
        <time>2013-08-18T07:51:03Z</time>
      </trkpt>
      <trkpt lat="44.50854" lon="6.74302">
        <ele>1487</ele>
        <time>2013-08-18T07:51:05Z</time>
      </trkpt>
      <trkpt lat="44.50827" lon="6.7426">
        <ele>1497</ele>
        <time>2013-08-18T07:52:05Z</time>
      </trkpt>
      <trkpt lat="44.5082" lon="6.74254">
        <ele>1498</ele>
        <time>2013-08-18T07:52:15Z</time>
      </trkpt>
      <trkpt lat="44.508" lon="6.74264">
        <ele>1498</ele>
        <time>2013-08-18T07:52:56Z</time>
      </trkpt>
      <trkpt lat="44.5078" lon="6.74264">
        <ele>1499</ele>
        <time>2013-08-18T07:53:08Z</time>
      </trkpt>
      <trkpt lat="44.50768" lon="6.74245">
        <ele>1499</ele>
        <time>2013-08-18T07:53:21Z</time>
      </trkpt>
      <trkpt lat="44.50754" lon="6.74238">
        <ele>1501</ele>
        <time>2013-08-18T07:53:31Z</time>
      </trkpt>
      <trkpt lat="44.50746" lon="6.7423">
        <ele>1502</ele>
        <time>2013-08-18T07:53:40Z</time>
      </trkpt>
      <trkpt lat="44.50737" lon="6.7423">
        <ele>1503</ele>
        <time>2013-08-18T07:53:51Z</time>
      </trkpt>
      <trkpt lat="44.50736" lon="6.74232">
        <ele>1504</ele>
        <time>2013-08-18T07:54:26Z</time>
      </trkpt>
      <trkpt lat="44.50752" lon="6.74234">
        <ele>1506</ele>
        <time>2013-08-18T07:54:37Z</time>
      </trkpt>
      <trkpt lat="44.50769" lon="6.74236">
        <ele>1507</ele>
        <time>2013-08-18T07:54:48Z</time>
      </trkpt>
      <trkpt lat="44.50784" lon="6.74232">
        <ele>1509</ele>
        <time>2013-08-18T07:54:59Z</time>
      </trkpt>
      <trkpt lat="44.50796" lon="6.74226">
        <ele>1510</ele>
        <time>2013-08-18T07:55:08Z</time>
      </trkpt>
      <trkpt lat="44.508" lon="6.74224">
        <ele>1511</ele>
        <time>2013-08-18T07:55:12Z</time>
      </trkpt>
      <trkpt lat="44.50818" lon="6.74215">
        <ele>1514</ele>
        <time>2013-08-18T07:55:26Z</time>
      </trkpt>
      <trkpt lat="44.50839" lon="6.74205">
        <ele>1517</ele>
        <time>2013-08-18T07:55:41Z</time>
      </trkpt>
      <trkpt lat="44.50856" lon="6.74202">
        <ele>1518</ele>
        <time>2013-08-18T07:55:50Z</time>
      </trkpt>
      <trkpt lat="44.50876" lon="6.74189">
        <ele>1519</ele>
        <time>2013-08-18T07:56:05Z</time>
      </trkpt>
      <trkpt lat="44.50894" lon="6.74175">
        <ele>1521</ele>
        <time>2013-08-18T07:56:17Z</time>
      </trkpt>
      <trkpt lat="44.50912" lon="6.74162">
        <ele>1522</ele>
        <time>2013-08-18T07:56:27Z</time>
      </trkpt>
      <trkpt lat="44.50929" lon="6.7414">
        <ele>1523</ele>
        <time>2013-08-18T07:56:40Z</time>
      </trkpt>
      <trkpt lat="44.50948" lon="6.74116">
        <ele>1524</ele>
        <time>2013-08-18T07:56:54Z</time>
      </trkpt>
      <trkpt lat="44.5097" lon="6.74098">
        <ele>1526</ele>
        <time>2013-08-18T07:57:08Z</time>
      </trkpt>
      <trkpt lat="44.5099" lon="6.74079">
        <ele>1528</ele>
        <time>2013-08-18T07:57:23Z</time>
      </trkpt>
      <trkpt lat="44.51014" lon="6.74061">
        <ele>1530</ele>
        <time>2013-08-18T07:57:37Z</time>
      </trkpt>
      <trkpt lat="44.51037" lon="6.74065">
        <ele>1531</ele>
        <time>2013-08-18T07:57:49Z</time>
      </trkpt>
      <trkpt lat="44.5105" lon="6.74073">
        <ele>1533</ele>
        <time>2013-08-18T07:57:57Z</time>
      </trkpt>
      <trkpt lat="44.51068" lon="6.74097">
        <ele>1534</ele>
        <time>2013-08-18T07:58:12Z</time>
      </trkpt>
      <trkpt lat="44.51088" lon="6.74119">
        <ele>1536</ele>
        <time>2013-08-18T07:58:26Z</time>
      </trkpt>
      <trkpt lat="44.51108" lon="6.74123">
        <ele>1537</ele>
        <time>2013-08-18T07:58:37Z</time>
      </trkpt>
      <trkpt lat="44.5113" lon="6.74126">
        <ele>1540</ele>
        <time>2013-08-18T07:58:49Z</time>
      </trkpt>
      <trkpt lat="44.51158" lon="6.74121">
        <ele>1542</ele>
        <time>2013-08-18T07:59:05Z</time>
      </trkpt>
      <trkpt lat="44.51179" lon="6.74124">
        <ele>1544</ele>
        <time>2013-08-18T07:59:19Z</time>
      </trkpt>
      <trkpt lat="44.51199" lon="6.74116">
        <ele>1546</ele>
        <time>2013-08-18T07:59:32Z</time>
      </trkpt>
      <trkpt lat="44.5122" lon="6.74099">
        <ele>1549</ele>
        <time>2013-08-18T07:59:47Z</time>
      </trkpt>
      <trkpt lat="44.51239" lon="6.74085">
        <ele>1550</ele>
        <time>2013-08-18T07:59:58Z</time>
      </trkpt>
      <trkpt lat="44.51258" lon="6.74073">
        <ele>1552</ele>
        <time>2013-08-18T08:00:08Z</time>
      </trkpt>
      <trkpt lat="44.51271" lon="6.74066">
        <ele>1553</ele>
        <time>2013-08-18T08:00:17Z</time>
      </trkpt>
      <trkpt lat="44.51287" lon="6.74056">
        <ele>1554</ele>
        <time>2013-08-18T08:00:27Z</time>
      </trkpt>
      <trkpt lat="44.51304" lon="6.7405">
        <ele>1557</ele>
        <time>2013-08-18T08:00:39Z</time>
      </trkpt>
      <trkpt lat="44.51326" lon="6.74041">
        <ele>1559</ele>
        <time>2013-08-18T08:00:53Z</time>
      </trkpt>
      <trkpt lat="44.51351" lon="6.74015">
        <ele>1561</ele>
        <time>2013-08-18T08:01:06Z</time>
      </trkpt>
      <trkpt lat="44.51358" lon="6.74007">
        <ele>1562</ele>
        <time>2013-08-18T08:01:13Z</time>
      </trkpt>
      <trkpt lat="44.51382" lon="6.73976">
        <ele>1563</ele>
        <time>2013-08-18T08:01:29Z</time>
      </trkpt>
      <trkpt lat="44.51402" lon="6.73952">
        <ele>1565</ele>
        <time>2013-08-18T08:01:43Z</time>
      </trkpt>
      <trkpt lat="44.51417" lon="6.73928">
        <ele>1568</ele>
        <time>2013-08-18T08:01:59Z</time>
      </trkpt>
      <trkpt lat="44.51438" lon="6.73902">
        <ele>1569</ele>
        <time>2013-08-18T08:02:14Z</time>
      </trkpt>
      <trkpt lat="44.5146" lon="6.73875">
        <ele>1571</ele>
        <time>2013-08-18T08:02:28Z</time>
      </trkpt>
      <trkpt lat="44.51476" lon="6.73854">
        <ele>1573</ele>
        <time>2013-08-18T08:02:43Z</time>
      </trkpt>
      <trkpt lat="44.51494" lon="6.73831">
        <ele>1575</ele>
        <time>2013-08-18T08:02:59Z</time>
      </trkpt>
      <trkpt lat="44.51506" lon="6.73798">
        <ele>1578</ele>
        <time>2013-08-18T08:03:15Z</time>
      </trkpt>
      <trkpt lat="44.5152" lon="6.73766">
        <ele>1579</ele>
        <time>2013-08-18T08:03:31Z</time>
      </trkpt>
      <trkpt lat="44.51536" lon="6.7375">
        <ele>1581</ele>
        <time>2013-08-18T08:03:41Z</time>
      </trkpt>
      <trkpt lat="44.51558" lon="6.73753">
        <ele>1583</ele>
        <time>2013-08-18T08:03:55Z</time>
      </trkpt>
      <trkpt lat="44.51577" lon="6.73755">
        <ele>1585</ele>
        <time>2013-08-18T08:04:06Z</time>
      </trkpt>
      <trkpt lat="44.51565" lon="6.73747">
        <ele>1586</ele>
        <time>2013-08-18T08:04:16Z</time>
      </trkpt>
      <trkpt lat="44.51531" lon="6.73737">
        <ele>1589</ele>
        <time>2013-08-18T08:04:35Z</time>
      </trkpt>
      <trkpt lat="44.51516" lon="6.73759">
        <ele>1591</ele>
        <time>2013-08-18T08:04:48Z</time>
      </trkpt>
      <trkpt lat="44.51496" lon="6.73787">
        <ele>1593</ele>
        <time>2013-08-18T08:05:03Z</time>
      </trkpt>
      <trkpt lat="44.51478" lon="6.73809">
        <ele>1594</ele>
        <time>2013-08-18T08:05:16Z</time>
      </trkpt>
      <trkpt lat="44.5146" lon="6.73821">
        <ele>1596</ele>
        <time>2013-08-18T08:05:29Z</time>
      </trkpt>
      <trkpt lat="44.51436" lon="6.73837">
        <ele>1598</ele>
        <time>2013-08-18T08:05:45Z</time>
      </trkpt>
      <trkpt lat="44.51436" lon="6.73824">
        <ele>1599</ele>
        <time>2013-08-18T08:05:52Z</time>
      </trkpt>
      <trkpt lat="44.51446" lon="6.73813">
        <ele>1600</ele>
        <time>2013-08-18T08:06:00Z</time>
      </trkpt>
      <trkpt lat="44.51467" lon="6.7379">
        <ele>1602</ele>
        <time>2013-08-18T08:06:16Z</time>
      </trkpt>
      <trkpt lat="44.51482" lon="6.73763">
        <ele>1604</ele>
        <time>2013-08-18T08:06:30Z</time>
      </trkpt>
      <trkpt lat="44.51494" lon="6.73736">
        <ele>1605</ele>
        <time>2013-08-18T08:06:42Z</time>
      </trkpt>
      <trkpt lat="44.51509" lon="6.73698">
        <ele>1607</ele>
        <time>2013-08-18T08:06:55Z</time>
      </trkpt>
      <trkpt lat="44.5153" lon="6.73689">
        <ele>1608</ele>
        <time>2013-08-18T08:07:06Z</time>
      </trkpt>
      <trkpt lat="44.51554" lon="6.73688">
        <ele>1610</ele>
        <time>2013-08-18T08:07:20Z</time>
      </trkpt>
      <trkpt lat="44.51587" lon="6.73691">
        <ele>1612</ele>
        <time>2013-08-18T08:07:36Z</time>
      </trkpt>
      <trkpt lat="44.51611" lon="6.73679">
        <ele>1613</ele>
        <time>2013-08-18T08:07:50Z</time>
      </trkpt>
      <trkpt lat="44.51639" lon="6.73664">
        <ele>1615</ele>
        <time>2013-08-18T08:08:04Z</time>
      </trkpt>
      <trkpt lat="44.51665" lon="6.73646">
        <ele>1617</ele>
        <time>2013-08-18T08:08:19Z</time>
      </trkpt>
      <trkpt lat="44.5169" lon="6.73634">
        <ele>1618</ele>
        <time>2013-08-18T08:08:32Z</time>
      </trkpt>
      <trkpt lat="44.51712" lon="6.73606">
        <ele>1620</ele>
        <time>2013-08-18T08:08:47Z</time>
      </trkpt>
      <trkpt lat="44.51736" lon="6.73577">
        <ele>1622</ele>
        <time>2013-08-18T08:09:02Z</time>
      </trkpt>
      <trkpt lat="44.51757" lon="6.73554">
        <ele>1624</ele>
        <time>2013-08-18T08:09:15Z</time>
      </trkpt>
      <trkpt lat="44.51778" lon="6.73528">
        <ele>1626</ele>
        <time>2013-08-18T08:09:29Z</time>
      </trkpt>
      <trkpt lat="44.51785" lon="6.73515">
        <ele>1627</ele>
        <time>2013-08-18T08:09:35Z</time>
      </trkpt>
      <trkpt lat="44.51803" lon="6.73483">
        <ele>1629</ele>
        <time>2013-08-18T08:09:52Z</time>
      </trkpt>
      <trkpt lat="44.51817" lon="6.73454">
        <ele>1631</ele>
        <time>2013-08-18T08:10:06Z</time>
      </trkpt>
      <trkpt lat="44.51832" lon="6.73422">
        <ele>1633</ele>
        <time>2013-08-18T08:10:21Z</time>
      </trkpt>
      <trkpt lat="44.51852" lon="6.73386">
        <ele>1634</ele>
        <time>2013-08-18T08:10:36Z</time>
      </trkpt>
      <trkpt lat="44.51863" lon="6.73356">
        <ele>1636</ele>
        <time>2013-08-18T08:10:49Z</time>
      </trkpt>
      <trkpt lat="44.5187" lon="6.73312">
        <ele>1639</ele>
        <time>2013-08-18T08:11:04Z</time>
      </trkpt>
      <trkpt lat="44.51882" lon="6.73271">
        <ele>1641</ele>
        <time>2013-08-18T08:11:20Z</time>
      </trkpt>
      <trkpt lat="44.51884" lon="6.73237">
        <ele>1643</ele>
        <time>2013-08-18T08:11:35Z</time>
      </trkpt>
      <trkpt lat="44.51888" lon="6.732">
        <ele>1646</ele>
        <time>2013-08-18T08:11:51Z</time>
      </trkpt>
      <trkpt lat="44.51901" lon="6.73161">
        <ele>1647</ele>
        <time>2013-08-18T08:12:05Z</time>
      </trkpt>
      <trkpt lat="44.51923" lon="6.73147">
        <ele>1649</ele>
        <time>2013-08-18T08:12:19Z</time>
      </trkpt>
      <trkpt lat="44.51933" lon="6.73106">
        <ele>1651</ele>
        <time>2013-08-18T08:12:32Z</time>
      </trkpt>
      <trkpt lat="44.51929" lon="6.73065">
        <ele>1651</ele>
        <time>2013-08-18T08:12:43Z</time>
      </trkpt>
      <trkpt lat="44.51949" lon="6.73036">
        <ele>1652</ele>
        <time>2013-08-18T08:12:54Z</time>
      </trkpt>
      <trkpt lat="44.51958" lon="6.72999">
        <ele>1653</ele>
        <time>2013-08-18T08:13:04Z</time>
      </trkpt>
      <trkpt lat="44.5196" lon="6.72964">
        <ele>1653</ele>
        <time>2013-08-18T08:13:12Z</time>
      </trkpt>
      <trkpt lat="44.5199" lon="6.72942">
        <ele>1654</ele>
        <time>2013-08-18T08:13:23Z</time>
      </trkpt>
      <trkpt lat="44.52013" lon="6.72899">
        <ele>1654</ele>
        <time>2013-08-18T08:13:34Z</time>
      </trkpt>
      <trkpt lat="44.52038" lon="6.72853">
        <ele>1655</ele>
        <time>2013-08-18T08:13:47Z</time>
      </trkpt>
      <trkpt lat="44.52049" lon="6.72813">
        <ele>1656</ele>
        <time>2013-08-18T08:13:57Z</time>
      </trkpt>
      <trkpt lat="44.52061" lon="6.72769">
        <ele>1657</ele>
        <time>2013-08-18T08:14:07Z</time>
      </trkpt>
      <trkpt lat="44.52071" lon="6.7272">
        <ele>1659</ele>
        <time>2013-08-18T08:14:19Z</time>
      </trkpt>
      <trkpt lat="44.5209" lon="6.72662">
        <ele>1660</ele>
        <time>2013-08-18T08:14:33Z</time>
      </trkpt>
      <trkpt lat="44.52104" lon="6.72621">
        <ele>1661</ele>
        <time>2013-08-18T08:14:44Z</time>
      </trkpt>
      <trkpt lat="44.52114" lon="6.72572">
        <ele>1661</ele>
        <time>2013-08-18T08:14:55Z</time>
      </trkpt>
      <trkpt lat="44.52132" lon="6.72529">
        <ele>1662</ele>
        <time>2013-08-18T08:15:05Z</time>
      </trkpt>
      <trkpt lat="44.52139" lon="6.72484">
        <ele>1663</ele>
        <time>2013-08-18T08:15:16Z</time>
      </trkpt>
      <trkpt lat="44.52133" lon="6.72431">
        <ele>1664</ele>
        <time>2013-08-18T08:15:29Z</time>
      </trkpt>
      <trkpt lat="44.52123" lon="6.724">
        <ele>1665</ele>
        <time>2013-08-18T08:15:38Z</time>
      </trkpt>
      <trkpt lat="44.52151" lon="6.72373">
        <ele>1666</ele>
        <time>2013-08-18T08:15:48Z</time>
      </trkpt>
      <trkpt lat="44.52163" lon="6.72336">
        <ele>1667</ele>
        <time>2013-08-18T08:16:01Z</time>
      </trkpt>
      <trkpt lat="44.52181" lon="6.72294">
        <ele>1668</ele>
        <time>2013-08-18T08:16:14Z</time>
      </trkpt>
      <trkpt lat="44.52208" lon="6.72256">
        <ele>1669</ele>
        <time>2013-08-18T08:16:26Z</time>
      </trkpt>
      <trkpt lat="44.52223" lon="6.72206">
        <ele>1669</ele>
        <time>2013-08-18T08:16:39Z</time>
      </trkpt>
      <trkpt lat="44.52235" lon="6.72174">
        <ele>1670</ele>
        <time>2013-08-18T08:16:51Z</time>
      </trkpt>
      <trkpt lat="44.52245" lon="6.72132">
        <ele>1671</ele>
        <time>2013-08-18T08:17:03Z</time>
      </trkpt>
      <trkpt lat="44.52281" lon="6.72089">
        <ele>1671</ele>
        <time>2013-08-18T08:17:18Z</time>
      </trkpt>
      <trkpt lat="44.52283" lon="6.72043">
        <ele>1672</ele>
        <time>2013-08-18T08:17:29Z</time>
      </trkpt>
      <trkpt lat="44.52294" lon="6.71991">
        <ele>1673</ele>
        <time>2013-08-18T08:17:41Z</time>
      </trkpt>
      <trkpt lat="44.5231" lon="6.71927">
        <ele>1674</ele>
        <time>2013-08-18T08:17:57Z</time>
      </trkpt>
      <trkpt lat="44.5235" lon="6.71878">
        <ele>1674</ele>
        <time>2013-08-18T08:18:13Z</time>
      </trkpt>
      <trkpt lat="44.52381" lon="6.71843">
        <ele>1675</ele>
        <time>2013-08-18T08:18:26Z</time>
      </trkpt>
      <trkpt lat="44.52411" lon="6.71811">
        <ele>1675</ele>
        <time>2013-08-18T08:18:38Z</time>
      </trkpt>
      <trkpt lat="44.52437" lon="6.7179">
        <ele>1674</ele>
        <time>2013-08-18T08:18:47Z</time>
      </trkpt>
      <trkpt lat="44.52434" lon="6.71736">
        <ele>1675</ele>
        <time>2013-08-18T08:19:00Z</time>
      </trkpt>
      <trkpt lat="44.52425" lon="6.71677">
        <ele>1676</ele>
        <time>2013-08-18T08:19:13Z</time>
      </trkpt>
      <trkpt lat="44.52421" lon="6.71612">
        <ele>1677</ele>
        <time>2013-08-18T08:19:27Z</time>
      </trkpt>
      <trkpt lat="44.52418" lon="6.71561">
        <ele>1678</ele>
        <time>2013-08-18T08:19:39Z</time>
      </trkpt>
      <trkpt lat="44.52419" lon="6.71507">
        <ele>1678</ele>
        <time>2013-08-18T08:19:51Z</time>
      </trkpt>
      <trkpt lat="44.52434" lon="6.71442">
        <ele>1678</ele>
        <time>2013-08-18T08:20:04Z</time>
      </trkpt>
      <trkpt lat="44.52446" lon="6.71384">
        <ele>1675</ele>
        <time>2013-08-18T08:20:11Z</time>
      </trkpt>
      <trkpt lat="44.52469" lon="6.71295">
        <ele>1671</ele>
        <time>2013-08-18T08:20:22Z</time>
      </trkpt>
      <trkpt lat="44.52473" lon="6.71256">
        <ele>1671</ele>
        <time>2013-08-18T08:20:29Z</time>
      </trkpt>
      <trkpt lat="44.52466" lon="6.71202">
        <ele>1670</ele>
        <time>2013-08-18T08:20:36Z</time>
      </trkpt>
      <trkpt lat="44.52482" lon="6.71189">
        <ele>1668</ele>
        <time>2013-08-18T08:20:43Z</time>
      </trkpt>
      <trkpt lat="44.52491" lon="6.71191">
        <ele>1668</ele>
        <time>2013-08-18T08:20:50Z</time>
      </trkpt>
      <trkpt lat="44.52511" lon="6.71206">
        <ele>1667</ele>
        <time>2013-08-18T08:20:58Z</time>
      </trkpt>
      <trkpt lat="44.52521" lon="6.71204">
        <ele>1666</ele>
        <time>2013-08-18T08:22:32Z</time>
      </trkpt>
      <trkpt lat="44.52547" lon="6.712">
        <ele>1665</ele>
        <time>2013-08-18T08:22:38Z</time>
      </trkpt>
      <trkpt lat="44.52575" lon="6.71243">
        <ele>1663</ele>
        <time>2013-08-18T08:22:45Z</time>
      </trkpt>
      <trkpt lat="44.52603" lon="6.71275">
        <ele>1660</ele>
        <time>2013-08-18T08:22:53Z</time>
      </trkpt>
      <trkpt lat="44.52617" lon="6.71279">
        <ele>1659</ele>
        <time>2013-08-18T08:22:59Z</time>
      </trkpt>
      <trkpt lat="44.5263" lon="6.71294">
        <ele>1660</ele>
        <time>2013-08-18T08:23:12Z</time>
      </trkpt>
      <trkpt lat="44.5264" lon="6.71328">
        <ele>1660</ele>
        <time>2013-08-18T08:23:24Z</time>
      </trkpt>
      <trkpt lat="44.52648" lon="6.71377">
        <ele>1662</ele>
        <time>2013-08-18T08:23:37Z</time>
      </trkpt>
      <trkpt lat="44.52649" lon="6.71421">
        <ele>1663</ele>
        <time>2013-08-18T08:23:48Z</time>
      </trkpt>
      <trkpt lat="44.52658" lon="6.71485">
        <ele>1664</ele>
        <time>2013-08-18T08:24:02Z</time>
      </trkpt>
      <trkpt lat="44.52663" lon="6.71523">
        <ele>1664</ele>
        <time>2013-08-18T08:24:10Z</time>
      </trkpt>
      <trkpt lat="44.52673" lon="6.71603">
        <ele>1665</ele>
        <time>2013-08-18T08:24:27Z</time>
      </trkpt>
      <trkpt lat="44.52679" lon="6.71677">
        <ele>1665</ele>
        <time>2013-08-18T08:24:42Z</time>
      </trkpt>
      <trkpt lat="44.52682" lon="6.71731">
        <ele>1665</ele>
        <time>2013-08-18T08:24:56Z</time>
      </trkpt>
      <trkpt lat="44.52685" lon="6.7174">
        <ele>1666</ele>
        <time>2013-08-18T08:25:05Z</time>
      </trkpt>
      <trkpt lat="44.52688" lon="6.71737">
        <ele>1670</ele>
        <time>2013-08-18T08:29:22Z</time>
      </trkpt>
      <trkpt lat="44.52684" lon="6.71719">
        <ele>1672</ele>
        <time>2013-08-18T08:40:11Z</time>
      </trkpt>
      <trkpt lat="44.52689" lon="6.71689">
        <ele>1675</ele>
        <time>2013-08-18T08:40:25Z</time>
      </trkpt>
      <trkpt lat="44.52693" lon="6.71653">
        <ele>1678</ele>
        <time>2013-08-18T08:40:44Z</time>
      </trkpt>
      <trkpt lat="44.52696" lon="6.71615">
        <ele>1681</ele>
        <time>2013-08-18T08:41:04Z</time>
      </trkpt>
      <trkpt lat="44.52696" lon="6.71582">
        <ele>1684</ele>
        <time>2013-08-18T08:41:22Z</time>
      </trkpt>
      <trkpt lat="44.52698" lon="6.71544">
        <ele>1687</ele>
        <time>2013-08-18T08:41:41Z</time>
      </trkpt>
      <trkpt lat="44.52697" lon="6.71509">
        <ele>1690</ele>
        <time>2013-08-18T08:41:59Z</time>
      </trkpt>
      <trkpt lat="44.52711" lon="6.71506">
        <ele>1692</ele>
        <time>2013-08-18T08:42:09Z</time>
      </trkpt>
      <trkpt lat="44.52719" lon="6.71537">
        <ele>1695</ele>
        <time>2013-08-18T08:42:23Z</time>
      </trkpt>
      <trkpt lat="44.52731" lon="6.71576">
        <ele>1698</ele>
        <time>2013-08-18T08:42:41Z</time>
      </trkpt>
      <trkpt lat="44.52741" lon="6.71596">
        <ele>1701</ele>
        <time>2013-08-18T08:42:52Z</time>
      </trkpt>
      <trkpt lat="44.52737" lon="6.71588">
        <ele>1701</ele>
        <time>2013-08-18T08:43:01Z</time>
      </trkpt>
      <trkpt lat="44.52748" lon="6.71611">
        <ele>1702</ele>
        <time>2013-08-18T08:43:14Z</time>
      </trkpt>
      <trkpt lat="44.52755" lon="6.71633">
        <ele>1704</ele>
        <time>2013-08-18T08:43:22Z</time>
      </trkpt>
      <trkpt lat="44.52771" lon="6.71675">
        <ele>1708</ele>
        <time>2013-08-18T08:43:33Z</time>
      </trkpt>
      <trkpt lat="44.52787" lon="6.71702">
        <ele>1711</ele>
        <time>2013-08-18T08:43:47Z</time>
      </trkpt>
      <trkpt lat="44.5279" lon="6.71707">
        <ele>1712</ele>
        <time>2013-08-18T08:43:53Z</time>
      </trkpt>
      <trkpt lat="44.52774" lon="6.71683">
        <ele>1712</ele>
        <time>2013-08-18T08:44:03Z</time>
      </trkpt>
      <trkpt lat="44.5278" lon="6.7166">
        <ele>1713</ele>
        <time>2013-08-18T08:44:28Z</time>
      </trkpt>
      <trkpt lat="44.52781" lon="6.71628">
        <ele>1717</ele>
        <time>2013-08-18T08:44:47Z</time>
      </trkpt>
      <trkpt lat="44.52779" lon="6.71615">
        <ele>1719</ele>
        <time>2013-08-18T08:44:56Z</time>
      </trkpt>
      <trkpt lat="44.52783" lon="6.71598">
        <ele>1722</ele>
        <time>2013-08-18T08:45:07Z</time>
      </trkpt>
      <trkpt lat="44.5279" lon="6.71572">
        <ele>1726</ele>
        <time>2013-08-18T08:45:24Z</time>
      </trkpt>
      <trkpt lat="44.52792" lon="6.71554">
        <ele>1728</ele>
        <time>2013-08-18T08:45:37Z</time>
      </trkpt>
      <trkpt lat="44.52792" lon="6.71527">
        <ele>1730</ele>
        <time>2013-08-18T08:45:53Z</time>
      </trkpt>
      <trkpt lat="44.52794" lon="6.71499">
        <ele>1733</ele>
        <time>2013-08-18T08:46:10Z</time>
      </trkpt>
      <trkpt lat="44.52798" lon="6.71476">
        <ele>1735</ele>
        <time>2013-08-18T08:46:26Z</time>
      </trkpt>
      <trkpt lat="44.52804" lon="6.71455">
        <ele>1738</ele>
        <time>2013-08-18T08:46:40Z</time>
      </trkpt>
      <trkpt lat="44.5281" lon="6.71447">
        <ele>1741</ele>
        <time>2013-08-18T08:46:50Z</time>
      </trkpt>
      <trkpt lat="44.5282" lon="6.7144">
        <ele>1743</ele>
        <time>2013-08-18T08:46:59Z</time>
      </trkpt>
      <trkpt lat="44.52833" lon="6.71427">
        <ele>1747</ele>
        <time>2013-08-18T08:47:24Z</time>
      </trkpt>
      <trkpt lat="44.52847" lon="6.71421">
        <ele>1749</ele>
        <time>2013-08-18T08:47:37Z</time>
      </trkpt>
      <trkpt lat="44.52853" lon="6.7141">
        <ele>1751</ele>
        <time>2013-08-18T08:47:52Z</time>
      </trkpt>
      <trkpt lat="44.52852" lon="6.71395">
        <ele>1752</ele>
        <time>2013-08-18T08:48:05Z</time>
      </trkpt>
      <trkpt lat="44.52846" lon="6.71379">
        <ele>1754</ele>
        <time>2013-08-18T08:48:21Z</time>
      </trkpt>
      <trkpt lat="44.52841" lon="6.71366">
        <ele>1757</ele>
        <time>2013-08-18T08:48:37Z</time>
      </trkpt>
      <trkpt lat="44.5284" lon="6.71357">
        <ele>1758</ele>
        <time>2013-08-18T08:48:50Z</time>
      </trkpt>
      <trkpt lat="44.52836" lon="6.71349">
        <ele>1760</ele>
        <time>2013-08-18T08:48:58Z</time>
      </trkpt>
      <trkpt lat="44.52839" lon="6.71335">
        <ele>1762</ele>
        <time>2013-08-18T08:49:13Z</time>
      </trkpt>
      <trkpt lat="44.52846" lon="6.71323">
        <ele>1765</ele>
        <time>2013-08-18T08:49:30Z</time>
      </trkpt>
      <trkpt lat="44.52851" lon="6.71309">
        <ele>1767</ele>
        <time>2013-08-18T08:49:44Z</time>
      </trkpt>
      <trkpt lat="44.52856" lon="6.71299">
        <ele>1769</ele>
        <time>2013-08-18T08:49:57Z</time>
      </trkpt>
      <trkpt lat="44.52859" lon="6.7129">
        <ele>1771</ele>
        <time>2013-08-18T08:50:09Z</time>
      </trkpt>
      <trkpt lat="44.52862" lon="6.7128">
        <ele>1773</ele>
        <time>2013-08-18T08:50:22Z</time>
      </trkpt>
      <trkpt lat="44.52866" lon="6.71273">
        <ele>1774</ele>
        <time>2013-08-18T08:50:32Z</time>
      </trkpt>
      <trkpt lat="44.52869" lon="6.71266">
        <ele>1775</ele>
        <time>2013-08-18T08:50:41Z</time>
      </trkpt>
      <trkpt lat="44.52873" lon="6.71252">
        <ele>1777</ele>
        <time>2013-08-18T08:50:54Z</time>
      </trkpt>
      <trkpt lat="44.52877" lon="6.71241">
        <ele>1779</ele>
        <time>2013-08-18T08:51:06Z</time>
      </trkpt>
      <trkpt lat="44.52882" lon="6.71223">
        <ele>1781</ele>
        <time>2013-08-18T08:51:21Z</time>
      </trkpt>
      <trkpt lat="44.52888" lon="6.71209">
        <ele>1782</ele>
        <time>2013-08-18T08:51:34Z</time>
      </trkpt>
      <trkpt lat="44.52893" lon="6.71196">
        <ele>1785</ele>
        <time>2013-08-18T08:51:50Z</time>
      </trkpt>
      <trkpt lat="44.52897" lon="6.71189">
        <ele>1787</ele>
        <time>2013-08-18T08:52:04Z</time>
      </trkpt>
      <trkpt lat="44.529" lon="6.71181">
        <ele>1788</ele>
        <time>2013-08-18T08:52:17Z</time>
      </trkpt>
      <trkpt lat="44.52904" lon="6.71172">
        <ele>1790</ele>
        <time>2013-08-18T08:52:28Z</time>
      </trkpt>
      <trkpt lat="44.52907" lon="6.71168">
        <ele>1791</ele>
        <time>2013-08-18T08:52:37Z</time>
      </trkpt>
      <trkpt lat="44.52909" lon="6.71161">
        <ele>1792</ele>
        <time>2013-08-18T08:52:46Z</time>
      </trkpt>
      <trkpt lat="44.52912" lon="6.7115">
        <ele>1794</ele>
        <time>2013-08-18T08:53:00Z</time>
      </trkpt>
      <trkpt lat="44.52911" lon="6.71137">
        <ele>1796</ele>
        <time>2013-08-18T08:53:17Z</time>
      </trkpt>
      <trkpt lat="44.52913" lon="6.7113">
        <ele>1798</ele>
        <time>2013-08-18T08:53:32Z</time>
      </trkpt>
      <trkpt lat="44.52919" lon="6.71121">
        <ele>1800</ele>
        <time>2013-08-18T08:53:49Z</time>
      </trkpt>
      <trkpt lat="44.52923" lon="6.71115">
        <ele>1802</ele>
        <time>2013-08-18T08:54:01Z</time>
      </trkpt>
      <trkpt lat="44.52931" lon="6.71111">
        <ele>1803</ele>
        <time>2013-08-18T08:54:16Z</time>
      </trkpt>
      <trkpt lat="44.52936" lon="6.71104">
        <ele>1805</ele>
        <time>2013-08-18T08:54:31Z</time>
      </trkpt>
      <trkpt lat="44.52944" lon="6.71099">
        <ele>1807</ele>
        <time>2013-08-18T08:54:46Z</time>
      </trkpt>
      <trkpt lat="44.5295" lon="6.71094">
        <ele>1809</ele>
        <time>2013-08-18T08:54:59Z</time>
      </trkpt>
      <trkpt lat="44.52956" lon="6.71089">
        <ele>1811</ele>
        <time>2013-08-18T08:55:09Z</time>
      </trkpt>
      <trkpt lat="44.5296" lon="6.71086">
        <ele>1813</ele>
        <time>2013-08-18T08:55:20Z</time>
      </trkpt>
      <trkpt lat="44.52968" lon="6.71077">
        <ele>1814</ele>
        <time>2013-08-18T08:55:34Z</time>
      </trkpt>
      <trkpt lat="44.52972" lon="6.71068">
        <ele>1814</ele>
        <time>2013-08-18T08:55:44Z</time>
      </trkpt>
      <trkpt lat="44.52978" lon="6.71058">
        <ele>1816</ele>
        <time>2013-08-18T08:55:58Z</time>
      </trkpt>
      <trkpt lat="44.52985" lon="6.71049">
        <ele>1818</ele>
        <time>2013-08-18T08:56:09Z</time>
      </trkpt>
      <trkpt lat="44.52988" lon="6.71039">
        <ele>1819</ele>
        <time>2013-08-18T08:56:42Z</time>
      </trkpt>
      <trkpt lat="44.52989" lon="6.71039">
        <ele>1820</ele>
        <time>2013-08-18T08:56:55Z</time>
      </trkpt>
      <trkpt lat="44.5299" lon="6.71033">
        <ele>1822</ele>
        <time>2013-08-18T08:57:10Z</time>
      </trkpt>
      <trkpt lat="44.52993" lon="6.71024">
        <ele>1823</ele>
        <time>2013-08-18T08:57:31Z</time>
      </trkpt>
      <trkpt lat="44.52996" lon="6.71014">
        <ele>1825</ele>
        <time>2013-08-18T08:57:44Z</time>
      </trkpt>
      <trkpt lat="44.52999" lon="6.71007">
        <ele>1828</ele>
        <time>2013-08-18T08:57:57Z</time>
      </trkpt>
      <trkpt lat="44.53" lon="6.71004">
        <ele>1829</ele>
        <time>2013-08-18T08:58:03Z</time>
      </trkpt>
      <trkpt lat="44.53001" lon="6.70999">
        <ele>1831</ele>
        <time>2013-08-18T08:58:13Z</time>
      </trkpt>
      <trkpt lat="44.53006" lon="6.70986">
        <ele>1833</ele>
        <time>2013-08-18T08:58:27Z</time>
      </trkpt>
      <trkpt lat="44.53009" lon="6.70978">
        <ele>1835</ele>
        <time>2013-08-18T08:58:40Z</time>
      </trkpt>
      <trkpt lat="44.5301" lon="6.70968">
        <ele>1837</ele>
        <time>2013-08-18T08:58:52Z</time>
      </trkpt>
      <trkpt lat="44.53011" lon="6.70964">
        <ele>1837</ele>
        <time>2013-08-18T08:59:01Z</time>
      </trkpt>
      <trkpt lat="44.53017" lon="6.70974">
        <ele>1840</ele>
        <time>2013-08-18T08:59:40Z</time>
      </trkpt>
      <trkpt lat="44.53024" lon="6.70976">
        <ele>1841</ele>
        <time>2013-08-18T08:59:50Z</time>
      </trkpt>
      <trkpt lat="44.53031" lon="6.70979">
        <ele>1842</ele>
        <time>2013-08-18T09:00:00Z</time>
      </trkpt>
      <trkpt lat="44.53044" lon="6.7098">
        <ele>1843</ele>
        <time>2013-08-18T09:00:16Z</time>
      </trkpt>
      <trkpt lat="44.53053" lon="6.70978">
        <ele>1846</ele>
        <time>2013-08-18T09:00:32Z</time>
      </trkpt>
      <trkpt lat="44.53063" lon="6.70983">
        <ele>1850</ele>
        <time>2013-08-18T09:00:49Z</time>
      </trkpt>
      <trkpt lat="44.53067" lon="6.70986">
        <ele>1852</ele>
        <time>2013-08-18T09:01:01Z</time>
      </trkpt>
      <trkpt lat="44.53067" lon="6.70988">
        <ele>1852</ele>
        <time>2013-08-18T09:01:06Z</time>
      </trkpt>
      <trkpt lat="44.53082" lon="6.71">
        <ele>1853</ele>
        <time>2013-08-18T09:01:41Z</time>
      </trkpt>
      <trkpt lat="44.53076" lon="6.71037">
        <ele>1855</ele>
        <time>2013-08-18T09:01:53Z</time>
      </trkpt>
      <trkpt lat="44.53049" lon="6.71087">
        <ele>1857</ele>
        <time>2013-08-18T09:02:11Z</time>
      </trkpt>
      <trkpt lat="44.5304" lon="6.71145">
        <ele>1860</ele>
        <time>2013-08-18T09:02:28Z</time>
      </trkpt>
      <trkpt lat="44.53048" lon="6.71196">
        <ele>1863</ele>
        <time>2013-08-18T09:02:45Z</time>
      </trkpt>
      <trkpt lat="44.53066" lon="6.71239">
        <ele>1867</ele>
        <time>2013-08-18T09:03:03Z</time>
      </trkpt>
      <trkpt lat="44.53084" lon="6.71282">
        <ele>1871</ele>
        <time>2013-08-18T09:03:22Z</time>
      </trkpt>
      <trkpt lat="44.53106" lon="6.71313">
        <ele>1874</ele>
        <time>2013-08-18T09:03:38Z</time>
      </trkpt>
      <trkpt lat="44.53128" lon="6.7132">
        <ele>1876</ele>
        <time>2013-08-18T09:03:50Z</time>
      </trkpt>
      <trkpt lat="44.53118" lon="6.71312">
        <ele>1876</ele>
        <time>2013-08-18T09:03:59Z</time>
      </trkpt>
      <trkpt lat="44.53126" lon="6.71316">
        <ele>1876</ele>
        <time>2013-08-18T09:04:04Z</time>
      </trkpt>
      <trkpt lat="44.53148" lon="6.71286">
        <ele>1878</ele>
        <time>2013-08-18T09:04:18Z</time>
      </trkpt>
      <trkpt lat="44.53144" lon="6.71243">
        <ele>1880</ele>
        <time>2013-08-18T09:04:33Z</time>
      </trkpt>
      <trkpt lat="44.53125" lon="6.71193">
        <ele>1884</ele>
        <time>2013-08-18T09:04:54Z</time>
      </trkpt>
      <trkpt lat="44.53118" lon="6.71148">
        <ele>1888</ele>
        <time>2013-08-18T09:05:13Z</time>
      </trkpt>
      <trkpt lat="44.53121" lon="6.71105">
        <ele>1891</ele>
        <time>2013-08-18T09:05:31Z</time>
      </trkpt>
      <trkpt lat="44.5313" lon="6.71076">
        <ele>1894</ele>
        <time>2013-08-18T09:05:45Z</time>
      </trkpt>
      <trkpt lat="44.53143" lon="6.7105">
        <ele>1896</ele>
        <time>2013-08-18T09:06:00Z</time>
      </trkpt>
      <trkpt lat="44.5317" lon="6.71023">
        <ele>1900</ele>
        <time>2013-08-18T09:06:21Z</time>
      </trkpt>
      <trkpt lat="44.53196" lon="6.71002">
        <ele>1903</ele>
        <time>2013-08-18T09:06:39Z</time>
      </trkpt>
      <trkpt lat="44.53222" lon="6.70976">
        <ele>1906</ele>
        <time>2013-08-18T09:06:58Z</time>
      </trkpt>
      <trkpt lat="44.53239" lon="6.70955">
        <ele>1909</ele>
        <time>2013-08-18T09:07:13Z</time>
      </trkpt>
      <trkpt lat="44.53256" lon="6.70923">
        <ele>1912</ele>
        <time>2013-08-18T09:07:31Z</time>
      </trkpt>
      <trkpt lat="44.53276" lon="6.70884">
        <ele>1915</ele>
        <time>2013-08-18T09:07:52Z</time>
      </trkpt>
      <trkpt lat="44.53296" lon="6.70849">
        <ele>1918</ele>
        <time>2013-08-18T09:08:11Z</time>
      </trkpt>
      <trkpt lat="44.53299" lon="6.70813">
        <ele>1921</ele>
        <time>2013-08-18T09:08:26Z</time>
      </trkpt>
      <trkpt lat="44.5329" lon="6.70784">
        <ele>1923</ele>
        <time>2013-08-18T09:08:41Z</time>
      </trkpt>
      <trkpt lat="44.53256" lon="6.7076">
        <ele>1926</ele>
        <time>2013-08-18T09:09:03Z</time>
      </trkpt>
      <trkpt lat="44.5324" lon="6.70726">
        <ele>1928</ele>
        <time>2013-08-18T09:09:22Z</time>
      </trkpt>
      <trkpt lat="44.53238" lon="6.70679">
        <ele>1931</ele>
        <time>2013-08-18T09:09:41Z</time>
      </trkpt>
      <trkpt lat="44.53237" lon="6.70638">
        <ele>1934</ele>
        <time>2013-08-18T09:09:57Z</time>
      </trkpt>
      <trkpt lat="44.53237" lon="6.70584">
        <ele>1937</ele>
        <time>2013-08-18T09:10:19Z</time>
      </trkpt>
      <trkpt lat="44.53237" lon="6.70537">
        <ele>1940</ele>
        <time>2013-08-18T09:10:38Z</time>
      </trkpt>
      <trkpt lat="44.53224" lon="6.70488">
        <ele>1942</ele>
        <time>2013-08-18T09:10:59Z</time>
      </trkpt>
      <trkpt lat="44.53216" lon="6.70451">
        <ele>1945</ele>
        <time>2013-08-18T09:11:17Z</time>
      </trkpt>
      <trkpt lat="44.53218" lon="6.70406">
        <ele>1948</ele>
        <time>2013-08-18T09:11:36Z</time>
      </trkpt>
      <trkpt lat="44.53222" lon="6.70367">
        <ele>1950</ele>
        <time>2013-08-18T09:11:52Z</time>
      </trkpt>
      <trkpt lat="44.53225" lon="6.70335">
        <ele>1952</ele>
        <time>2013-08-18T09:12:06Z</time>
      </trkpt>
      <trkpt lat="44.53222" lon="6.70277">
        <ele>1955</ele>
        <time>2013-08-18T09:12:30Z</time>
      </trkpt>
      <trkpt lat="44.53211" lon="6.70236">
        <ele>1958</ele>
        <time>2013-08-18T09:12:48Z</time>
      </trkpt>
      <trkpt lat="44.53197" lon="6.70198">
        <ele>1960</ele>
        <time>2013-08-18T09:13:05Z</time>
      </trkpt>
      <trkpt lat="44.53185" lon="6.70163">
        <ele>1962</ele>
        <time>2013-08-18T09:13:20Z</time>
      </trkpt>
      <trkpt lat="44.53184" lon="6.70147">
        <ele>1963</ele>
        <time>2013-08-18T09:13:30Z</time>
      </trkpt>
      <trkpt lat="44.532" lon="6.70156">
        <ele>1964</ele>
        <time>2013-08-18T09:13:40Z</time>
      </trkpt>
      <trkpt lat="44.53209" lon="6.70174">
        <ele>1965</ele>
        <time>2013-08-18T09:13:50Z</time>
      </trkpt>
      <trkpt lat="44.53223" lon="6.70212">
        <ele>1967</ele>
        <time>2013-08-18T09:14:07Z</time>
      </trkpt>
      <trkpt lat="44.53234" lon="6.70254">
        <ele>1970</ele>
        <time>2013-08-18T09:14:26Z</time>
      </trkpt>
      <trkpt lat="44.53246" lon="6.70293">
        <ele>1973</ele>
        <time>2013-08-18T09:14:45Z</time>
      </trkpt>
      <trkpt lat="44.5326" lon="6.70323">
        <ele>1975</ele>
        <time>2013-08-18T09:15:02Z</time>
      </trkpt>
      <trkpt lat="44.5328" lon="6.70363">
        <ele>1979</ele>
        <time>2013-08-18T09:15:24Z</time>
      </trkpt>
      <trkpt lat="44.53293" lon="6.70409">
        <ele>1982</ele>
        <time>2013-08-18T09:15:46Z</time>
      </trkpt>
      <trkpt lat="44.53304" lon="6.7045">
        <ele>1985</ele>
        <time>2013-08-18T09:16:05Z</time>
      </trkpt>
      <trkpt lat="44.53324" lon="6.70474">
        <ele>1987</ele>
        <time>2013-08-18T09:16:22Z</time>
      </trkpt>
      <trkpt lat="44.53352" lon="6.70476">
        <ele>1990</ele>
        <time>2013-08-18T09:16:39Z</time>
      </trkpt>
      <trkpt lat="44.53373" lon="6.70463">
        <ele>1992</ele>
        <time>2013-08-18T09:16:52Z</time>
      </trkpt>
      <trkpt lat="44.53394" lon="6.70455">
        <ele>1994</ele>
        <time>2013-08-18T09:17:05Z</time>
      </trkpt>
      <trkpt lat="44.53422" lon="6.70458">
        <ele>1997</ele>
        <time>2013-08-18T09:17:22Z</time>
      </trkpt>
      <trkpt lat="44.53445" lon="6.70471">
        <ele>2000</ele>
        <time>2013-08-18T09:17:37Z</time>
      </trkpt>
      <trkpt lat="44.53467" lon="6.70486">
        <ele>2003</ele>
        <time>2013-08-18T09:17:53Z</time>
      </trkpt>
      <trkpt lat="44.53489" lon="6.70492">
        <ele>2005</ele>
        <time>2013-08-18T09:18:08Z</time>
      </trkpt>
      <trkpt lat="44.53512" lon="6.70488">
        <ele>2007</ele>
        <time>2013-08-18T09:18:23Z</time>
      </trkpt>
      <trkpt lat="44.53538" lon="6.7047">
        <ele>2010</ele>
        <time>2013-08-18T09:18:40Z</time>
      </trkpt>
      <trkpt lat="44.53556" lon="6.70445">
        <ele>2012</ele>
        <time>2013-08-18T09:18:56Z</time>
      </trkpt>
      <trkpt lat="44.53575" lon="6.70413">
        <ele>2014</ele>
        <time>2013-08-18T09:19:13Z</time>
      </trkpt>
      <trkpt lat="44.53595" lon="6.70379">
        <ele>2017</ele>
        <time>2013-08-18T09:19:31Z</time>
      </trkpt>
      <trkpt lat="44.53613" lon="6.70353">
        <ele>2019</ele>
        <time>2013-08-18T09:19:45Z</time>
      </trkpt>
      <trkpt lat="44.53641" lon="6.70335">
        <ele>2022</ele>
        <time>2013-08-18T09:20:01Z</time>
      </trkpt>
      <trkpt lat="44.53665" lon="6.70337">
        <ele>2024</ele>
        <time>2013-08-18T09:20:15Z</time>
      </trkpt>
      <trkpt lat="44.53698" lon="6.70332">
        <ele>2027</ele>
        <time>2013-08-18T09:20:33Z</time>
      </trkpt>
      <trkpt lat="44.5373" lon="6.70314">
        <ele>2030</ele>
        <time>2013-08-18T09:20:51Z</time>
      </trkpt>
      <trkpt lat="44.53753" lon="6.70305">
        <ele>2032</ele>
        <time>2013-08-18T09:21:05Z</time>
      </trkpt>
      <trkpt lat="44.53784" lon="6.70304">
        <ele>2036</ele>
        <time>2013-08-18T09:21:25Z</time>
      </trkpt>
      <trkpt lat="44.53813" lon="6.70304">
        <ele>2039</ele>
        <time>2013-08-18T09:21:43Z</time>
      </trkpt>
      <trkpt lat="44.53845" lon="6.70299">
        <ele>2042</ele>
        <time>2013-08-18T09:22:02Z</time>
      </trkpt>
      <trkpt lat="44.53878" lon="6.70293">
        <ele>2045</ele>
        <time>2013-08-18T09:22:21Z</time>
      </trkpt>
      <trkpt lat="44.53892" lon="6.70289">
        <ele>2046</ele>
        <time>2013-08-18T09:22:33Z</time>
      </trkpt>
      <trkpt lat="44.53884" lon="6.70295">
        <ele>2046</ele>
        <time>2013-08-18T09:26:55Z</time>
      </trkpt>
      <trkpt lat="44.5384" lon="6.70301">
        <ele>2045</ele>
        <time>2013-08-18T09:27:06Z</time>
      </trkpt>
      <trkpt lat="44.53803" lon="6.70311">
        <ele>2043</ele>
        <time>2013-08-18T09:27:12Z</time>
      </trkpt>
      <trkpt lat="44.53758" lon="6.70343">
        <ele>2040</ele>
        <time>2013-08-18T09:27:22Z</time>
      </trkpt>
      <trkpt lat="44.53736" lon="6.70375">
        <ele>2043</ele>
        <time>2013-08-18T09:27:35Z</time>
      </trkpt>
      <trkpt lat="44.53724" lon="6.70391">
        <ele>2044</ele>
        <time>2013-08-18T09:27:44Z</time>
      </trkpt>
      <trkpt lat="44.53713" lon="6.70404">
        <ele>2045</ele>
        <time>2013-08-18T09:27:53Z</time>
      </trkpt>
      <trkpt lat="44.53694" lon="6.70427">
        <ele>2047</ele>
        <time>2013-08-18T09:28:07Z</time>
      </trkpt>
      <trkpt lat="44.53674" lon="6.70456">
        <ele>2049</ele>
        <time>2013-08-18T09:28:25Z</time>
      </trkpt>
      <trkpt lat="44.53654" lon="6.70492">
        <ele>2051</ele>
        <time>2013-08-18T09:28:44Z</time>
      </trkpt>
      <trkpt lat="44.53642" lon="6.70529">
        <ele>2054</ele>
        <time>2013-08-18T09:29:00Z</time>
      </trkpt>
      <trkpt lat="44.5364" lon="6.70573">
        <ele>2057</ele>
        <time>2013-08-18T09:29:20Z</time>
      </trkpt>
      <trkpt lat="44.53654" lon="6.70606">
        <ele>2059</ele>
        <time>2013-08-18T09:29:37Z</time>
      </trkpt>
      <trkpt lat="44.5367" lon="6.70633">
        <ele>2062</ele>
        <time>2013-08-18T09:29:53Z</time>
      </trkpt>
      <trkpt lat="44.53676" lon="6.70646">
        <ele>2064</ele>
        <time>2013-08-18T09:30:01Z</time>
      </trkpt>
      <trkpt lat="44.53665" lon="6.70679">
        <ele>2066</ele>
        <time>2013-08-18T09:30:26Z</time>
      </trkpt>
      <trkpt lat="44.53659" lon="6.7073">
        <ele>2068</ele>
        <time>2013-08-18T09:30:46Z</time>
      </trkpt>
      <trkpt lat="44.53652" lon="6.7077">
        <ele>2070</ele>
        <time>2013-08-18T09:31:02Z</time>
      </trkpt>
      <trkpt lat="44.53648" lon="6.70805">
        <ele>2072</ele>
        <time>2013-08-18T09:31:16Z</time>
      </trkpt>
      <trkpt lat="44.53641" lon="6.70844">
        <ele>2075</ele>
        <time>2013-08-18T09:31:32Z</time>
      </trkpt>
      <trkpt lat="44.53665" lon="6.70848">
        <ele>2076</ele>
        <time>2013-08-18T09:31:47Z</time>
      </trkpt>
      <trkpt lat="44.53687" lon="6.7086">
        <ele>2077</ele>
        <time>2013-08-18T09:31:58Z</time>
      </trkpt>
      <trkpt lat="44.53695" lon="6.70896">
        <ele>2079</ele>
        <time>2013-08-18T09:32:13Z</time>
      </trkpt>
      <trkpt lat="44.53714" lon="6.7093">
        <ele>2081</ele>
        <time>2013-08-18T09:32:29Z</time>
      </trkpt>
      <trkpt lat="44.53741" lon="6.70958">
        <ele>2082</ele>
        <time>2013-08-18T09:32:45Z</time>
      </trkpt>
      <trkpt lat="44.53768" lon="6.70955">
        <ele>2084</ele>
        <time>2013-08-18T09:32:59Z</time>
      </trkpt>
      <trkpt lat="44.53796" lon="6.70968">
        <ele>2085</ele>
        <time>2013-08-18T09:33:14Z</time>
      </trkpt>
      <trkpt lat="44.53808" lon="6.71007">
        <ele>2089</ele>
        <time>2013-08-18T09:33:32Z</time>
      </trkpt>
      <trkpt lat="44.5383" lon="6.71039">
        <ele>2091</ele>
        <time>2013-08-18T09:33:49Z</time>
      </trkpt>
      <trkpt lat="44.5386" lon="6.71049">
        <ele>2093</ele>
        <time>2013-08-18T09:34:05Z</time>
      </trkpt>
      <trkpt lat="44.53894" lon="6.71084">
        <ele>2095</ele>
        <time>2013-08-18T09:34:24Z</time>
      </trkpt>
      <trkpt lat="44.53944" lon="6.71102">
        <ele>2094</ele>
        <time>2013-08-18T09:34:41Z</time>
      </trkpt>
      <trkpt lat="44.53989" lon="6.71127">
        <ele>2093</ele>
        <time>2013-08-18T09:34:53Z</time>
      </trkpt>
      <trkpt lat="44.54019" lon="6.71144">
        <ele>2096</ele>
        <time>2013-08-18T09:35:06Z</time>
      </trkpt>
      <trkpt lat="44.5405" lon="6.71141">
        <ele>2097</ele>
        <time>2013-08-18T09:35:20Z</time>
      </trkpt>
      <trkpt lat="44.54086" lon="6.71139">
        <ele>2099</ele>
        <time>2013-08-18T09:35:37Z</time>
      </trkpt>
      <trkpt lat="44.54115" lon="6.7115">
        <ele>2102</ele>
        <time>2013-08-18T09:35:52Z</time>
      </trkpt>
      <trkpt lat="44.54144" lon="6.71149">
        <ele>2102</ele>
        <time>2013-08-18T09:36:06Z</time>
      </trkpt>
      <trkpt lat="44.54166" lon="6.71162">
        <ele>2102</ele>
        <time>2013-08-18T09:36:18Z</time>
      </trkpt>
      <trkpt lat="44.54156" lon="6.71178">
        <ele>2102</ele>
        <time>2013-08-18T09:36:31Z</time>
      </trkpt>
      <trkpt lat="44.54137" lon="6.71186">
        <ele>2103</ele>
        <time>2013-08-18T09:36:44Z</time>
      </trkpt>
      <trkpt lat="44.54105" lon="6.71209">
        <ele>2102</ele>
        <time>2013-08-18T09:37:06Z</time>
      </trkpt>
      <trkpt lat="44.5407" lon="6.71232">
        <ele>2101</ele>
        <time>2013-08-18T09:37:19Z</time>
      </trkpt>
      <trkpt lat="44.54047" lon="6.71259">
        <ele>2101</ele>
        <time>2013-08-18T09:37:30Z</time>
      </trkpt>
      <trkpt lat="44.54042" lon="6.71291">
        <ele>2100</ele>
        <time>2013-08-18T09:37:42Z</time>
      </trkpt>
      <trkpt lat="44.54043" lon="6.71302">
        <ele>2099</ele>
        <time>2013-08-18T09:37:53Z</time>
      </trkpt>
      <trkpt lat="44.54051" lon="6.71308">
        <ele>2100</ele>
        <time>2013-08-18T09:38:04Z</time>
      </trkpt>
      <trkpt lat="44.54073" lon="6.71306">
        <ele>2100</ele>
        <time>2013-08-18T09:38:31Z</time>
      </trkpt>
      <trkpt lat="44.54098" lon="6.71304">
        <ele>2101</ele>
        <time>2013-08-18T09:38:44Z</time>
      </trkpt>
      <trkpt lat="44.54126" lon="6.71294">
        <ele>2102</ele>
        <time>2013-08-18T09:38:57Z</time>
      </trkpt>
      <trkpt lat="44.54149" lon="6.71279">
        <ele>2103</ele>
        <time>2013-08-18T09:39:10Z</time>
      </trkpt>
      <trkpt lat="44.54159" lon="6.71277">
        <ele>2104</ele>
        <time>2013-08-18T09:39:27Z</time>
      </trkpt>
      <trkpt lat="44.54166" lon="6.71277">
        <ele>2105</ele>
        <time>2013-08-18T09:39:42Z</time>
      </trkpt>
      <trkpt lat="44.5417" lon="6.71282">
        <ele>2106</ele>
        <time>2013-08-18T09:39:56Z</time>
      </trkpt>
      <trkpt lat="44.54169" lon="6.71292">
        <ele>2108</ele>
        <time>2013-08-18T09:40:10Z</time>
      </trkpt>
      <trkpt lat="44.54168" lon="6.71304">
        <ele>2111</ele>
        <time>2013-08-18T09:40:24Z</time>
      </trkpt>
      <trkpt lat="44.54168" lon="6.71314">
        <ele>2114</ele>
        <time>2013-08-18T09:40:38Z</time>
      </trkpt>
      <trkpt lat="44.54168" lon="6.71328">
        <ele>2118</ele>
        <time>2013-08-18T09:40:55Z</time>
      </trkpt>
      <trkpt lat="44.54168" lon="6.71339">
        <ele>2120</ele>
        <time>2013-08-18T09:41:10Z</time>
      </trkpt>
      <trkpt lat="44.54162" lon="6.71342">
        <ele>2123</ele>
        <time>2013-08-18T09:41:26Z</time>
      </trkpt>
      <trkpt lat="44.54157" lon="6.71346">
        <ele>2124</ele>
        <time>2013-08-18T09:41:39Z</time>
      </trkpt>
      <trkpt lat="44.5415" lon="6.71351">
        <ele>2126</ele>
        <time>2013-08-18T09:41:54Z</time>
      </trkpt>
      <trkpt lat="44.54145" lon="6.71354">
        <ele>2127</ele>
        <time>2013-08-18T09:42:02Z</time>
      </trkpt>
      <trkpt lat="44.54134" lon="6.71368">
        <ele>2129</ele>
        <time>2013-08-18T09:42:21Z</time>
      </trkpt>
      <trkpt lat="44.54124" lon="6.71388">
        <ele>2132</ele>
        <time>2013-08-18T09:42:42Z</time>
      </trkpt>
      <trkpt lat="44.54117" lon="6.71399">
        <ele>2134</ele>
        <time>2013-08-18T09:43:00Z</time>
      </trkpt>
      <trkpt lat="44.54114" lon="6.71409">
        <ele>2136</ele>
        <time>2013-08-18T09:43:14Z</time>
      </trkpt>
      <trkpt lat="44.54114" lon="6.71418">
        <ele>2138</ele>
        <time>2013-08-18T09:43:26Z</time>
      </trkpt>
      <trkpt lat="44.5411" lon="6.7143">
        <ele>2141</ele>
        <time>2013-08-18T09:43:42Z</time>
      </trkpt>
      <trkpt lat="44.54112" lon="6.7144">
        <ele>2143</ele>
        <time>2013-08-18T09:43:57Z</time>
      </trkpt>
      <trkpt lat="44.54109" lon="6.71444">
        <ele>2144</ele>
        <time>2013-08-18T09:44:07Z</time>
      </trkpt>
      <trkpt lat="44.54103" lon="6.71452">
        <ele>2146</ele>
        <time>2013-08-18T09:44:20Z</time>
      </trkpt>
      <trkpt lat="44.541" lon="6.71452">
        <ele>2146</ele>
        <time>2013-08-18T09:44:29Z</time>
      </trkpt>
      <trkpt lat="44.5409" lon="6.71461">
        <ele>2148</ele>
        <time>2013-08-18T09:44:40Z</time>
      </trkpt>
      <trkpt lat="44.54081" lon="6.71473">
        <ele>2151</ele>
        <time>2013-08-18T09:44:52Z</time>
      </trkpt>
      <trkpt lat="44.54065" lon="6.71491">
        <ele>2151</ele>
        <time>2013-08-18T09:45:08Z</time>
      </trkpt>
      <trkpt lat="44.5405" lon="6.7151">
        <ele>2154</ele>
        <time>2013-08-18T09:45:23Z</time>
      </trkpt>
      <trkpt lat="44.54031" lon="6.7153">
        <ele>2155</ele>
        <time>2013-08-18T09:45:40Z</time>
      </trkpt>
      <trkpt lat="44.54017" lon="6.71555">
        <ele>2157</ele>
        <time>2013-08-18T09:45:55Z</time>
      </trkpt>
      <trkpt lat="44.5402" lon="6.71586">
        <ele>2160</ele>
        <time>2013-08-18T09:46:07Z</time>
      </trkpt>
      <trkpt lat="44.54026" lon="6.71622">
        <ele>2159</ele>
        <time>2013-08-18T09:46:19Z</time>
      </trkpt>
      <trkpt lat="44.54024" lon="6.7163">
        <ele>2160</ele>
        <time>2013-08-18T09:46:31Z</time>
      </trkpt>
      <trkpt lat="44.54024" lon="6.71646">
        <ele>2163</ele>
        <time>2013-08-18T09:46:47Z</time>
      </trkpt>
      <trkpt lat="44.54021" lon="6.71656">
        <ele>2163</ele>
        <time>2013-08-18T09:47:04Z</time>
      </trkpt>
      <trkpt lat="44.54019" lon="6.71674">
        <ele>2166</ele>
        <time>2013-08-18T09:47:23Z</time>
      </trkpt>
      <trkpt lat="44.54019" lon="6.71684">
        <ele>2169</ele>
        <time>2013-08-18T09:48:13Z</time>
      </trkpt>
      <trkpt lat="44.54016" lon="6.717">
        <ele>2172</ele>
        <time>2013-08-18T09:48:29Z</time>
      </trkpt>
      <trkpt lat="44.54013" lon="6.71719">
        <ele>2175</ele>
        <time>2013-08-18T09:48:48Z</time>
      </trkpt>
      <trkpt lat="44.54012" lon="6.71734">
        <ele>2177</ele>
        <time>2013-08-18T09:49:04Z</time>
      </trkpt>
      <trkpt lat="44.54009" lon="6.71748">
        <ele>2180</ele>
        <time>2013-08-18T09:49:19Z</time>
      </trkpt>
      <trkpt lat="44.54006" lon="6.7176">
        <ele>2181</ele>
        <time>2013-08-18T09:49:30Z</time>
      </trkpt>
      <trkpt lat="44.54003" lon="6.71772">
        <ele>2184</ele>
        <time>2013-08-18T09:49:43Z</time>
      </trkpt>
      <trkpt lat="44.54" lon="6.71785">
        <ele>2186</ele>
        <time>2013-08-18T09:49:57Z</time>
      </trkpt>
      <trkpt lat="44.53994" lon="6.71801">
        <ele>2188</ele>
        <time>2013-08-18T09:50:12Z</time>
      </trkpt>
      <trkpt lat="44.5399" lon="6.71812">
        <ele>2189</ele>
        <time>2013-08-18T09:50:22Z</time>
      </trkpt>
      <trkpt lat="44.53989" lon="6.7182">
        <ele>2189</ele>
        <time>2013-08-18T09:50:29Z</time>
      </trkpt>
      <trkpt lat="44.5399" lon="6.71846">
        <ele>2190</ele>
        <time>2013-08-18T09:50:52Z</time>
      </trkpt>
      <trkpt lat="44.53996" lon="6.71864">
        <ele>2194</ele>
        <time>2013-08-18T09:51:05Z</time>
      </trkpt>
      <trkpt lat="44.54001" lon="6.71859">
        <ele>2195</ele>
        <time>2013-08-18T09:51:13Z</time>
      </trkpt>
      <trkpt lat="44.54009" lon="6.71839">
        <ele>2197</ele>
        <time>2013-08-18T09:51:33Z</time>
      </trkpt>
      <trkpt lat="44.54014" lon="6.71829">
        <ele>2199</ele>
        <time>2013-08-18T09:51:48Z</time>
      </trkpt>
      <trkpt lat="44.5402" lon="6.71822">
        <ele>2200</ele>
        <time>2013-08-18T09:52:02Z</time>
      </trkpt>
      <trkpt lat="44.54022" lon="6.71814">
        <ele>2201</ele>
        <time>2013-08-18T09:52:14Z</time>
      </trkpt>
      <trkpt lat="44.54032" lon="6.71808">
        <ele>2203</ele>
        <time>2013-08-18T09:52:35Z</time>
      </trkpt>
      <trkpt lat="44.5404" lon="6.71803">
        <ele>2206</ele>
        <time>2013-08-18T09:52:51Z</time>
      </trkpt>
      <trkpt lat="44.54047" lon="6.71798">
        <ele>2208</ele>
        <time>2013-08-18T09:53:05Z</time>
      </trkpt>
      <trkpt lat="44.54054" lon="6.71794">
        <ele>2211</ele>
        <time>2013-08-18T09:53:20Z</time>
      </trkpt>
      <trkpt lat="44.54062" lon="6.71787">
        <ele>2214</ele>
        <time>2013-08-18T09:53:37Z</time>
      </trkpt>
      <trkpt lat="44.5407" lon="6.7179">
        <ele>2216</ele>
        <time>2013-08-18T09:53:51Z</time>
      </trkpt>
      <trkpt lat="44.54085" lon="6.71803">
        <ele>2217</ele>
        <time>2013-08-18T09:54:08Z</time>
      </trkpt>
      <trkpt lat="44.54104" lon="6.71808">
        <ele>2219</ele>
        <time>2013-08-18T09:54:23Z</time>
      </trkpt>
      <trkpt lat="44.54115" lon="6.71809">
        <ele>2221</ele>
        <time>2013-08-18T09:54:35Z</time>
      </trkpt>
      <trkpt lat="44.54122" lon="6.7181">
        <ele>2222</ele>
        <time>2013-08-18T09:54:45Z</time>
      </trkpt>
      <trkpt lat="44.54136" lon="6.71812">
        <ele>2225</ele>
        <time>2013-08-18T09:55:02Z</time>
      </trkpt>
      <trkpt lat="44.54149" lon="6.71814">
        <ele>2227</ele>
        <time>2013-08-18T09:55:21Z</time>
      </trkpt>
      <trkpt lat="44.54163" lon="6.71814">
        <ele>2231</ele>
        <time>2013-08-18T09:55:41Z</time>
      </trkpt>
      <trkpt lat="44.54173" lon="6.71818">
        <ele>2233</ele>
        <time>2013-08-18T09:55:58Z</time>
      </trkpt>
      <trkpt lat="44.54182" lon="6.71822">
        <ele>2235</ele>
        <time>2013-08-18T09:56:15Z</time>
      </trkpt>
      <trkpt lat="44.54193" lon="6.71825">
        <ele>2236</ele>
        <time>2013-08-18T09:56:29Z</time>
      </trkpt>
      <trkpt lat="44.54208" lon="6.71828">
        <ele>2239</ele>
        <time>2013-08-18T09:56:47Z</time>
      </trkpt>
      <trkpt lat="44.54219" lon="6.7183">
        <ele>2240</ele>
        <time>2013-08-18T09:57:00Z</time>
      </trkpt>
      <trkpt lat="44.54234" lon="6.71835">
        <ele>2243</ele>
        <time>2013-08-18T09:57:21Z</time>
      </trkpt>
      <trkpt lat="44.54246" lon="6.71844">
        <ele>2244</ele>
        <time>2013-08-18T09:57:36Z</time>
      </trkpt>
      <trkpt lat="44.54258" lon="6.71855">
        <ele>2245</ele>
        <time>2013-08-18T09:57:54Z</time>
      </trkpt>
      <trkpt lat="44.54269" lon="6.7186">
        <ele>2249</ele>
        <time>2013-08-18T09:58:14Z</time>
      </trkpt>
      <trkpt lat="44.54283" lon="6.71854">
        <ele>2250</ele>
        <time>2013-08-18T09:58:32Z</time>
      </trkpt>
      <trkpt lat="44.54292" lon="6.71852">
        <ele>2251</ele>
        <time>2013-08-18T09:58:45Z</time>
      </trkpt>
      <trkpt lat="44.54298" lon="6.7185">
        <ele>2253</ele>
        <time>2013-08-18T09:58:57Z</time>
      </trkpt>
      <trkpt lat="44.54308" lon="6.71846">
        <ele>2256</ele>
        <time>2013-08-18T09:59:15Z</time>
      </trkpt>
      <trkpt lat="44.54317" lon="6.71839">
        <ele>2259</ele>
        <time>2013-08-18T09:59:32Z</time>
      </trkpt>
      <trkpt lat="44.54326" lon="6.71831">
        <ele>2261</ele>
        <time>2013-08-18T09:59:48Z</time>
      </trkpt>
      <trkpt lat="44.54335" lon="6.71828">
        <ele>2263</ele>
        <time>2013-08-18T10:00:02Z</time>
      </trkpt>
      <trkpt lat="44.54337" lon="6.71827">
        <ele>2263</ele>
        <time>2013-08-18T10:00:08Z</time>
      </trkpt>
      <trkpt lat="44.54354" lon="6.71818">
        <ele>2263</ele>
        <time>2013-08-18T10:00:27Z</time>
      </trkpt>
      <trkpt lat="44.54374" lon="6.71804">
        <ele>2264</ele>
        <time>2013-08-18T10:00:44Z</time>
      </trkpt>
      <trkpt lat="44.54393" lon="6.718">
        <ele>2265</ele>
        <time>2013-08-18T10:00:59Z</time>
      </trkpt>
      <trkpt lat="44.54409" lon="6.71795">
        <ele>2267</ele>
        <time>2013-08-18T10:01:14Z</time>
      </trkpt>
      <trkpt lat="44.54413" lon="6.718">
        <ele>2268</ele>
        <time>2013-08-18T10:01:46Z</time>
      </trkpt>
      <trkpt lat="44.54425" lon="6.71797">
        <ele>2271</ele>
        <time>2013-08-18T10:03:15Z</time>
      </trkpt>
      <trkpt lat="44.54437" lon="6.71794">
        <ele>2273</ele>
        <time>2013-08-18T10:03:31Z</time>
      </trkpt>
      <trkpt lat="44.54444" lon="6.71794">
        <ele>2276</ele>
        <time>2013-08-18T10:03:47Z</time>
      </trkpt>
      <trkpt lat="44.54447" lon="6.71791">
        <ele>2277</ele>
        <time>2013-08-18T10:03:55Z</time>
      </trkpt>
      <trkpt lat="44.54453" lon="6.71795">
        <ele>2279</ele>
        <time>2013-08-18T10:04:17Z</time>
      </trkpt>
      <trkpt lat="44.54456" lon="6.71796">
        <ele>2281</ele>
        <time>2013-08-18T10:04:25Z</time>
      </trkpt>
      <trkpt lat="44.54458" lon="6.71797">
        <ele>2282</ele>
        <time>2013-08-18T10:04:31Z</time>
      </trkpt>
      <trkpt lat="44.54464" lon="6.71813">
        <ele>2285</ele>
        <time>2013-08-18T10:04:51Z</time>
      </trkpt>
      <trkpt lat="44.54465" lon="6.71827">
        <ele>2288</ele>
        <time>2013-08-18T10:05:08Z</time>
      </trkpt>
      <trkpt lat="44.54466" lon="6.71836">
        <ele>2290</ele>
        <time>2013-08-18T10:05:19Z</time>
      </trkpt>
      <trkpt lat="44.54467" lon="6.71849">
        <ele>2292</ele>
        <time>2013-08-18T10:05:35Z</time>
      </trkpt>
      <trkpt lat="44.54471" lon="6.7186">
        <ele>2295</ele>
        <time>2013-08-18T10:05:50Z</time>
      </trkpt>
      <trkpt lat="44.54473" lon="6.71868">
        <ele>2297</ele>
        <time>2013-08-18T10:06:03Z</time>
      </trkpt>
      <trkpt lat="44.54476" lon="6.71873">
        <ele>2299</ele>
        <time>2013-08-18T10:06:12Z</time>
      </trkpt>
      <trkpt lat="44.5448" lon="6.71882">
        <ele>2301</ele>
        <time>2013-08-18T10:06:26Z</time>
      </trkpt>
      <trkpt lat="44.5448" lon="6.71887">
        <ele>2302</ele>
        <time>2013-08-18T10:06:35Z</time>
      </trkpt>
      <trkpt lat="44.54486" lon="6.719">
        <ele>2306</ele>
        <time>2013-08-18T10:06:53Z</time>
      </trkpt>
      <trkpt lat="44.54491" lon="6.71907">
        <ele>2308</ele>
        <time>2013-08-18T10:07:07Z</time>
      </trkpt>
      <trkpt lat="44.54493" lon="6.71913">
        <ele>2310</ele>
        <time>2013-08-18T10:07:18Z</time>
      </trkpt>
      <trkpt lat="44.54499" lon="6.71913">
        <ele>2311</ele>
        <time>2013-08-18T10:07:31Z</time>
      </trkpt>
      <trkpt lat="44.54503" lon="6.71905">
        <ele>2315</ele>
        <time>2013-08-18T10:07:54Z</time>
      </trkpt>
      <trkpt lat="44.54506" lon="6.71907">
        <ele>2318</ele>
        <time>2013-08-18T10:08:13Z</time>
      </trkpt>
      <trkpt lat="44.54509" lon="6.71903">
        <ele>2320</ele>
        <time>2013-08-18T10:08:22Z</time>
      </trkpt>
      <trkpt lat="44.54512" lon="6.719">
        <ele>2322</ele>
        <time>2013-08-18T10:08:34Z</time>
      </trkpt>
      <trkpt lat="44.54521" lon="6.71894">
        <ele>2326</ele>
        <time>2013-08-18T10:09:07Z</time>
      </trkpt>
      <trkpt lat="44.54524" lon="6.71892">
        <ele>2328</ele>
        <time>2013-08-18T10:09:16Z</time>
      </trkpt>
      <trkpt lat="44.54527" lon="6.71892">
        <ele>2329</ele>
        <time>2013-08-18T10:09:25Z</time>
      </trkpt>
      <trkpt lat="44.54532" lon="6.7189">
        <ele>2332</ele>
        <time>2013-08-18T10:09:39Z</time>
      </trkpt>
      <trkpt lat="44.54537" lon="6.71886">
        <ele>2334</ele>
        <time>2013-08-18T10:09:51Z</time>
      </trkpt>
      <trkpt lat="44.54542" lon="6.71881">
        <ele>2336</ele>
        <time>2013-08-18T10:10:05Z</time>
      </trkpt>
      <trkpt lat="44.54548" lon="6.71877">
        <ele>2338</ele>
        <time>2013-08-18T10:10:17Z</time>
      </trkpt>
      <trkpt lat="44.54552" lon="6.71874">
        <ele>2339</ele>
        <time>2013-08-18T10:10:26Z</time>
      </trkpt>
      <trkpt lat="44.54562" lon="6.71872">
        <ele>2342</ele>
        <time>2013-08-18T10:10:42Z</time>
      </trkpt>
      <trkpt lat="44.54568" lon="6.71874">
        <ele>2343</ele>
        <time>2013-08-18T10:10:52Z</time>
      </trkpt>
      <trkpt lat="44.54582" lon="6.71871">
        <ele>2345</ele>
        <time>2013-08-18T10:11:10Z</time>
      </trkpt>
      <trkpt lat="44.54596" lon="6.71864">
        <ele>2347</ele>
        <time>2013-08-18T10:11:29Z</time>
      </trkpt>
      <trkpt lat="44.5461" lon="6.71861">
        <ele>2348</ele>
        <time>2013-08-18T10:11:47Z</time>
      </trkpt>
      <trkpt lat="44.54619" lon="6.71863">
        <ele>2351</ele>
        <time>2013-08-18T10:12:02Z</time>
      </trkpt>
      <trkpt lat="44.54628" lon="6.71869">
        <ele>2353</ele>
        <time>2013-08-18T10:12:18Z</time>
      </trkpt>
      <trkpt lat="44.54634" lon="6.71866">
        <ele>2355</ele>
        <time>2013-08-18T10:12:28Z</time>
      </trkpt>
      <trkpt lat="44.54638" lon="6.71864">
        <ele>2356</ele>
        <time>2013-08-18T10:12:37Z</time>
      </trkpt>
      <trkpt lat="44.54646" lon="6.71864">
        <ele>2359</ele>
        <time>2013-08-18T10:12:55Z</time>
      </trkpt>
      <trkpt lat="44.54653" lon="6.71875">
        <ele>2362</ele>
        <time>2013-08-18T10:13:13Z</time>
      </trkpt>
      <trkpt lat="44.5466" lon="6.71881">
        <ele>2364</ele>
        <time>2013-08-18T10:13:26Z</time>
      </trkpt>
      <trkpt lat="44.54665" lon="6.71888">
        <ele>2367</ele>
        <time>2013-08-18T10:13:39Z</time>
      </trkpt>
      <trkpt lat="44.54669" lon="6.7189">
        <ele>2369</ele>
        <time>2013-08-18T10:13:51Z</time>
      </trkpt>
      <trkpt lat="44.54672" lon="6.71897">
        <ele>2371</ele>
        <time>2013-08-18T10:14:06Z</time>
      </trkpt>
      <trkpt lat="44.54674" lon="6.719">
        <ele>2372</ele>
        <time>2013-08-18T10:14:14Z</time>
      </trkpt>
      <trkpt lat="44.54676" lon="6.71906">
        <ele>2374</ele>
        <time>2013-08-18T10:14:24Z</time>
      </trkpt>
      <trkpt lat="44.54676" lon="6.71912">
        <ele>2376</ele>
        <time>2013-08-18T10:14:34Z</time>
      </trkpt>
      <trkpt lat="44.54676" lon="6.71922">
        <ele>2378</ele>
        <time>2013-08-18T10:14:49Z</time>
      </trkpt>
      <trkpt lat="44.54681" lon="6.71923">
        <ele>2380</ele>
        <time>2013-08-18T10:15:00Z</time>
      </trkpt>
      <trkpt lat="44.54687" lon="6.71927">
        <ele>2382</ele>
        <time>2013-08-18T10:15:15Z</time>
      </trkpt>
      <trkpt lat="44.54686" lon="6.71933">
        <ele>2383</ele>
        <time>2013-08-18T10:15:26Z</time>
      </trkpt>
      <trkpt lat="44.54687" lon="6.71941">
        <ele>2385</ele>
        <time>2013-08-18T10:15:38Z</time>
      </trkpt>
      <trkpt lat="44.54684" lon="6.7195">
        <ele>2387</ele>
        <time>2013-08-18T10:15:52Z</time>
      </trkpt>
      <trkpt lat="44.54687" lon="6.71953">
        <ele>2390</ele>
        <time>2013-08-18T10:16:09Z</time>
      </trkpt>
      <trkpt lat="44.54692" lon="6.71958">
        <ele>2392</ele>
        <time>2013-08-18T10:16:21Z</time>
      </trkpt>
      <trkpt lat="44.54694" lon="6.71966">
        <ele>2395</ele>
        <time>2013-08-18T10:16:35Z</time>
      </trkpt>
      <trkpt lat="44.54697" lon="6.71973">
        <ele>2397</ele>
        <time>2013-08-18T10:16:48Z</time>
      </trkpt>
      <trkpt lat="44.547" lon="6.71978">
        <ele>2398</ele>
        <time>2013-08-18T10:16:57Z</time>
      </trkpt>
      <trkpt lat="44.54704" lon="6.71978">
        <ele>2400</ele>
        <time>2013-08-18T10:17:07Z</time>
      </trkpt>
      <trkpt lat="44.5471" lon="6.71984">
        <ele>2402</ele>
        <time>2013-08-18T10:17:22Z</time>
      </trkpt>
      <trkpt lat="44.5471" lon="6.71992">
        <ele>2404</ele>
        <time>2013-08-18T10:17:37Z</time>
      </trkpt>
      <trkpt lat="44.54714" lon="6.72002">
        <ele>2406</ele>
        <time>2013-08-18T10:17:52Z</time>
      </trkpt>
      <trkpt lat="44.54719" lon="6.7201">
        <ele>2408</ele>
        <time>2013-08-18T10:18:06Z</time>
      </trkpt>
      <trkpt lat="44.54718" lon="6.72019">
        <ele>2410</ele>
        <time>2013-08-18T10:18:20Z</time>
      </trkpt>
      <trkpt lat="44.54724" lon="6.72024">
        <ele>2412</ele>
        <time>2013-08-18T10:18:32Z</time>
      </trkpt>
      <trkpt lat="44.54722" lon="6.72031">
        <ele>2414</ele>
        <time>2013-08-18T10:18:45Z</time>
      </trkpt>
      <trkpt lat="44.54726" lon="6.72038">
        <ele>2417</ele>
        <time>2013-08-18T10:18:59Z</time>
      </trkpt>
      <trkpt lat="44.54731" lon="6.72044">
        <ele>2419</ele>
        <time>2013-08-18T10:19:12Z</time>
      </trkpt>
      <trkpt lat="44.54734" lon="6.72048">
        <ele>2421</ele>
        <time>2013-08-18T10:19:22Z</time>
      </trkpt>
      <trkpt lat="44.54734" lon="6.72062">
        <ele>2424</ele>
        <time>2013-08-18T10:19:39Z</time>
      </trkpt>
      <trkpt lat="44.54742" lon="6.72067">
        <ele>2427</ele>
        <time>2013-08-18T10:19:56Z</time>
      </trkpt>
      <trkpt lat="44.54746" lon="6.72078">
        <ele>2430</ele>
        <time>2013-08-18T10:20:12Z</time>
      </trkpt>
      <trkpt lat="44.54749" lon="6.72091">
        <ele>2432</ele>
        <time>2013-08-18T10:20:31Z</time>
      </trkpt>
      <trkpt lat="44.54747" lon="6.72103">
        <ele>2432</ele>
        <time>2013-08-18T10:20:48Z</time>
      </trkpt>
      <trkpt lat="44.54751" lon="6.72113">
        <ele>2434</ele>
        <time>2013-08-18T10:21:09Z</time>
      </trkpt>
      <trkpt lat="44.54752" lon="6.72123">
        <ele>2436</ele>
        <time>2013-08-18T10:21:19Z</time>
      </trkpt>
      <trkpt lat="44.54753" lon="6.72152">
        <ele>2438</ele>
        <time>2013-08-18T10:21:35Z</time>
      </trkpt>
      <trkpt lat="44.54757" lon="6.72178">
        <ele>2441</ele>
        <time>2013-08-18T10:21:53Z</time>
      </trkpt>
      <trkpt lat="44.54752" lon="6.7218">
        <ele>2441</ele>
        <time>2013-08-18T10:22:38Z</time>
      </trkpt>
      <trkpt lat="44.54756" lon="6.72189">
        <ele>2443</ele>
        <time>2013-08-18T10:22:51Z</time>
      </trkpt>
      <trkpt lat="44.54759" lon="6.72199">
        <ele>2446</ele>
        <time>2013-08-18T10:23:05Z</time>
      </trkpt>
      <trkpt lat="44.54762" lon="6.72207">
        <ele>2447</ele>
        <time>2013-08-18T10:23:17Z</time>
      </trkpt>
      <trkpt lat="44.54769" lon="6.72212">
        <ele>2449</ele>
        <time>2013-08-18T10:23:33Z</time>
      </trkpt>
      <trkpt lat="44.54771" lon="6.72215">
        <ele>2450</ele>
        <time>2013-08-18T10:23:43Z</time>
      </trkpt>
      <trkpt lat="44.54773" lon="6.72221">
        <ele>2452</ele>
        <time>2013-08-18T10:23:53Z</time>
      </trkpt>
      <trkpt lat="44.54777" lon="6.72227">
        <ele>2454</ele>
        <time>2013-08-18T10:24:06Z</time>
      </trkpt>
      <trkpt lat="44.54783" lon="6.72228">
        <ele>2457</ele>
        <time>2013-08-18T10:24:18Z</time>
      </trkpt>
      <trkpt lat="44.54786" lon="6.72228">
        <ele>2457</ele>
        <time>2013-08-18T10:24:24Z</time>
      </trkpt>
      <trkpt lat="44.54785" lon="6.72233">
        <ele>2459</ele>
        <time>2013-08-18T10:24:35Z</time>
      </trkpt>
      <trkpt lat="44.54789" lon="6.72238">
        <ele>2461</ele>
        <time>2013-08-18T10:24:47Z</time>
      </trkpt>
      <trkpt lat="44.54791" lon="6.72244">
        <ele>2463</ele>
        <time>2013-08-18T10:24:57Z</time>
      </trkpt>
      <trkpt lat="44.54794" lon="6.72249">
        <ele>2465</ele>
        <time>2013-08-18T10:25:07Z</time>
      </trkpt>
      <trkpt lat="44.54798" lon="6.72257">
        <ele>2467</ele>
        <time>2013-08-18T10:25:22Z</time>
      </trkpt>
      <trkpt lat="44.54803" lon="6.72263">
        <ele>2469</ele>
        <time>2013-08-18T10:25:35Z</time>
      </trkpt>
      <trkpt lat="44.54807" lon="6.72272">
        <ele>2471</ele>
        <time>2013-08-18T10:25:50Z</time>
      </trkpt>
      <trkpt lat="44.54813" lon="6.72282">
        <ele>2474</ele>
        <time>2013-08-18T10:26:04Z</time>
      </trkpt>
      <trkpt lat="44.54819" lon="6.72291">
        <ele>2476</ele>
        <time>2013-08-18T10:26:20Z</time>
      </trkpt>
      <trkpt lat="44.5482" lon="6.72299">
        <ele>2478</ele>
        <time>2013-08-18T10:26:35Z</time>
      </trkpt>
      <trkpt lat="44.54822" lon="6.72304">
        <ele>2479</ele>
        <time>2013-08-18T10:26:44Z</time>
      </trkpt>
      <trkpt lat="44.54823" lon="6.7231">
        <ele>2481</ele>
        <time>2013-08-18T10:26:53Z</time>
      </trkpt>
      <trkpt lat="44.54829" lon="6.72315">
        <ele>2482</ele>
        <time>2013-08-18T10:27:07Z</time>
      </trkpt>
      <trkpt lat="44.54831" lon="6.72323">
        <ele>2484</ele>
        <time>2013-08-18T10:27:18Z</time>
      </trkpt>
      <trkpt lat="44.54836" lon="6.72327">
        <ele>2487</ele>
        <time>2013-08-18T10:27:32Z</time>
      </trkpt>
      <trkpt lat="44.54837" lon="6.72335">
        <ele>2489</ele>
        <time>2013-08-18T10:27:47Z</time>
      </trkpt>
      <trkpt lat="44.54839" lon="6.72339">
        <ele>2492</ele>
        <time>2013-08-18T10:27:56Z</time>
      </trkpt>
      <trkpt lat="44.54845" lon="6.72341">
        <ele>2494</ele>
        <time>2013-08-18T10:28:10Z</time>
      </trkpt>
      <trkpt lat="44.54847" lon="6.72346">
        <ele>2495</ele>
        <time>2013-08-18T10:28:18Z</time>
      </trkpt>
      <trkpt lat="44.5485" lon="6.72355">
        <ele>2498</ele>
        <time>2013-08-18T10:28:32Z</time>
      </trkpt>
      <trkpt lat="44.54852" lon="6.72367">
        <ele>2500</ele>
        <time>2013-08-18T10:28:49Z</time>
      </trkpt>
      <trkpt lat="44.54854" lon="6.72373">
        <ele>2502</ele>
        <time>2013-08-18T10:29:01Z</time>
      </trkpt>
      <trkpt lat="44.54857" lon="6.72377">
        <ele>2504</ele>
        <time>2013-08-18T10:29:09Z</time>
      </trkpt>
      <trkpt lat="44.54862" lon="6.72386">
        <ele>2507</ele>
        <time>2013-08-18T10:29:29Z</time>
      </trkpt>
      <trkpt lat="44.54864" lon="6.72389">
        <ele>2508</ele>
        <time>2013-08-18T10:29:36Z</time>
      </trkpt>
      <trkpt lat="44.54866" lon="6.72396">
        <ele>2510</ele>
        <time>2013-08-18T10:29:49Z</time>
      </trkpt>
      <trkpt lat="44.54869" lon="6.72398">
        <ele>2512</ele>
        <time>2013-08-18T10:29:56Z</time>
      </trkpt>
      <trkpt lat="44.54875" lon="6.72404">
        <ele>2515</ele>
        <time>2013-08-18T10:30:18Z</time>
      </trkpt>
      <trkpt lat="44.54878" lon="6.72407">
        <ele>2517</ele>
        <time>2013-08-18T10:30:30Z</time>
      </trkpt>
      <trkpt lat="44.54879" lon="6.72414">
        <ele>2519</ele>
        <time>2013-08-18T10:30:42Z</time>
      </trkpt>
      <trkpt lat="44.54881" lon="6.72418">
        <ele>2520</ele>
        <time>2013-08-18T10:30:51Z</time>
      </trkpt>
      <trkpt lat="44.54883" lon="6.72421">
        <ele>2522</ele>
        <time>2013-08-18T10:30:59Z</time>
      </trkpt>
      <trkpt lat="44.54893" lon="6.72429">
        <ele>2527</ele>
        <time>2013-08-18T10:31:31Z</time>
      </trkpt>
      <trkpt lat="44.54896" lon="6.72434">
        <ele>2529</ele>
        <time>2013-08-18T10:31:44Z</time>
      </trkpt>
      <trkpt lat="44.54899" lon="6.72439">
        <ele>2531</ele>
        <time>2013-08-18T10:31:56Z</time>
      </trkpt>
      <trkpt lat="44.54902" lon="6.72443">
        <ele>2532</ele>
        <time>2013-08-18T10:32:06Z</time>
      </trkpt>
      <trkpt lat="44.54903" lon="6.72443">
        <ele>2534</ele>
        <time>2013-08-18T10:32:13Z</time>
      </trkpt>
      <trkpt lat="44.54907" lon="6.72449">
        <ele>2535</ele>
        <time>2013-08-18T10:32:29Z</time>
      </trkpt>
      <trkpt lat="44.54909" lon="6.72453">
        <ele>2537</ele>
        <time>2013-08-18T10:32:37Z</time>
      </trkpt>
      <trkpt lat="44.54914" lon="6.7246">
        <ele>2540</ele>
        <time>2013-08-18T10:32:56Z</time>
      </trkpt>
      <trkpt lat="44.54919" lon="6.7247">
        <ele>2542</ele>
        <time>2013-08-18T10:33:13Z</time>
      </trkpt>
      <trkpt lat="44.54923" lon="6.72473">
        <ele>2543</ele>
        <time>2013-08-18T10:33:23Z</time>
      </trkpt>
      <trkpt lat="44.54928" lon="6.72476">
        <ele>2544</ele>
        <time>2013-08-18T10:33:34Z</time>
      </trkpt>
      <trkpt lat="44.54932" lon="6.7248">
        <ele>2546</ele>
        <time>2013-08-18T10:33:46Z</time>
      </trkpt>
      <trkpt lat="44.54947" lon="6.72498">
        <ele>2549</ele>
        <time>2013-08-18T10:34:23Z</time>
      </trkpt>
      <trkpt lat="44.54966" lon="6.72515">
        <ele>2550</ele>
        <time>2013-08-18T10:34:39Z</time>
      </trkpt>
      <trkpt lat="44.54976" lon="6.72523">
        <ele>2552</ele>
        <time>2013-08-18T10:34:48Z</time>
      </trkpt>
      <trkpt lat="44.54992" lon="6.72533">
        <ele>2555</ele>
        <time>2013-08-18T10:35:02Z</time>
      </trkpt>
      <trkpt lat="44.55" lon="6.72542">
        <ele>2556</ele>
        <time>2013-08-18T10:35:11Z</time>
      </trkpt>
      <trkpt lat="44.55021" lon="6.72552">
        <ele>2557</ele>
        <time>2013-08-18T10:35:28Z</time>
      </trkpt>
      <trkpt lat="44.55041" lon="6.7257">
        <ele>2558</ele>
        <time>2013-08-18T10:35:45Z</time>
      </trkpt>
      <trkpt lat="44.55057" lon="6.72588">
        <ele>2561</ele>
        <time>2013-08-18T10:36:01Z</time>
      </trkpt>
      <trkpt lat="44.55068" lon="6.72598">
        <ele>2561</ele>
        <time>2013-08-18T10:36:12Z</time>
      </trkpt>
      <trkpt lat="44.55072" lon="6.72601">
        <ele>2562</ele>
        <time>2013-08-18T10:36:17Z</time>
      </trkpt>
      <trkpt lat="44.55076" lon="6.72604">
        <ele>2563</ele>
        <time>2013-08-18T10:36:26Z</time>
      </trkpt>
      <trkpt lat="44.55082" lon="6.72608">
        <ele>2565</ele>
        <time>2013-08-18T10:36:38Z</time>
      </trkpt>
      <trkpt lat="44.55087" lon="6.72609">
        <ele>2567</ele>
        <time>2013-08-18T10:37:17Z</time>
      </trkpt>
      <trkpt lat="44.55091" lon="6.72611">
        <ele>2568</ele>
        <time>2013-08-18T10:37:26Z</time>
      </trkpt>
      <trkpt lat="44.55095" lon="6.72615">
        <ele>2570</ele>
        <time>2013-08-18T10:37:38Z</time>
      </trkpt>
      <trkpt lat="44.55099" lon="6.72622">
        <ele>2572</ele>
        <time>2013-08-18T10:37:51Z</time>
      </trkpt>
      <trkpt lat="44.55101" lon="6.72631">
        <ele>2574</ele>
        <time>2013-08-18T10:38:05Z</time>
      </trkpt>
      <trkpt lat="44.55106" lon="6.72635">
        <ele>2576</ele>
        <time>2013-08-18T10:38:18Z</time>
      </trkpt>
      <trkpt lat="44.55104" lon="6.72649">
        <ele>2579</ele>
        <time>2013-08-18T10:38:34Z</time>
      </trkpt>
      <trkpt lat="44.5511" lon="6.72648">
        <ele>2580</ele>
        <time>2013-08-18T10:38:45Z</time>
      </trkpt>
      <trkpt lat="44.55115" lon="6.72652">
        <ele>2583</ele>
        <time>2013-08-18T10:38:58Z</time>
      </trkpt>
      <trkpt lat="44.55117" lon="6.72657">
        <ele>2584</ele>
        <time>2013-08-18T10:39:08Z</time>
      </trkpt>
      <trkpt lat="44.55121" lon="6.72661">
        <ele>2586</ele>
        <time>2013-08-18T10:39:18Z</time>
      </trkpt>
      <trkpt lat="44.55122" lon="6.72667">
        <ele>2588</ele>
        <time>2013-08-18T10:39:29Z</time>
      </trkpt>
      <trkpt lat="44.55127" lon="6.7267">
        <ele>2590</ele>
        <time>2013-08-18T10:39:43Z</time>
      </trkpt>
      <trkpt lat="44.5513" lon="6.7267">
        <ele>2591</ele>
        <time>2013-08-18T10:39:49Z</time>
      </trkpt>
      <trkpt lat="44.55131" lon="6.72676">
        <ele>2593</ele>
        <time>2013-08-18T10:40:01Z</time>
      </trkpt>
      <trkpt lat="44.55133" lon="6.72681">
        <ele>2594</ele>
        <time>2013-08-18T10:40:15Z</time>
      </trkpt>
      <trkpt lat="44.55135" lon="6.72683">
        <ele>2595</ele>
        <time>2013-08-18T10:40:29Z</time>
      </trkpt>
      <trkpt lat="44.55137" lon="6.72685">
        <ele>2597</ele>
        <time>2013-08-18T10:40:40Z</time>
      </trkpt>
      <trkpt lat="44.55139" lon="6.72689">
        <ele>2598</ele>
        <time>2013-08-18T10:40:48Z</time>
      </trkpt>
      <trkpt lat="44.55141" lon="6.72694">
        <ele>2600</ele>
        <time>2013-08-18T10:41:00Z</time>
      </trkpt>
      <trkpt lat="44.55145" lon="6.72698">
        <ele>2603</ele>
        <time>2013-08-18T10:41:14Z</time>
      </trkpt>
      <trkpt lat="44.55152" lon="6.72704">
        <ele>2605</ele>
        <time>2013-08-18T10:41:27Z</time>
      </trkpt>
      <trkpt lat="44.55158" lon="6.72715">
        <ele>2607</ele>
        <time>2013-08-18T10:41:44Z</time>
      </trkpt>
      <trkpt lat="44.55164" lon="6.72722">
        <ele>2609</ele>
        <time>2013-08-18T10:41:57Z</time>
      </trkpt>
      <trkpt lat="44.55168" lon="6.72728">
        <ele>2611</ele>
        <time>2013-08-18T10:42:11Z</time>
      </trkpt>
      <trkpt lat="44.55172" lon="6.72733">
        <ele>2614</ele>
        <time>2013-08-18T10:42:28Z</time>
      </trkpt>
      <trkpt lat="44.55175" lon="6.72737">
        <ele>2615</ele>
        <time>2013-08-18T10:42:40Z</time>
      </trkpt>
      <trkpt lat="44.55179" lon="6.7274">
        <ele>2618</ele>
        <time>2013-08-18T10:42:54Z</time>
      </trkpt>
      <trkpt lat="44.55181" lon="6.72746">
        <ele>2619</ele>
        <time>2013-08-18T10:43:04Z</time>
      </trkpt>
      <trkpt lat="44.55183" lon="6.72757">
        <ele>2622</ele>
        <time>2013-08-18T10:43:20Z</time>
      </trkpt>
      <trkpt lat="44.55192" lon="6.7276">
        <ele>2627</ele>
        <time>2013-08-18T10:43:50Z</time>
      </trkpt>
      <trkpt lat="44.55193" lon="6.7276">
        <ele>2628</ele>
        <time>2013-08-18T10:43:52Z</time>
      </trkpt>
      <trkpt lat="44.552" lon="6.72767">
        <ele>2631</ele>
        <time>2013-08-18T10:44:19Z</time>
      </trkpt>
      <trkpt lat="44.55201" lon="6.72772">
        <ele>2633</ele>
        <time>2013-08-18T10:44:29Z</time>
      </trkpt>
      <trkpt lat="44.55202" lon="6.72776">
        <ele>2634</ele>
        <time>2013-08-18T10:44:36Z</time>
      </trkpt>
      <trkpt lat="44.55202" lon="6.72784">
        <ele>2636</ele>
        <time>2013-08-18T10:44:52Z</time>
      </trkpt>
      <trkpt lat="44.55202" lon="6.72787">
        <ele>2636</ele>
        <time>2013-08-18T10:44:58Z</time>
      </trkpt>
      <trkpt lat="44.55204" lon="6.72796">
        <ele>2639</ele>
        <time>2013-08-18T10:45:16Z</time>
      </trkpt>
      <trkpt lat="44.5521" lon="6.72809">
        <ele>2643</ele>
        <time>2013-08-18T10:45:50Z</time>
      </trkpt>
      <trkpt lat="44.55215" lon="6.72815">
        <ele>2647</ele>
        <time>2013-08-18T10:46:26Z</time>
      </trkpt>
      <trkpt lat="44.55214" lon="6.72817">
        <ele>2648</ele>
        <time>2013-08-18T10:46:32Z</time>
      </trkpt>
      <trkpt lat="44.55215" lon="6.72823">
        <ele>2650</ele>
        <time>2013-08-18T10:46:45Z</time>
      </trkpt>
      <trkpt lat="44.55216" lon="6.72828">
        <ele>2651</ele>
        <time>2013-08-18T10:46:55Z</time>
      </trkpt>
      <trkpt lat="44.55217" lon="6.72832">
        <ele>2652</ele>
        <time>2013-08-18T10:47:03Z</time>
      </trkpt>
      <trkpt lat="44.55221" lon="6.72839">
        <ele>2655</ele>
        <time>2013-08-18T10:47:19Z</time>
      </trkpt>
      <trkpt lat="44.55223" lon="6.72845">
        <ele>2656</ele>
        <time>2013-08-18T10:47:32Z</time>
      </trkpt>
      <trkpt lat="44.55225" lon="6.72847">
        <ele>2658</ele>
        <time>2013-08-18T10:47:40Z</time>
      </trkpt>
      <trkpt lat="44.55225" lon="6.72856">
        <ele>2660</ele>
        <time>2013-08-18T10:47:55Z</time>
      </trkpt>
      <trkpt lat="44.55227" lon="6.72861">
        <ele>2662</ele>
        <time>2013-08-18T10:48:04Z</time>
      </trkpt>
      <trkpt lat="44.55229" lon="6.72871">
        <ele>2665</ele>
        <time>2013-08-18T10:48:20Z</time>
      </trkpt>
      <trkpt lat="44.5523" lon="6.7288">
        <ele>2666</ele>
        <time>2013-08-18T10:48:33Z</time>
      </trkpt>
      <trkpt lat="44.55227" lon="6.72892">
        <ele>2668</ele>
        <time>2013-08-18T10:48:50Z</time>
      </trkpt>
      <trkpt lat="44.55225" lon="6.72906">
        <ele>2669</ele>
        <time>2013-08-18T10:49:08Z</time>
      </trkpt>
      <trkpt lat="44.55226" lon="6.72911">
        <ele>2670</ele>
        <time>2013-08-18T10:49:17Z</time>
      </trkpt>
      <trkpt lat="44.55227" lon="6.72914">
        <ele>2671</ele>
        <time>2013-08-18T10:49:23Z</time>
      </trkpt>
      <trkpt lat="44.55228" lon="6.72922">
        <ele>2673</ele>
        <time>2013-08-18T10:49:37Z</time>
      </trkpt>
      <trkpt lat="44.55229" lon="6.7293">
        <ele>2675</ele>
        <time>2013-08-18T10:49:49Z</time>
      </trkpt>
      <trkpt lat="44.5523" lon="6.72938">
        <ele>2676</ele>
        <time>2013-08-18T10:50:01Z</time>
      </trkpt>
      <trkpt lat="44.55228" lon="6.72945">
        <ele>2678</ele>
        <time>2013-08-18T10:50:14Z</time>
      </trkpt>
      <trkpt lat="44.55223" lon="6.72958">
        <ele>2680</ele>
        <time>2013-08-18T10:50:32Z</time>
      </trkpt>
      <trkpt lat="44.55222" lon="6.72963">
        <ele>2682</ele>
        <time>2013-08-18T10:50:43Z</time>
      </trkpt>
      <trkpt lat="44.55221" lon="6.72972">
        <ele>2683</ele>
        <time>2013-08-18T10:50:57Z</time>
      </trkpt>
      <trkpt lat="44.55222" lon="6.72977">
        <ele>2685</ele>
        <time>2013-08-18T10:51:10Z</time>
      </trkpt>
      <trkpt lat="44.55224" lon="6.7298">
        <ele>2686</ele>
        <time>2013-08-18T10:51:22Z</time>
      </trkpt>
      <trkpt lat="44.55228" lon="6.72982">
        <ele>2688</ele>
        <time>2013-08-18T10:51:35Z</time>
      </trkpt>
      <trkpt lat="44.5523" lon="6.72979">
        <ele>2689</ele>
        <time>2013-08-18T10:51:43Z</time>
      </trkpt>
      <trkpt lat="44.55235" lon="6.72981">
        <ele>2691</ele>
        <time>2013-08-18T10:52:08Z</time>
      </trkpt>
      <trkpt lat="44.55239" lon="6.72985">
        <ele>2692</ele>
        <time>2013-08-18T10:52:19Z</time>
      </trkpt>
      <trkpt lat="44.55246" lon="6.72981">
        <ele>2696</ele>
        <time>2013-08-18T10:52:37Z</time>
      </trkpt>
      <trkpt lat="44.55254" lon="6.72971">
        <ele>2698</ele>
        <time>2013-08-18T10:52:55Z</time>
      </trkpt>
      <trkpt lat="44.55262" lon="6.7296">
        <ele>2701</ele>
        <time>2013-08-18T10:53:13Z</time>
      </trkpt>
      <trkpt lat="44.55271" lon="6.72952">
        <ele>2704</ele>
        <time>2013-08-18T10:53:31Z</time>
      </trkpt>
      <trkpt lat="44.55279" lon="6.72944">
        <ele>2705</ele>
        <time>2013-08-18T10:53:54Z</time>
      </trkpt>
      <trkpt lat="44.55285" lon="6.72939">
        <ele>2706</ele>
        <time>2013-08-18T10:54:07Z</time>
      </trkpt>
      <trkpt lat="44.55293" lon="6.72926">
        <ele>2707</ele>
        <time>2013-08-18T10:54:26Z</time>
      </trkpt>
      <trkpt lat="44.553" lon="6.72915">
        <ele>2710</ele>
        <time>2013-08-18T10:54:44Z</time>
      </trkpt>
      <trkpt lat="44.55308" lon="6.72904">
        <ele>2713</ele>
        <time>2013-08-18T10:55:02Z</time>
      </trkpt>
      <trkpt lat="44.55314" lon="6.72898">
        <ele>2716</ele>
        <time>2013-08-18T10:55:15Z</time>
      </trkpt>
      <trkpt lat="44.55324" lon="6.72889">
        <ele>2718</ele>
        <time>2013-08-18T10:55:32Z</time>
      </trkpt>
      <trkpt lat="44.55332" lon="6.72882">
        <ele>2720</ele>
        <time>2013-08-18T10:55:48Z</time>
      </trkpt>
      <trkpt lat="44.55341" lon="6.72878">
        <ele>2723</ele>
        <time>2013-08-18T11:05:46Z</time>
      </trkpt>
      <trkpt lat="44.55329" lon="6.72884">
        <ele>2723</ele>
        <time>2013-08-18T11:06:16Z</time>
      </trkpt>
      <trkpt lat="44.55287" lon="6.72934">
        <ele>2714</ele>
        <time>2013-08-18T11:06:27Z</time>
      </trkpt>
      <trkpt lat="44.55278" lon="6.72946">
        <ele>2708</ele>
        <time>2013-08-18T11:06:33Z</time>
      </trkpt>
      <trkpt lat="44.55276" lon="6.72974">
        <ele>2708</ele>
        <time>2013-08-18T11:10:29Z</time>
      </trkpt>
      <trkpt lat="44.55267" lon="6.73002">
        <ele>2708</ele>
        <time>2013-08-18T11:10:42Z</time>
      </trkpt>
      <trkpt lat="44.55256" lon="6.73032">
        <ele>2710</ele>
        <time>2013-08-18T11:10:57Z</time>
      </trkpt>
      <trkpt lat="44.55251" lon="6.73045">
        <ele>2711</ele>
        <time>2013-08-18T11:11:06Z</time>
      </trkpt>
      <trkpt lat="44.55236" lon="6.73065">
        <ele>2711</ele>
        <time>2013-08-18T11:11:14Z</time>
      </trkpt>
      <trkpt lat="44.5521" lon="6.73099">
        <ele>2710</ele>
        <time>2013-08-18T11:11:20Z</time>
      </trkpt>
      <trkpt lat="44.55191" lon="6.73165">
        <ele>2706</ele>
        <time>2013-08-18T11:11:28Z</time>
      </trkpt>
      <trkpt lat="44.55179" lon="6.73199">
        <ele>2709</ele>
        <time>2013-08-18T11:11:42Z</time>
      </trkpt>
      <trkpt lat="44.55177" lon="6.73239">
        <ele>2710</ele>
        <time>2013-08-18T11:11:55Z</time>
      </trkpt>
      <trkpt lat="44.55179" lon="6.73296">
        <ele>2708</ele>
        <time>2013-08-18T11:12:03Z</time>
      </trkpt>
      <trkpt lat="44.55189" lon="6.73328">
        <ele>2710</ele>
        <time>2013-08-18T11:12:16Z</time>
      </trkpt>
      <trkpt lat="44.55189" lon="6.7335">
        <ele>2712</ele>
        <time>2013-08-18T11:12:26Z</time>
      </trkpt>
      <trkpt lat="44.55184" lon="6.73371">
        <ele>2711</ele>
        <time>2013-08-18T11:12:36Z</time>
      </trkpt>
      <trkpt lat="44.55187" lon="6.73371">
        <ele>2710</ele>
        <time>2013-08-18T11:13:20Z</time>
      </trkpt>
      <trkpt lat="44.55183" lon="6.73365">
        <ele>2712</ele>
        <time>2013-08-18T11:13:28Z</time>
      </trkpt>
      <trkpt lat="44.55172" lon="6.73391">
        <ele>2708</ele>
        <time>2013-08-18T11:13:44Z</time>
      </trkpt>
      <trkpt lat="44.5517" lon="6.73416">
        <ele>2699</ele>
        <time>2013-08-18T11:13:56Z</time>
      </trkpt>
      <trkpt lat="44.55171" lon="6.73432">
        <ele>2694</ele>
        <time>2013-08-18T11:14:06Z</time>
      </trkpt>
      <trkpt lat="44.55177" lon="6.7345">
        <ele>2689</ele>
        <time>2013-08-18T11:14:16Z</time>
      </trkpt>
      <trkpt lat="44.55182" lon="6.73471">
        <ele>2680</ele>
        <time>2013-08-18T11:14:30Z</time>
      </trkpt>
      <trkpt lat="44.55186" lon="6.73483">
        <ele>2675</ele>
        <time>2013-08-18T11:14:39Z</time>
      </trkpt>
      <trkpt lat="44.55189" lon="6.73499">
        <ele>2669</ele>
        <time>2013-08-18T11:14:50Z</time>
      </trkpt>
      <trkpt lat="44.55192" lon="6.73501">
        <ele>2667</ele>
        <time>2013-08-18T11:14:57Z</time>
      </trkpt>
      <trkpt lat="44.55192" lon="6.73506">
        <ele>2665</ele>
        <time>2013-08-18T11:15:07Z</time>
      </trkpt>
      <trkpt lat="44.55193" lon="6.73514">
        <ele>2660</ele>
        <time>2013-08-18T11:15:21Z</time>
      </trkpt>
      <trkpt lat="44.55194" lon="6.73516">
        <ele>2659</ele>
        <time>2013-08-18T11:15:26Z</time>
      </trkpt>
      <trkpt lat="44.55197" lon="6.73521">
        <ele>2656</ele>
        <time>2013-08-18T11:15:57Z</time>
      </trkpt>
      <trkpt lat="44.55201" lon="6.73531">
        <ele>2652</ele>
        <time>2013-08-18T11:16:10Z</time>
      </trkpt>
      <trkpt lat="44.55205" lon="6.73539">
        <ele>2647</ele>
        <time>2013-08-18T11:16:24Z</time>
      </trkpt>
      <trkpt lat="44.55209" lon="6.73546">
        <ele>2642</ele>
        <time>2013-08-18T11:16:39Z</time>
      </trkpt>
      <trkpt lat="44.55215" lon="6.73555">
        <ele>2638</ele>
        <time>2013-08-18T11:16:55Z</time>
      </trkpt>
      <trkpt lat="44.55218" lon="6.73558">
        <ele>2635</ele>
        <time>2013-08-18T11:17:10Z</time>
      </trkpt>
      <trkpt lat="44.55218" lon="6.73566">
        <ele>2631</ele>
        <time>2013-08-18T11:17:21Z</time>
      </trkpt>
      <trkpt lat="44.55223" lon="6.7357">
        <ele>2628</ele>
        <time>2013-08-18T11:17:33Z</time>
      </trkpt>
      <trkpt lat="44.55224" lon="6.73577">
        <ele>2624</ele>
        <time>2013-08-18T11:17:46Z</time>
      </trkpt>
      <trkpt lat="44.55225" lon="6.73581">
        <ele>2623</ele>
        <time>2013-08-18T11:17:55Z</time>
      </trkpt>
      <trkpt lat="44.55227" lon="6.73585">
        <ele>2620</ele>
        <time>2013-08-18T11:18:04Z</time>
      </trkpt>
      <trkpt lat="44.55229" lon="6.73593">
        <ele>2617</ele>
        <time>2013-08-18T11:18:16Z</time>
      </trkpt>
      <trkpt lat="44.55234" lon="6.73602">
        <ele>2613</ele>
        <time>2013-08-18T11:18:31Z</time>
      </trkpt>
      <trkpt lat="44.55237" lon="6.73606">
        <ele>2610</ele>
        <time>2013-08-18T11:18:42Z</time>
      </trkpt>
      <trkpt lat="44.55237" lon="6.73619">
        <ele>2606</ele>
        <time>2013-08-18T11:18:58Z</time>
      </trkpt>
      <trkpt lat="44.55238" lon="6.73633">
        <ele>2601</ele>
        <time>2013-08-18T11:19:11Z</time>
      </trkpt>
      <trkpt lat="44.55242" lon="6.73651">
        <ele>2598</ele>
        <time>2013-08-18T11:19:22Z</time>
      </trkpt>
      <trkpt lat="44.55238" lon="6.73655">
        <ele>2598</ele>
        <time>2013-08-18T11:21:57Z</time>
      </trkpt>
      <trkpt lat="44.5524" lon="6.73666">
        <ele>2600</ele>
        <time>2013-08-18T11:22:07Z</time>
      </trkpt>
      <trkpt lat="44.55243" lon="6.73684">
        <ele>2602</ele>
        <time>2013-08-18T11:22:21Z</time>
      </trkpt>
      <trkpt lat="44.55248" lon="6.73695">
        <ele>2605</ele>
        <time>2013-08-18T11:22:37Z</time>
      </trkpt>
      <trkpt lat="44.55249" lon="6.73701">
        <ele>2606</ele>
        <time>2013-08-18T11:22:49Z</time>
      </trkpt>
      <trkpt lat="44.55251" lon="6.73708">
        <ele>2608</ele>
        <time>2013-08-18T11:23:02Z</time>
      </trkpt>
      <trkpt lat="44.55253" lon="6.73711">
        <ele>2609</ele>
        <time>2013-08-18T11:23:08Z</time>
      </trkpt>
      <trkpt lat="44.55253" lon="6.73717">
        <ele>2611</ele>
        <time>2013-08-18T11:23:22Z</time>
      </trkpt>
      <trkpt lat="44.55255" lon="6.73718">
        <ele>2612</ele>
        <time>2013-08-18T11:23:29Z</time>
      </trkpt>
      <trkpt lat="44.55256" lon="6.73722">
        <ele>2613</ele>
        <time>2013-08-18T11:23:37Z</time>
      </trkpt>
      <trkpt lat="44.55258" lon="6.73729">
        <ele>2615</ele>
        <time>2013-08-18T11:23:50Z</time>
      </trkpt>
      <trkpt lat="44.55259" lon="6.73735">
        <ele>2617</ele>
        <time>2013-08-18T11:24:02Z</time>
      </trkpt>
      <trkpt lat="44.55261" lon="6.73744">
        <ele>2620</ele>
        <time>2013-08-18T11:24:15Z</time>
      </trkpt>
      <trkpt lat="44.55263" lon="6.73752">
        <ele>2622</ele>
        <time>2013-08-18T11:24:31Z</time>
      </trkpt>
      <trkpt lat="44.55265" lon="6.73757">
        <ele>2624</ele>
        <time>2013-08-18T11:24:41Z</time>
      </trkpt>
      <trkpt lat="44.55269" lon="6.73766">
        <ele>2626</ele>
        <time>2013-08-18T11:24:58Z</time>
      </trkpt>
      <trkpt lat="44.55271" lon="6.73773">
        <ele>2629</ele>
        <time>2013-08-18T11:25:11Z</time>
      </trkpt>
      <trkpt lat="44.55275" lon="6.73786">
        <ele>2631</ele>
        <time>2013-08-18T11:25:28Z</time>
      </trkpt>
      <trkpt lat="44.55279" lon="6.73802">
        <ele>2633</ele>
        <time>2013-08-18T11:25:46Z</time>
      </trkpt>
      <trkpt lat="44.5528" lon="6.73809">
        <ele>2635</ele>
        <time>2013-08-18T11:25:56Z</time>
      </trkpt>
      <trkpt lat="44.55286" lon="6.73818">
        <ele>2637</ele>
        <time>2013-08-18T11:26:11Z</time>
      </trkpt>
      <trkpt lat="44.55289" lon="6.73825">
        <ele>2639</ele>
        <time>2013-08-18T11:26:25Z</time>
      </trkpt>
      <trkpt lat="44.55292" lon="6.73829">
        <ele>2641</ele>
        <time>2013-08-18T11:26:35Z</time>
      </trkpt>
      <trkpt lat="44.55294" lon="6.73832">
        <ele>2642</ele>
        <time>2013-08-18T11:26:44Z</time>
      </trkpt>
      <trkpt lat="44.55296" lon="6.73835">
        <ele>2643</ele>
        <time>2013-08-18T11:26:49Z</time>
      </trkpt>
      <trkpt lat="44.55301" lon="6.7384">
        <ele>2645</ele>
        <time>2013-08-18T11:27:06Z</time>
      </trkpt>
      <trkpt lat="44.55305" lon="6.73843">
        <ele>2647</ele>
        <time>2013-08-18T11:27:19Z</time>
      </trkpt>
      <trkpt lat="44.55306" lon="6.73846">
        <ele>2649</ele>
        <time>2013-08-18T11:27:35Z</time>
      </trkpt>
      <trkpt lat="44.55308" lon="6.73847">
        <ele>2650</ele>
        <time>2013-08-18T11:27:41Z</time>
      </trkpt>
      <trkpt lat="44.5531" lon="6.73848">
        <ele>2651</ele>
        <time>2013-08-18T11:27:48Z</time>
      </trkpt>
      <trkpt lat="44.55316" lon="6.73851">
        <ele>2653</ele>
        <time>2013-08-18T11:28:04Z</time>
      </trkpt>
      <trkpt lat="44.55322" lon="6.73853">
        <ele>2655</ele>
        <time>2013-08-18T11:28:18Z</time>
      </trkpt>
      <trkpt lat="44.55328" lon="6.73858">
        <ele>2658</ele>
        <time>2013-08-18T11:28:33Z</time>
      </trkpt>
      <trkpt lat="44.55334" lon="6.73859">
        <ele>2659</ele>
        <time>2013-08-18T11:28:44Z</time>
      </trkpt>
      <trkpt lat="44.55338" lon="6.73862">
        <ele>2660</ele>
        <time>2013-08-18T11:28:57Z</time>
      </trkpt>
      <trkpt lat="44.5534" lon="6.73866">
        <ele>2662</ele>
        <time>2013-08-18T11:29:10Z</time>
      </trkpt>
      <trkpt lat="44.55343" lon="6.73868">
        <ele>2663</ele>
        <time>2013-08-18T11:29:18Z</time>
      </trkpt>
      <trkpt lat="44.55343" lon="6.73873">
        <ele>2664</ele>
        <time>2013-08-18T11:29:31Z</time>
      </trkpt>
      <trkpt lat="44.55345" lon="6.73881">
        <ele>2666</ele>
        <time>2013-08-18T11:29:44Z</time>
      </trkpt>
      <trkpt lat="44.55351" lon="6.73886">
        <ele>2667</ele>
        <time>2013-08-18T11:29:58Z</time>
      </trkpt>
      <trkpt lat="44.55357" lon="6.73892">
        <ele>2669</ele>
        <time>2013-08-18T11:30:12Z</time>
      </trkpt>
      <trkpt lat="44.55363" lon="6.73896">
        <ele>2670</ele>
        <time>2013-08-18T11:30:21Z</time>
      </trkpt>
      <trkpt lat="44.55369" lon="6.739">
        <ele>2672</ele>
        <time>2013-08-18T11:30:34Z</time>
      </trkpt>
      <trkpt lat="44.55375" lon="6.73901">
        <ele>2673</ele>
        <time>2013-08-18T11:30:55Z</time>
      </trkpt>
      <trkpt lat="44.55397" lon="6.73917">
        <ele>2669</ele>
        <time>2013-08-18T11:31:07Z</time>
      </trkpt>
      <trkpt lat="44.55402" lon="6.73931">
        <ele>2667</ele>
        <time>2013-08-18T11:31:10Z</time>
      </trkpt>
      <trkpt lat="44.55426" lon="6.73985">
        <ele>2658</ele>
        <time>2013-08-18T11:31:18Z</time>
      </trkpt>
      <trkpt lat="44.55435" lon="6.74">
        <ele>2658</ele>
        <time>2013-08-18T11:31:29Z</time>
      </trkpt>
      <trkpt lat="44.55443" lon="6.74013">
        <ele>2660</ele>
        <time>2013-08-18T11:31:45Z</time>
      </trkpt>
      <trkpt lat="44.55451" lon="6.7402">
        <ele>2661</ele>
        <time>2013-08-18T11:31:56Z</time>
      </trkpt>
      <trkpt lat="44.55455" lon="6.74022">
        <ele>2662</ele>
        <time>2013-08-18T11:32:05Z</time>
      </trkpt>
      <trkpt lat="44.5547" lon="6.74028">
        <ele>2664</ele>
        <time>2013-08-18T11:32:18Z</time>
      </trkpt>
      <trkpt lat="44.55473" lon="6.7403">
        <ele>2665</ele>
        <time>2013-08-18T11:32:25Z</time>
      </trkpt>
      <trkpt lat="44.55479" lon="6.74034">
        <ele>2666</ele>
        <time>2013-08-18T11:32:36Z</time>
      </trkpt>
      <trkpt lat="44.5549" lon="6.7404">
        <ele>2666</ele>
        <time>2013-08-18T11:32:51Z</time>
      </trkpt>
      <trkpt lat="44.55501" lon="6.7405">
        <ele>2668</ele>
        <time>2013-08-18T11:33:08Z</time>
      </trkpt>
      <trkpt lat="44.55507" lon="6.74054">
        <ele>2669</ele>
        <time>2013-08-18T11:33:20Z</time>
      </trkpt>
      <trkpt lat="44.55511" lon="6.74055">
        <ele>2669</ele>
        <time>2013-08-18T11:33:28Z</time>
      </trkpt>
      <trkpt lat="44.5554" lon="6.74066">
        <ele>2670</ele>
        <time>2013-08-18T11:33:47Z</time>
      </trkpt>
      <trkpt lat="44.55565" lon="6.74078">
        <ele>2672</ele>
        <time>2013-08-18T11:34:03Z</time>
      </trkpt>
      <trkpt lat="44.55579" lon="6.74097">
        <ele>2676</ele>
        <time>2013-08-18T11:34:19Z</time>
      </trkpt>
      <trkpt lat="44.5558" lon="6.74109">
        <ele>2676</ele>
        <time>2013-08-18T11:35:13Z</time>
      </trkpt>
      <trkpt lat="44.55598" lon="6.74137">
        <ele>2674</ele>
        <time>2013-08-18T11:35:19Z</time>
      </trkpt>
      <trkpt lat="44.55627" lon="6.74161">
        <ele>2674</ele>
        <time>2013-08-18T11:35:31Z</time>
      </trkpt>
      <trkpt lat="44.55636" lon="6.7417">
        <ele>2675</ele>
        <time>2013-08-18T11:35:40Z</time>
      </trkpt>
      <trkpt lat="44.55654" lon="6.74198">
        <ele>2672</ele>
        <time>2013-08-18T11:36:22Z</time>
      </trkpt>
      <trkpt lat="44.55656" lon="6.74199">
        <ele>2670</ele>
        <time>2013-08-18T11:37:05Z</time>
      </trkpt>
      <trkpt lat="44.55664" lon="6.74204">
        <ele>2670</ele>
        <time>2013-08-18T11:40:37Z</time>
      </trkpt>
      <trkpt lat="44.55694" lon="6.74216">
        <ele>2669</ele>
        <time>2013-08-18T11:40:47Z</time>
      </trkpt>
      <trkpt lat="44.55723" lon="6.74222">
        <ele>2671</ele>
        <time>2013-08-18T11:41:00Z</time>
      </trkpt>
      <trkpt lat="44.55746" lon="6.7423">
        <ele>2672</ele>
        <time>2013-08-18T11:41:13Z</time>
      </trkpt>
      <trkpt lat="44.55768" lon="6.74238">
        <ele>2671</ele>
        <time>2013-08-18T11:41:22Z</time>
      </trkpt>
      <trkpt lat="44.55808" lon="6.74259">
        <ele>2668</ele>
        <time>2013-08-18T11:41:31Z</time>
      </trkpt>
      <trkpt lat="44.55817" lon="6.74267">
        <ele>2668</ele>
        <time>2013-08-18T11:41:42Z</time>
      </trkpt>
      <trkpt lat="44.55822" lon="6.74276">
        <ele>2669</ele>
        <time>2013-08-18T11:41:52Z</time>
      </trkpt>
      <trkpt lat="44.55829" lon="6.74288">
        <ele>2670</ele>
        <time>2013-08-18T11:42:22Z</time>
      </trkpt>
      <trkpt lat="44.55831" lon="6.74298">
        <ele>2670</ele>
        <time>2013-08-18T11:53:22Z</time>
      </trkpt>
      <trkpt lat="44.55837" lon="6.74304">
        <ele>2672</ele>
        <time>2013-08-18T11:53:32Z</time>
      </trkpt>
      <trkpt lat="44.55841" lon="6.74303">
        <ele>2674</ele>
        <time>2013-08-18T11:53:42Z</time>
      </trkpt>
      <trkpt lat="44.55848" lon="6.74314">
        <ele>2675</ele>
        <time>2013-08-18T11:54:00Z</time>
      </trkpt>
      <trkpt lat="44.55853" lon="6.74317">
        <ele>2677</ele>
        <time>2013-08-18T11:54:16Z</time>
      </trkpt>
      <trkpt lat="44.55861" lon="6.74323">
        <ele>2677</ele>
        <time>2013-08-18T11:54:34Z</time>
      </trkpt>
      <trkpt lat="44.55869" lon="6.74322">
        <ele>2676</ele>
        <time>2013-08-18T11:57:04Z</time>
      </trkpt>
      <trkpt lat="44.55885" lon="6.74344">
        <ele>2677</ele>
        <time>2013-08-18T11:57:17Z</time>
      </trkpt>
      <trkpt lat="44.55892" lon="6.74375">
        <ele>2675</ele>
        <time>2013-08-18T11:57:23Z</time>
      </trkpt>
      <trkpt lat="44.55905" lon="6.74415">
        <ele>2670</ele>
        <time>2013-08-18T11:57:29Z</time>
      </trkpt>
      <trkpt lat="44.55911" lon="6.74433">
        <ele>2667</ele>
        <time>2013-08-18T11:57:35Z</time>
      </trkpt>
      <trkpt lat="44.55916" lon="6.74453">
        <ele>2664</ele>
        <time>2013-08-18T11:57:42Z</time>
      </trkpt>
      <trkpt lat="44.55928" lon="6.74479">
        <ele>2661</ele>
        <time>2013-08-18T11:57:46Z</time>
      </trkpt>
      <trkpt lat="44.55929" lon="6.7448">
        <ele>2659</ele>
        <time>2013-08-18T11:57:50Z</time>
      </trkpt>
      <trkpt lat="44.55934" lon="6.74487">
        <ele>2660</ele>
        <time>2013-08-18T11:58:03Z</time>
      </trkpt>
      <trkpt lat="44.55948" lon="6.74513">
        <ele>2660</ele>
        <time>2013-08-18T11:58:16Z</time>
      </trkpt>
      <trkpt lat="44.5596" lon="6.74536">
        <ele>2659</ele>
        <time>2013-08-18T11:58:25Z</time>
      </trkpt>
      <trkpt lat="44.55964" lon="6.74542">
        <ele>2659</ele>
        <time>2013-08-18T11:59:27Z</time>
      </trkpt>
      <trkpt lat="44.5597" lon="6.7457">
        <ele>2656</ele>
        <time>2013-08-18T11:59:41Z</time>
      </trkpt>
      <trkpt lat="44.55978" lon="6.74608">
        <ele>2647</ele>
        <time>2013-08-18T11:59:50Z</time>
      </trkpt>
      <trkpt lat="44.5599" lon="6.74636">
        <ele>2641</ele>
        <time>2013-08-18T11:59:55Z</time>
      </trkpt>
      <trkpt lat="44.56011" lon="6.74669">
        <ele>2633</ele>
        <time>2013-08-18T12:00:01Z</time>
      </trkpt>
      <trkpt lat="44.56011" lon="6.74669">
        <ele>2632</ele>
        <time>2013-08-18T12:00:05Z</time>
      </trkpt>
      <trkpt lat="44.56017" lon="6.74675">
        <ele>2634</ele>
        <time>2013-08-18T12:01:22Z</time>
      </trkpt>
      <trkpt lat="44.56023" lon="6.74677">
        <ele>2634</ele>
        <time>2013-08-18T12:01:39Z</time>
      </trkpt>
      <trkpt lat="44.56026" lon="6.74679">
        <ele>2635</ele>
        <time>2013-08-18T12:01:48Z</time>
      </trkpt>
      <trkpt lat="44.56041" lon="6.74685">
        <ele>2636</ele>
        <time>2013-08-18T12:02:03Z</time>
      </trkpt>
      <trkpt lat="44.56056" lon="6.74686">
        <ele>2639</ele>
        <time>2013-08-18T12:02:19Z</time>
      </trkpt>
      <trkpt lat="44.56059" lon="6.74694">
        <ele>2642</ele>
        <time>2013-08-18T12:02:36Z</time>
      </trkpt>
      <trkpt lat="44.56064" lon="6.74703">
        <ele>2645</ele>
        <time>2013-08-18T12:02:50Z</time>
      </trkpt>
      <trkpt lat="44.56076" lon="6.74709">
        <ele>2647</ele>
        <time>2013-08-18T12:03:08Z</time>
      </trkpt>
      <trkpt lat="44.56089" lon="6.74712">
        <ele>2649</ele>
        <time>2013-08-18T12:03:27Z</time>
      </trkpt>
      <trkpt lat="44.5611" lon="6.74714">
        <ele>2651</ele>
        <time>2013-08-18T12:03:46Z</time>
      </trkpt>
      <trkpt lat="44.56127" lon="6.74716">
        <ele>2653</ele>
        <time>2013-08-18T12:04:05Z</time>
      </trkpt>
      <trkpt lat="44.56128" lon="6.74714">
        <ele>2654</ele>
        <time>2013-08-18T12:04:20Z</time>
      </trkpt>
      <trkpt lat="44.56134" lon="6.74708">
        <ele>2654</ele>
        <time>2013-08-18T12:04:30Z</time>
      </trkpt>
      <trkpt lat="44.56149" lon="6.74701">
        <ele>2655</ele>
        <time>2013-08-18T12:04:41Z</time>
      </trkpt>
      <trkpt lat="44.56172" lon="6.74694">
        <ele>2655</ele>
        <time>2013-08-18T12:05:07Z</time>
      </trkpt>
      <trkpt lat="44.56195" lon="6.74685">
        <ele>2655</ele>
        <time>2013-08-18T12:05:14Z</time>
      </trkpt>
      <trkpt lat="44.56229" lon="6.74681">
        <ele>2656</ele>
        <time>2013-08-18T12:05:30Z</time>
      </trkpt>
      <trkpt lat="44.56234" lon="6.74686">
        <ele>2657</ele>
        <time>2013-08-18T12:05:38Z</time>
      </trkpt>
      <trkpt lat="44.56239" lon="6.74688">
        <ele>2658</ele>
        <time>2013-08-18T12:05:47Z</time>
      </trkpt>
      <trkpt lat="44.56241" lon="6.74694">
        <ele>2659</ele>
        <time>2013-08-18T12:05:59Z</time>
      </trkpt>
      <trkpt lat="44.56238" lon="6.74703">
        <ele>2662</ele>
        <time>2013-08-18T12:06:15Z</time>
      </trkpt>
      <trkpt lat="44.56237" lon="6.74708">
        <ele>2663</ele>
        <time>2013-08-18T12:06:25Z</time>
      </trkpt>
      <trkpt lat="44.56235" lon="6.74719">
        <ele>2665</ele>
        <time>2013-08-18T12:06:39Z</time>
      </trkpt>
      <trkpt lat="44.5623" lon="6.74717">
        <ele>2667</ele>
        <time>2013-08-18T12:06:53Z</time>
      </trkpt>
      <trkpt lat="44.56227" lon="6.74726">
        <ele>2669</ele>
        <time>2013-08-18T12:07:07Z</time>
      </trkpt>
      <trkpt lat="44.56223" lon="6.74727">
        <ele>2671</ele>
        <time>2013-08-18T12:07:22Z</time>
      </trkpt>
      <trkpt lat="44.56215" lon="6.74727">
        <ele>2672</ele>
        <time>2013-08-18T12:07:35Z</time>
      </trkpt>
      <trkpt lat="44.56211" lon="6.7473">
        <ele>2674</ele>
        <time>2013-08-18T12:07:45Z</time>
      </trkpt>
      <trkpt lat="44.56205" lon="6.74738">
        <ele>2676</ele>
        <time>2013-08-18T12:08:00Z</time>
      </trkpt>
      <trkpt lat="44.56203" lon="6.74742">
        <ele>2677</ele>
        <time>2013-08-18T12:08:09Z</time>
      </trkpt>
      <trkpt lat="44.56206" lon="6.74752">
        <ele>2678</ele>
        <time>2013-08-18T12:08:21Z</time>
      </trkpt>
      <trkpt lat="44.5621" lon="6.7476">
        <ele>2679</ele>
        <time>2013-08-18T12:08:35Z</time>
      </trkpt>
      <trkpt lat="44.56214" lon="6.7477">
        <ele>2682</ele>
        <time>2013-08-18T12:08:49Z</time>
      </trkpt>
      <trkpt lat="44.56217" lon="6.74775">
        <ele>2683</ele>
        <time>2013-08-18T12:08:59Z</time>
      </trkpt>
      <trkpt lat="44.56226" lon="6.74779">
        <ele>2685</ele>
        <time>2013-08-18T12:09:13Z</time>
      </trkpt>
      <trkpt lat="44.56231" lon="6.74784">
        <ele>2687</ele>
        <time>2013-08-18T12:09:25Z</time>
      </trkpt>
      <trkpt lat="44.56237" lon="6.74792">
        <ele>2689</ele>
        <time>2013-08-18T12:09:43Z</time>
      </trkpt>
      <trkpt lat="44.5624" lon="6.74799">
        <ele>2692</ele>
        <time>2013-08-18T12:10:00Z</time>
      </trkpt>
      <trkpt lat="44.56241" lon="6.74808">
        <ele>2694</ele>
        <time>2013-08-18T12:10:14Z</time>
      </trkpt>
      <trkpt lat="44.56239" lon="6.74812">
        <ele>2695</ele>
        <time>2013-08-18T12:10:27Z</time>
      </trkpt>
      <trkpt lat="44.56234" lon="6.74822">
        <ele>2697</ele>
        <time>2013-08-18T12:10:44Z</time>
      </trkpt>
      <trkpt lat="44.56232" lon="6.74832">
        <ele>2699</ele>
        <time>2013-08-18T12:10:56Z</time>
      </trkpt>
      <trkpt lat="44.56227" lon="6.74841">
        <ele>2699</ele>
        <time>2013-08-18T12:12:12Z</time>
      </trkpt>
      <trkpt lat="44.56243" lon="6.74839">
        <ele>2698</ele>
        <time>2013-08-18T12:12:20Z</time>
      </trkpt>
      <trkpt lat="44.56259" lon="6.74849">
        <ele>2697</ele>
        <time>2013-08-18T12:12:26Z</time>
      </trkpt>
      <trkpt lat="44.56276" lon="6.74879">
        <ele>2697</ele>
        <time>2013-08-18T12:12:38Z</time>
      </trkpt>
      <trkpt lat="44.56281" lon="6.74907">
        <ele>2697</ele>
        <time>2013-08-18T12:12:51Z</time>
      </trkpt>
      <trkpt lat="44.56278" lon="6.74916">
        <ele>2754</ele>
        <time>2013-08-18T12:34:36Z</time>
      </trkpt>
      <trkpt lat="44.56278" lon="6.74919">
        <ele>2757</ele>
        <time>2013-08-18T12:34:45Z</time>
      </trkpt>
      <trkpt lat="44.56281" lon="6.74921">
        <ele>2759</ele>
        <time>2013-08-18T12:35:01Z</time>
      </trkpt>
      <trkpt lat="44.56285" lon="6.74926">
        <ele>2762</ele>
        <time>2013-08-18T12:35:16Z</time>
      </trkpt>
      <trkpt lat="44.56293" lon="6.74925">
        <ele>2765</ele>
        <time>2013-08-18T12:35:32Z</time>
      </trkpt>
      <trkpt lat="44.56298" lon="6.74929">
        <ele>2767</ele>
        <time>2013-08-18T12:35:44Z</time>
      </trkpt>
      <trkpt lat="44.56302" lon="6.74929">
        <ele>2768</ele>
        <time>2013-08-18T12:35:54Z</time>
      </trkpt>
      <trkpt lat="44.56308" lon="6.74932">
        <ele>2769</ele>
        <time>2013-08-18T12:36:05Z</time>
      </trkpt>
      <trkpt lat="44.56314" lon="6.74935">
        <ele>2771</ele>
        <time>2013-08-18T12:36:15Z</time>
      </trkpt>
      <trkpt lat="44.56319" lon="6.74938">
        <ele>2772</ele>
        <time>2013-08-18T12:36:23Z</time>
      </trkpt>
      <trkpt lat="44.56316" lon="6.74949">
        <ele>2773</ele>
        <time>2013-08-18T12:36:45Z</time>
      </trkpt>
      <trkpt lat="44.56319" lon="6.74952">
        <ele>2774</ele>
        <time>2013-08-18T12:36:54Z</time>
      </trkpt>
      <trkpt lat="44.56322" lon="6.74952">
        <ele>2775</ele>
        <time>2013-08-18T12:37:04Z</time>
      </trkpt>
      <trkpt lat="44.56333" lon="6.74953">
        <ele>2776</ele>
        <time>2013-08-18T12:37:20Z</time>
      </trkpt>
      <trkpt lat="44.56349" lon="6.74955">
        <ele>2777</ele>
        <time>2013-08-18T12:37:32Z</time>
      </trkpt>
      <trkpt lat="44.56374" lon="6.74958">
        <ele>2779</ele>
        <time>2013-08-18T12:37:47Z</time>
      </trkpt>
      <trkpt lat="44.56391" lon="6.74962">
        <ele>2781</ele>
        <time>2013-08-18T12:37:57Z</time>
      </trkpt>
      <trkpt lat="44.56416" lon="6.7496">
        <ele>2784</ele>
        <time>2013-08-18T12:38:13Z</time>
      </trkpt>
      <trkpt lat="44.56432" lon="6.74952">
        <ele>2785</ele>
        <time>2013-08-18T12:38:28Z</time>
      </trkpt>
      <trkpt lat="44.56443" lon="6.74945">
        <ele>2788</ele>
        <time>2013-08-18T12:38:46Z</time>
      </trkpt>
      <trkpt lat="44.56451" lon="6.74938">
        <ele>2790</ele>
        <time>2013-08-18T12:39:03Z</time>
      </trkpt>
      <trkpt lat="44.56461" lon="6.74929">
        <ele>2792</ele>
        <time>2013-08-18T12:39:20Z</time>
      </trkpt>
      <trkpt lat="44.56466" lon="6.74926">
        <ele>2792</ele>
        <time>2013-08-18T12:39:31Z</time>
      </trkpt>
      <trkpt lat="44.56472" lon="6.74924">
        <ele>2793</ele>
        <time>2013-08-18T12:39:43Z</time>
      </trkpt>
      <trkpt lat="44.56474" lon="6.74921">
        <ele>2793</ele>
        <time>2013-08-18T12:40:10Z</time>
      </trkpt>
      <trkpt lat="44.56483" lon="6.74916">
        <ele>2795</ele>
        <time>2013-08-18T12:41:06Z</time>
      </trkpt>
      <trkpt lat="44.56503" lon="6.74911">
        <ele>2799</ele>
        <time>2013-08-18T12:41:28Z</time>
      </trkpt>
      <trkpt lat="44.56521" lon="6.74911">
        <ele>2800</ele>
        <time>2013-08-18T12:41:48Z</time>
      </trkpt>
      <trkpt lat="44.56534" lon="6.74911">
        <ele>2803</ele>
        <time>2013-08-18T12:42:04Z</time>
      </trkpt>
      <trkpt lat="44.56545" lon="6.74912">
        <ele>2806</ele>
        <time>2013-08-18T12:42:23Z</time>
      </trkpt>
      <trkpt lat="44.56552" lon="6.74913">
        <ele>2808</ele>
        <time>2013-08-18T12:42:36Z</time>
      </trkpt>
      <trkpt lat="44.5656" lon="6.74915">
        <ele>2810</ele>
        <time>2013-08-18T12:42:51Z</time>
      </trkpt>
      <trkpt lat="44.56566" lon="6.74917">
        <ele>2811</ele>
        <time>2013-08-18T12:43:04Z</time>
      </trkpt>
      <trkpt lat="44.56577" lon="6.74921">
        <ele>2813</ele>
        <time>2013-08-18T12:43:20Z</time>
      </trkpt>
      <trkpt lat="44.56587" lon="6.74923">
        <ele>2816</ele>
        <time>2013-08-18T12:43:36Z</time>
      </trkpt>
      <trkpt lat="44.56594" lon="6.74929">
        <ele>2817</ele>
        <time>2013-08-18T12:43:58Z</time>
      </trkpt>
      <trkpt lat="44.56608" lon="6.74929">
        <ele>2818</ele>
        <time>2013-08-18T12:44:14Z</time>
      </trkpt>
      <trkpt lat="44.56614" lon="6.74927">
        <ele>2818</ele>
        <time>2013-08-18T12:44:24Z</time>
      </trkpt>
      <trkpt lat="44.56627" lon="6.74923">
        <ele>2821</ele>
        <time>2013-08-18T12:44:43Z</time>
      </trkpt>
      <trkpt lat="44.56629" lon="6.74918">
        <ele>2823</ele>
        <time>2013-08-18T12:48:15Z</time>
      </trkpt>
      <trkpt lat="44.56639" lon="6.74927">
        <ele>2823</ele>
        <time>2013-08-18T12:48:28Z</time>
      </trkpt>
      <trkpt lat="44.56666" lon="6.74958">
        <ele>2819</ele>
        <time>2013-08-18T12:48:36Z</time>
      </trkpt>
      <trkpt lat="44.56692" lon="6.74973">
        <ele>2821</ele>
        <time>2013-08-18T12:48:49Z</time>
      </trkpt>
      <trkpt lat="44.5671" lon="6.74985">
        <ele>2818</ele>
        <time>2013-08-18T12:49:01Z</time>
      </trkpt>
      <trkpt lat="44.56745" lon="6.75021">
        <ele>2810</ele>
        <time>2013-08-18T12:49:12Z</time>
      </trkpt>
      <trkpt lat="44.56765" lon="6.75044">
        <ele>2807</ele>
        <time>2013-08-18T12:49:21Z</time>
      </trkpt>
      <trkpt lat="44.56787" lon="6.75042">
        <ele>2807</ele>
        <time>2013-08-18T12:49:56Z</time>
      </trkpt>
      <trkpt lat="44.56825" lon="6.75075">
        <ele>2803</ele>
        <time>2013-08-18T12:50:04Z</time>
      </trkpt>
      <trkpt lat="44.56847" lon="6.7511">
        <ele>2801</ele>
        <time>2013-08-18T12:50:14Z</time>
      </trkpt>
      <trkpt lat="44.56869" lon="6.75119">
        <ele>2799</ele>
        <time>2013-08-18T12:50:24Z</time>
      </trkpt>
      <trkpt lat="44.5689" lon="6.75125">
        <ele>2798</ele>
        <time>2013-08-18T12:50:32Z</time>
      </trkpt>
      <trkpt lat="44.56907" lon="6.75131">
        <ele>2801</ele>
        <time>2013-08-18T12:50:43Z</time>
      </trkpt>
      <trkpt lat="44.56916" lon="6.75138">
        <ele>2801</ele>
        <time>2013-08-18T12:51:25Z</time>
      </trkpt>
      <trkpt lat="44.56936" lon="6.75152">
        <ele>2801</ele>
        <time>2013-08-18T12:51:34Z</time>
      </trkpt>
      <trkpt lat="44.56962" lon="6.7518">
        <ele>2799</ele>
        <time>2013-08-18T12:51:42Z</time>
      </trkpt>
      <trkpt lat="44.57009" lon="6.75188">
        <ele>2794</ele>
        <time>2013-08-18T12:51:49Z</time>
      </trkpt>
      <trkpt lat="44.57035" lon="6.75206">
        <ele>2789</ele>
        <time>2013-08-18T12:52:00Z</time>
      </trkpt>
      <trkpt lat="44.57033" lon="6.75208">
        <ele>2788</ele>
        <time>2013-08-18T12:52:32Z</time>
      </trkpt>
      <trkpt lat="44.57041" lon="6.75217">
        <ele>2786</ele>
        <time>2013-08-18T12:56:13Z</time>
      </trkpt>
      <trkpt lat="44.57042" lon="6.75228">
        <ele>2783</ele>
        <time>2013-08-18T12:56:24Z</time>
      </trkpt>
      <trkpt lat="44.57048" lon="6.75237">
        <ele>2780</ele>
        <time>2013-08-18T12:57:01Z</time>
      </trkpt>
      <trkpt lat="44.57048" lon="6.7524">
        <ele>2779</ele>
        <time>2013-08-18T12:57:07Z</time>
      </trkpt>
      <trkpt lat="44.5705" lon="6.75244">
        <ele>2776</ele>
        <time>2013-08-18T12:57:18Z</time>
      </trkpt>
      <trkpt lat="44.57047" lon="6.75256">
        <ele>2772</ele>
        <time>2013-08-18T12:57:58Z</time>
      </trkpt>
      <trkpt lat="44.57049" lon="6.75262">
        <ele>2769</ele>
        <time>2013-08-18T12:58:07Z</time>
      </trkpt>
      <trkpt lat="44.57048" lon="6.75267">
        <ele>2767</ele>
        <time>2013-08-18T12:58:17Z</time>
      </trkpt>
      <trkpt lat="44.5705" lon="6.75273">
        <ele>2764</ele>
        <time>2013-08-18T12:58:29Z</time>
      </trkpt>
      <trkpt lat="44.5705" lon="6.75281">
        <ele>2760</ele>
        <time>2013-08-18T12:58:41Z</time>
      </trkpt>
      <trkpt lat="44.5705" lon="6.75291">
        <ele>2758</ele>
        <time>2013-08-18T12:58:55Z</time>
      </trkpt>
      <trkpt lat="44.57053" lon="6.75304">
        <ele>2754</ele>
        <time>2013-08-18T12:59:09Z</time>
      </trkpt>
      <trkpt lat="44.57055" lon="6.75317">
        <ele>2748</ele>
        <time>2013-08-18T12:59:25Z</time>
      </trkpt>
      <trkpt lat="44.57057" lon="6.75321">
        <ele>2746</ele>
        <time>2013-08-18T12:59:51Z</time>
      </trkpt>
      <trkpt lat="44.57057" lon="6.75332">
        <ele>2743</ele>
        <time>2013-08-18T13:00:00Z</time>
      </trkpt>
      <trkpt lat="44.57058" lon="6.75342">
        <ele>2739</ele>
        <time>2013-08-18T13:00:11Z</time>
      </trkpt>
      <trkpt lat="44.5706" lon="6.75349">
        <ele>2735</ele>
        <time>2013-08-18T13:00:20Z</time>
      </trkpt>
      <trkpt lat="44.57065" lon="6.75354">
        <ele>2733</ele>
        <time>2013-08-18T13:00:30Z</time>
      </trkpt>
      <trkpt lat="44.57066" lon="6.75362">
        <ele>2729</ele>
        <time>2013-08-18T13:00:48Z</time>
      </trkpt>
      <trkpt lat="44.57068" lon="6.75365">
        <ele>2727</ele>
        <time>2013-08-18T13:00:55Z</time>
      </trkpt>
      <trkpt lat="44.57068" lon="6.7537">
        <ele>2725</ele>
        <time>2013-08-18T13:01:03Z</time>
      </trkpt>
      <trkpt lat="44.57072" lon="6.75376">
        <ele>2722</ele>
        <time>2013-08-18T13:01:14Z</time>
      </trkpt>
      <trkpt lat="44.57074" lon="6.75387">
        <ele>2718</ele>
        <time>2013-08-18T13:01:24Z</time>
      </trkpt>
      <trkpt lat="44.57085" lon="6.75397">
        <ele>2713</ele>
        <time>2013-08-18T13:01:38Z</time>
      </trkpt>
      <trkpt lat="44.57092" lon="6.75408">
        <ele>2708</ele>
        <time>2013-08-18T13:01:51Z</time>
      </trkpt>
      <trkpt lat="44.57096" lon="6.75414">
        <ele>2705</ele>
        <time>2013-08-18T13:01:59Z</time>
      </trkpt>
      <trkpt lat="44.57095" lon="6.75418">
        <ele>2703</ele>
        <time>2013-08-18T13:02:07Z</time>
      </trkpt>
      <trkpt lat="44.57103" lon="6.75433">
        <ele>2700</ele>
        <time>2013-08-18T13:02:21Z</time>
      </trkpt>
      <trkpt lat="44.57126" lon="6.75448">
        <ele>2693</ele>
        <time>2013-08-18T13:02:30Z</time>
      </trkpt>
      <trkpt lat="44.57128" lon="6.75459">
        <ele>2689</ele>
        <time>2013-08-18T13:02:36Z</time>
      </trkpt>
      <trkpt lat="44.57131" lon="6.75471">
        <ele>2686</ele>
        <time>2013-08-18T13:06:14Z</time>
      </trkpt>
      <trkpt lat="44.57127" lon="6.75478">
        <ele>2685</ele>
        <time>2013-08-18T13:06:40Z</time>
      </trkpt>
      <trkpt lat="44.57105" lon="6.75493">
        <ele>2682</ele>
        <time>2013-08-18T13:06:47Z</time>
      </trkpt>
      <trkpt lat="44.5709" lon="6.75506">
        <ele>2676</ele>
        <time>2013-08-18T13:06:54Z</time>
      </trkpt>
      <trkpt lat="44.57084" lon="6.7551">
        <ele>2672</ele>
        <time>2013-08-18T13:08:51Z</time>
      </trkpt>
      <trkpt lat="44.57071" lon="6.7552">
        <ele>2671</ele>
        <time>2013-08-18T13:08:56Z</time>
      </trkpt>
      <trkpt lat="44.57048" lon="6.7553">
        <ele>2665</ele>
        <time>2013-08-18T13:09:07Z</time>
      </trkpt>
      <trkpt lat="44.57024" lon="6.75534">
        <ele>2658</ele>
        <time>2013-08-18T13:09:16Z</time>
      </trkpt>
      <trkpt lat="44.56999" lon="6.75565">
        <ele>2650</ele>
        <time>2013-08-18T13:09:24Z</time>
      </trkpt>
      <trkpt lat="44.56978" lon="6.75581">
        <ele>2645</ele>
        <time>2013-08-18T13:09:29Z</time>
      </trkpt>
      <trkpt lat="44.5695" lon="6.75595">
        <ele>2636</ele>
        <time>2013-08-18T13:09:39Z</time>
      </trkpt>
      <trkpt lat="44.56923" lon="6.75589">
        <ele>2631</ele>
        <time>2013-08-18T13:09:50Z</time>
      </trkpt>
      <trkpt lat="44.56904" lon="6.75595">
        <ele>2625</ele>
        <time>2013-08-18T13:09:57Z</time>
      </trkpt>
      <trkpt lat="44.56883" lon="6.75593">
        <ele>2619</ele>
        <time>2013-08-18T13:10:03Z</time>
      </trkpt>
      <trkpt lat="44.56859" lon="6.75603">
        <ele>2615</ele>
        <time>2013-08-18T13:10:08Z</time>
      </trkpt>
      <trkpt lat="44.56825" lon="6.75631">
        <ele>2609</ele>
        <time>2013-08-18T13:10:15Z</time>
      </trkpt>
      <trkpt lat="44.56792" lon="6.75639">
        <ele>2602</ele>
        <time>2013-08-18T13:10:22Z</time>
      </trkpt>
      <trkpt lat="44.5679" lon="6.75638">
        <ele>2600</ele>
        <time>2013-08-18T13:10:50Z</time>
      </trkpt>
      <trkpt lat="44.56782" lon="6.75643">
        <ele>2599</ele>
        <time>2013-08-18T13:10:57Z</time>
      </trkpt>
      <trkpt lat="44.56769" lon="6.75649">
        <ele>2597</ele>
        <time>2013-08-18T13:11:17Z</time>
      </trkpt>
      <trkpt lat="44.56755" lon="6.75656">
        <ele>2594</ele>
        <time>2013-08-18T13:11:23Z</time>
      </trkpt>
      <trkpt lat="44.56744" lon="6.75661">
        <ele>2589</ele>
        <time>2013-08-18T13:11:30Z</time>
      </trkpt>
      <trkpt lat="44.56732" lon="6.75671">
        <ele>2583</ele>
        <time>2013-08-18T13:11:38Z</time>
      </trkpt>
      <trkpt lat="44.56734" lon="6.75673">
        <ele>2580</ele>
        <time>2013-08-18T13:12:44Z</time>
      </trkpt>
      <trkpt lat="44.56723" lon="6.75683">
        <ele>2579</ele>
        <time>2013-08-18T13:12:51Z</time>
      </trkpt>
      <trkpt lat="44.56718" lon="6.7569">
        <ele>2577</ele>
        <time>2013-08-18T13:13:01Z</time>
      </trkpt>
      <trkpt lat="44.56709" lon="6.75696">
        <ele>2577</ele>
        <time>2013-08-18T13:13:08Z</time>
      </trkpt>
      <trkpt lat="44.56687" lon="6.75694">
        <ele>2574</ele>
        <time>2013-08-18T13:13:16Z</time>
      </trkpt>
      <trkpt lat="44.56685" lon="6.75709">
        <ele>2568</ele>
        <time>2013-08-18T13:13:23Z</time>
      </trkpt>
      <trkpt lat="44.5668" lon="6.75706">
        <ele>2564</ele>
        <time>2013-08-18T13:13:30Z</time>
      </trkpt>
      <trkpt lat="44.56673" lon="6.75708">
        <ele>2563</ele>
        <time>2013-08-18T13:15:32Z</time>
      </trkpt>
      <trkpt lat="44.56666" lon="6.75702">
        <ele>2562</ele>
        <time>2013-08-18T13:15:36Z</time>
      </trkpt>
      <trkpt lat="44.5665" lon="6.75701">
        <ele>2557</ele>
        <time>2013-08-18T13:15:43Z</time>
      </trkpt>
      <trkpt lat="44.56625" lon="6.75723">
        <ele>2550</ele>
        <time>2013-08-18T13:15:50Z</time>
      </trkpt>
      <trkpt lat="44.56605" lon="6.75749">
        <ele>2544</ele>
        <time>2013-08-18T13:15:56Z</time>
      </trkpt>
      <trkpt lat="44.56574" lon="6.75764">
        <ele>2538</ele>
        <time>2013-08-18T13:16:02Z</time>
      </trkpt>
      <trkpt lat="44.5656" lon="6.75766">
        <ele>2535</ele>
        <time>2013-08-18T13:16:05Z</time>
      </trkpt>
      <trkpt lat="44.56553" lon="6.7577">
        <ele>2529</ele>
        <time>2013-08-18T13:16:11Z</time>
      </trkpt>
      <trkpt lat="44.56549" lon="6.75769">
        <ele>2526</ele>
        <time>2013-08-18T13:16:24Z</time>
      </trkpt>
      <trkpt lat="44.56547" lon="6.75771">
        <ele>2525</ele>
        <time>2013-08-18T13:16:31Z</time>
      </trkpt>
      <trkpt lat="44.56539" lon="6.75781">
        <ele>2523</ele>
        <time>2013-08-18T13:16:58Z</time>
      </trkpt>
      <trkpt lat="44.56534" lon="6.75779">
        <ele>2521</ele>
        <time>2013-08-18T13:17:45Z</time>
      </trkpt>
      <trkpt lat="44.5653" lon="6.75775">
        <ele>2520</ele>
        <time>2013-08-18T13:18:17Z</time>
      </trkpt>
      <trkpt lat="44.56523" lon="6.75772">
        <ele>2519</ele>
        <time>2013-08-18T13:18:25Z</time>
      </trkpt>
      <trkpt lat="44.56518" lon="6.75784">
        <ele>2517</ele>
        <time>2013-08-18T13:18:36Z</time>
      </trkpt>
      <trkpt lat="44.56507" lon="6.75789">
        <ele>2515</ele>
        <time>2013-08-18T13:18:44Z</time>
      </trkpt>
      <trkpt lat="44.56485" lon="6.75796">
        <ele>2509</ele>
        <time>2013-08-18T13:18:53Z</time>
      </trkpt>
      <trkpt lat="44.56483" lon="6.75806">
        <ele>2508</ele>
        <time>2013-08-18T13:19:43Z</time>
      </trkpt>
      <trkpt lat="44.56467" lon="6.75803">
        <ele>2506</ele>
        <time>2013-08-18T13:19:53Z</time>
      </trkpt>
      <trkpt lat="44.56456" lon="6.75806">
        <ele>2502</ele>
        <time>2013-08-18T13:20:01Z</time>
      </trkpt>
      <trkpt lat="44.56415" lon="6.75822">
        <ele>2497</ele>
        <time>2013-08-18T13:20:10Z</time>
      </trkpt>
      <trkpt lat="44.56399" lon="6.75835">
        <ele>2492</ele>
        <time>2013-08-18T13:20:15Z</time>
      </trkpt>
      <trkpt lat="44.56376" lon="6.75849">
        <ele>2488</ele>
        <time>2013-08-18T13:20:21Z</time>
      </trkpt>
      <trkpt lat="44.56311" lon="6.75883">
        <ele>2480</ele>
        <time>2013-08-18T13:20:30Z</time>
      </trkpt>
      <trkpt lat="44.5624" lon="6.75909">
        <ele>2470</ele>
        <time>2013-08-18T13:20:40Z</time>
      </trkpt>
      <trkpt lat="44.56221" lon="6.75932">
        <ele>2461</ele>
        <time>2013-08-18T13:20:48Z</time>
      </trkpt>
      <trkpt lat="44.56202" lon="6.75937">
        <ele>2457</ele>
        <time>2013-08-18T13:20:54Z</time>
      </trkpt>
      <trkpt lat="44.56173" lon="6.75949">
        <ele>2450</ele>
        <time>2013-08-18T13:21:00Z</time>
      </trkpt>
      <trkpt lat="44.5617" lon="6.75954">
        <ele>2444</ele>
        <time>2013-08-18T13:21:06Z</time>
      </trkpt>
      <trkpt lat="44.56165" lon="6.75953">
        <ele>2441</ele>
        <time>2013-08-18T13:21:13Z</time>
      </trkpt>
      <trkpt lat="44.56159" lon="6.75951">
        <ele>2439</ele>
        <time>2013-08-18T13:21:23Z</time>
      </trkpt>
      <trkpt lat="44.56154" lon="6.75951">
        <ele>2438</ele>
        <time>2013-08-18T13:21:30Z</time>
      </trkpt>
      <trkpt lat="44.56129" lon="6.75953">
        <ele>2436</ele>
        <time>2013-08-18T13:21:38Z</time>
      </trkpt>
      <trkpt lat="44.56095" lon="6.75956">
        <ele>2423</ele>
        <time>2013-08-18T13:21:47Z</time>
      </trkpt>
      <trkpt lat="44.56086" lon="6.75958">
        <ele>2418</ele>
        <time>2013-08-18T13:22:50Z</time>
      </trkpt>
      <trkpt lat="44.56071" lon="6.75956">
        <ele>2416</ele>
        <time>2013-08-18T13:22:55Z</time>
      </trkpt>
      <trkpt lat="44.56051" lon="6.75954">
        <ele>2412</ele>
        <time>2013-08-18T13:22:59Z</time>
      </trkpt>
      <trkpt lat="44.56007" lon="6.75962">
        <ele>2400</ele>
        <time>2013-08-18T13:23:08Z</time>
      </trkpt>
      <trkpt lat="44.55986" lon="6.75963">
        <ele>2396</ele>
        <time>2013-08-18T13:23:13Z</time>
      </trkpt>
      <trkpt lat="44.55968" lon="6.7597">
        <ele>2390</ele>
        <time>2013-08-18T13:23:21Z</time>
      </trkpt>
      <trkpt lat="44.55964" lon="6.75976">
        <ele>2387</ele>
        <time>2013-08-18T13:23:30Z</time>
      </trkpt>
      <trkpt lat="44.55959" lon="6.75986">
        <ele>2387</ele>
        <time>2013-08-18T13:23:38Z</time>
      </trkpt>
      <trkpt lat="44.55945" lon="6.75991">
        <ele>2386</ele>
        <time>2013-08-18T13:23:48Z</time>
      </trkpt>
      <trkpt lat="44.55913" lon="6.75997">
        <ele>2381</ele>
        <time>2013-08-18T13:23:57Z</time>
      </trkpt>
      <trkpt lat="44.55901" lon="6.76001">
        <ele>2375</ele>
        <time>2013-08-18T13:24:02Z</time>
      </trkpt>
      <trkpt lat="44.55883" lon="6.7601">
        <ele>2372</ele>
        <time>2013-08-18T13:24:07Z</time>
      </trkpt>
      <trkpt lat="44.5584" lon="6.7603">
        <ele>2365</ele>
        <time>2013-08-18T13:24:16Z</time>
      </trkpt>
      <trkpt lat="44.55799" lon="6.76062">
        <ele>2353</ele>
        <time>2013-08-18T13:24:27Z</time>
      </trkpt>
      <trkpt lat="44.55799" lon="6.76063">
        <ele>2351</ele>
        <time>2013-08-18T13:24:34Z</time>
      </trkpt>
      <trkpt lat="44.55795" lon="6.7607">
        <ele>2350</ele>
        <time>2013-08-18T13:24:39Z</time>
      </trkpt>
      <trkpt lat="44.5575" lon="6.76091">
        <ele>2346</ele>
        <time>2013-08-18T13:24:47Z</time>
      </trkpt>
      <trkpt lat="44.5572" lon="6.76112">
        <ele>2339</ele>
        <time>2013-08-18T13:24:53Z</time>
      </trkpt>
      <trkpt lat="44.55717" lon="6.76111">
        <ele>2334</ele>
        <time>2013-08-18T13:25:01Z</time>
      </trkpt>
      <trkpt lat="44.55711" lon="6.7612">
        <ele>2333</ele>
        <time>2013-08-18T13:25:57Z</time>
      </trkpt>
      <trkpt lat="44.55688" lon="6.76146">
        <ele>2332</ele>
        <time>2013-08-18T13:26:04Z</time>
      </trkpt>
      <trkpt lat="44.5566" lon="6.76166">
        <ele>2328</ele>
        <time>2013-08-18T13:26:09Z</time>
      </trkpt>
      <trkpt lat="44.55625" lon="6.76194">
        <ele>2323</ele>
        <time>2013-08-18T13:26:15Z</time>
      </trkpt>
      <trkpt lat="44.55606" lon="6.76217">
        <ele>2320</ele>
        <time>2013-08-18T13:26:18Z</time>
      </trkpt>
      <trkpt lat="44.55589" lon="6.76216">
        <ele>2316</ele>
        <time>2013-08-18T13:26:22Z</time>
      </trkpt>
      <trkpt lat="44.55564" lon="6.76225">
        <ele>2308</ele>
        <time>2013-08-18T13:26:29Z</time>
      </trkpt>
      <trkpt lat="44.55544" lon="6.76233">
        <ele>2304</ele>
        <time>2013-08-18T13:26:35Z</time>
      </trkpt>
      <trkpt lat="44.55532" lon="6.7625">
        <ele>2301</ele>
        <time>2013-08-18T13:26:40Z</time>
      </trkpt>
      <trkpt lat="44.5551" lon="6.76286">
        <ele>2296</ele>
        <time>2013-08-18T13:26:49Z</time>
      </trkpt>
      <trkpt lat="44.55495" lon="6.76303">
        <ele>2292</ele>
        <time>2013-08-18T13:26:56Z</time>
      </trkpt>
      <trkpt lat="44.55484" lon="6.76314">
        <ele>2290</ele>
        <time>2013-08-18T13:27:05Z</time>
      </trkpt>
      <trkpt lat="44.5546" lon="6.76345">
        <ele>2286</ele>
        <time>2013-08-18T13:27:14Z</time>
      </trkpt>
      <trkpt lat="44.55438" lon="6.76371">
        <ele>2283</ele>
        <time>2013-08-18T13:27:22Z</time>
      </trkpt>
      <trkpt lat="44.55417" lon="6.76396">
        <ele>2280</ele>
        <time>2013-08-18T13:27:28Z</time>
      </trkpt>
      <trkpt lat="44.5537" lon="6.76441">
        <ele>2275</ele>
        <time>2013-08-18T13:27:36Z</time>
      </trkpt>
      <trkpt lat="44.55335" lon="6.76471">
        <ele>2270</ele>
        <time>2013-08-18T13:27:41Z</time>
      </trkpt>
      <trkpt lat="44.55309" lon="6.76491">
        <ele>2265</ele>
        <time>2013-08-18T13:27:45Z</time>
      </trkpt>
      <trkpt lat="44.55274" lon="6.76509">
        <ele>2259</ele>
        <time>2013-08-18T13:27:53Z</time>
      </trkpt>
      <trkpt lat="44.55256" lon="6.76519">
        <ele>2254</ele>
        <time>2013-08-18T13:27:59Z</time>
      </trkpt>
      <trkpt lat="44.5523" lon="6.7654">
        <ele>2252</ele>
        <time>2013-08-18T13:28:06Z</time>
      </trkpt>
      <trkpt lat="44.55222" lon="6.76552">
        <ele>2249</ele>
        <time>2013-08-18T13:28:12Z</time>
      </trkpt>
      <trkpt lat="44.5521" lon="6.76561">
        <ele>2247</ele>
        <time>2013-08-18T13:29:31Z</time>
      </trkpt>
      <trkpt lat="44.55178" lon="6.76596">
        <ele>2245</ele>
        <time>2013-08-18T13:29:38Z</time>
      </trkpt>
      <trkpt lat="44.55144" lon="6.76655">
        <ele>2240</ele>
        <time>2013-08-18T13:29:45Z</time>
      </trkpt>
      <trkpt lat="44.5512" lon="6.76723">
        <ele>2234</ele>
        <time>2013-08-18T13:29:52Z</time>
      </trkpt>
      <trkpt lat="44.55102" lon="6.76796">
        <ele>2228</ele>
        <time>2013-08-18T13:30:00Z</time>
      </trkpt>
      <trkpt lat="44.55096" lon="6.76841">
        <ele>2222</ele>
        <time>2013-08-18T13:30:09Z</time>
      </trkpt>
      <trkpt lat="44.55088" lon="6.76862">
        <ele>2219</ele>
        <time>2013-08-18T13:30:17Z</time>
      </trkpt>
      <trkpt lat="44.55096" lon="6.7685">
        <ele>2218</ele>
        <time>2013-08-18T13:31:10Z</time>
      </trkpt>
      <trkpt lat="44.55094" lon="6.76824">
        <ele>2217</ele>
        <time>2013-08-18T13:31:27Z</time>
      </trkpt>
      <trkpt lat="44.55093" lon="6.76816">
        <ele>2217</ele>
        <time>2013-08-18T13:31:34Z</time>
      </trkpt>
      <trkpt lat="44.55085" lon="6.768">
        <ele>2219</ele>
        <time>2013-08-18T13:31:50Z</time>
      </trkpt>
      <trkpt lat="44.55085" lon="6.76793">
        <ele>2220</ele>
        <time>2013-08-18T13:31:58Z</time>
      </trkpt>
      <trkpt lat="44.55081" lon="6.76773">
        <ele>2222</ele>
        <time>2013-08-18T13:32:16Z</time>
      </trkpt>
      <trkpt lat="44.55077" lon="6.7677">
        <ele>2221</ele>
        <time>2013-08-18T13:32:24Z</time>
      </trkpt>
      <trkpt lat="44.55068" lon="6.76743">
        <ele>2221</ele>
        <time>2013-08-18T13:32:50Z</time>
      </trkpt>
      <trkpt lat="44.5506" lon="6.76722">
        <ele>2222</ele>
        <time>2013-08-18T13:33:06Z</time>
      </trkpt>
      <trkpt lat="44.5505" lon="6.76715">
        <ele>2222</ele>
        <time>2013-08-18T13:33:19Z</time>
      </trkpt>
      <trkpt lat="44.5503" lon="6.76724">
        <ele>2222</ele>
        <time>2013-08-18T13:33:28Z</time>
      </trkpt>
      <trkpt lat="44.55012" lon="6.76724">
        <ele>2220</ele>
        <time>2013-08-18T13:33:36Z</time>
      </trkpt>
      <trkpt lat="44.54985" lon="6.76727">
        <ele>2216</ele>
        <time>2013-08-18T13:33:44Z</time>
      </trkpt>
      <trkpt lat="44.54971" lon="6.76736">
        <ele>2215</ele>
        <time>2013-08-18T13:33:53Z</time>
      </trkpt>
      <trkpt lat="44.54961" lon="6.76773">
        <ele>2210</ele>
        <time>2013-08-18T13:34:02Z</time>
      </trkpt>
      <trkpt lat="44.54944" lon="6.76775">
        <ele>2201</ele>
        <time>2013-08-18T13:34:08Z</time>
      </trkpt>
      <trkpt lat="44.54932" lon="6.76782">
        <ele>2197</ele>
        <time>2013-08-18T13:34:13Z</time>
      </trkpt>
      <trkpt lat="44.54922" lon="6.76802">
        <ele>2193</ele>
        <time>2013-08-18T13:34:18Z</time>
      </trkpt>
      <trkpt lat="44.54901" lon="6.76826">
        <ele>2184</ele>
        <time>2013-08-18T13:34:25Z</time>
      </trkpt>
      <trkpt lat="44.54897" lon="6.76825">
        <ele>2179</ele>
        <time>2013-08-18T13:35:27Z</time>
      </trkpt>
      <trkpt lat="44.54882" lon="6.76833">
        <ele>2177</ele>
        <time>2013-08-18T13:35:33Z</time>
      </trkpt>
      <trkpt lat="44.54854" lon="6.76837">
        <ele>2173</ele>
        <time>2013-08-18T13:35:41Z</time>
      </trkpt>
      <trkpt lat="44.54839" lon="6.76822">
        <ele>2170</ele>
        <time>2013-08-18T13:35:50Z</time>
      </trkpt>
      <trkpt lat="44.54833" lon="6.76825">
        <ele>2168</ele>
        <time>2013-08-18T13:36:00Z</time>
      </trkpt>
      <trkpt lat="44.5483" lon="6.76831">
        <ele>2168</ele>
        <time>2013-08-18T13:36:15Z</time>
      </trkpt>
      <trkpt lat="44.54811" lon="6.76881">
        <ele>2163</ele>
        <time>2013-08-18T13:36:35Z</time>
      </trkpt>
      <trkpt lat="44.5479" lon="6.76897">
        <ele>2153</ele>
        <time>2013-08-18T13:36:41Z</time>
      </trkpt>
      <trkpt lat="44.54764" lon="6.76919">
        <ele>2148</ele>
        <time>2013-08-18T13:36:46Z</time>
      </trkpt>
      <trkpt lat="44.54722" lon="6.76959">
        <ele>2141</ele>
        <time>2013-08-18T13:36:54Z</time>
      </trkpt>
      <trkpt lat="44.54691" lon="6.7699">
        <ele>2137</ele>
        <time>2013-08-18T13:37:00Z</time>
      </trkpt>
      <trkpt lat="44.54653" lon="6.77014">
        <ele>2132</ele>
        <time>2013-08-18T13:37:07Z</time>
      </trkpt>
      <trkpt lat="44.54625" lon="6.77026">
        <ele>2128</ele>
        <time>2013-08-18T13:37:12Z</time>
      </trkpt>
      <trkpt lat="44.54591" lon="6.77042">
        <ele>2121</ele>
        <time>2013-08-18T13:37:19Z</time>
      </trkpt>
      <trkpt lat="44.54572" lon="6.77069">
        <ele>2115</ele>
        <time>2013-08-18T13:37:27Z</time>
      </trkpt>
      <trkpt lat="44.54553" lon="6.77102">
        <ele>2109</ele>
        <time>2013-08-18T13:37:34Z</time>
      </trkpt>
      <trkpt lat="44.54522" lon="6.77137">
        <ele>2101</ele>
        <time>2013-08-18T13:37:42Z</time>
      </trkpt>
      <trkpt lat="44.54502" lon="6.77159">
        <ele>2100</ele>
        <time>2013-08-18T13:37:49Z</time>
      </trkpt>
      <trkpt lat="44.54495" lon="6.77163">
        <ele>2100</ele>
        <time>2013-08-18T13:37:54Z</time>
      </trkpt>
      <trkpt lat="44.54488" lon="6.77178">
        <ele>2098</ele>
        <time>2013-08-18T13:38:41Z</time>
      </trkpt>
      <trkpt lat="44.54479" lon="6.77205">
        <ele>2095</ele>
        <time>2013-08-18T13:38:49Z</time>
      </trkpt>
      <trkpt lat="44.54474" lon="6.77221">
        <ele>2092</ele>
        <time>2013-08-18T13:38:53Z</time>
      </trkpt>
      <trkpt lat="44.54487" lon="6.77237">
        <ele>2084</ele>
        <time>2013-08-18T13:39:01Z</time>
      </trkpt>
      <trkpt lat="44.54471" lon="6.77266">
        <ele>2074</ele>
        <time>2013-08-18T13:39:10Z</time>
      </trkpt>
      <trkpt lat="44.54441" lon="6.77278">
        <ele>2067</ele>
        <time>2013-08-18T13:39:17Z</time>
      </trkpt>
      <trkpt lat="44.5443" lon="6.77295">
        <ele>2060</ele>
        <time>2013-08-18T13:39:23Z</time>
      </trkpt>
      <trkpt lat="44.54403" lon="6.77316">
        <ele>2052</ele>
        <time>2013-08-18T13:39:31Z</time>
      </trkpt>
      <trkpt lat="44.54394" lon="6.77323">
        <ele>2045</ele>
        <time>2013-08-18T13:39:40Z</time>
      </trkpt>
      <trkpt lat="44.54381" lon="6.77327">
        <ele>2043</ele>
        <time>2013-08-18T13:39:46Z</time>
      </trkpt>
      <trkpt lat="44.54352" lon="6.7733">
        <ele>2036</ele>
        <time>2013-08-18T13:39:56Z</time>
      </trkpt>
      <trkpt lat="44.54345" lon="6.77342">
        <ele>2033</ele>
        <time>2013-08-18T13:40:58Z</time>
      </trkpt>
      <trkpt lat="44.54318" lon="6.77383">
        <ele>2028</ele>
        <time>2013-08-18T13:41:06Z</time>
      </trkpt>
      <trkpt lat="44.54298" lon="6.77416">
        <ele>2020</ele>
        <time>2013-08-18T13:41:12Z</time>
      </trkpt>
      <trkpt lat="44.5426" lon="6.77463">
        <ele>2005</ele>
        <time>2013-08-18T13:41:22Z</time>
      </trkpt>
      <trkpt lat="44.54233" lon="6.77483">
        <ele>2000</ele>
        <time>2013-08-18T13:41:27Z</time>
      </trkpt>
      <trkpt lat="44.54216" lon="6.77486">
        <ele>1996</ele>
        <time>2013-08-18T13:41:31Z</time>
      </trkpt>
      <trkpt lat="44.54173" lon="6.77506">
        <ele>1990</ele>
        <time>2013-08-18T13:41:39Z</time>
      </trkpt>
      <trkpt lat="44.54142" lon="6.77531">
        <ele>1984</ele>
        <time>2013-08-18T13:41:45Z</time>
      </trkpt>
      <trkpt lat="44.54136" lon="6.77511">
        <ele>1981</ele>
        <time>2013-08-18T13:41:50Z</time>
      </trkpt>
      <trkpt lat="44.54135" lon="6.77502">
        <ele>1977</ele>
        <time>2013-08-18T13:41:55Z</time>
      </trkpt>
      <trkpt lat="44.54121" lon="6.77488">
        <ele>1973</ele>
        <time>2013-08-18T13:43:02Z</time>
      </trkpt>
      <trkpt lat="44.54103" lon="6.77459">
        <ele>1972</ele>
        <time>2013-08-18T13:43:10Z</time>
      </trkpt>
      <trkpt lat="44.54078" lon="6.77422">
        <ele>1969</ele>
        <time>2013-08-18T13:43:18Z</time>
      </trkpt>
      <trkpt lat="44.54064" lon="6.77406">
        <ele>1966</ele>
        <time>2013-08-18T13:43:26Z</time>
      </trkpt>
      <trkpt lat="44.54048" lon="6.7739">
        <ele>1965</ele>
        <time>2013-08-18T13:43:57Z</time>
      </trkpt>
      <trkpt lat="44.54038" lon="6.77384">
        <ele>1962</ele>
        <time>2013-08-18T13:44:17Z</time>
      </trkpt>
      <trkpt lat="44.54022" lon="6.77398">
        <ele>1959</ele>
        <time>2013-08-18T13:44:23Z</time>
      </trkpt>
      <trkpt lat="44.54003" lon="6.7742">
        <ele>1947</ele>
        <time>2013-08-18T13:44:35Z</time>
      </trkpt>
      <trkpt lat="44.53997" lon="6.77443">
        <ele>1940</ele>
        <time>2013-08-18T13:44:42Z</time>
      </trkpt>
      <trkpt lat="44.53994" lon="6.77449">
        <ele>1936</ele>
        <time>2013-08-18T13:44:47Z</time>
      </trkpt>
      <trkpt lat="44.5398" lon="6.77449">
        <ele>1932</ele>
        <time>2013-08-18T13:44:57Z</time>
      </trkpt>
      <trkpt lat="44.5398" lon="6.77449">
        <ele>1930</ele>
        <time>2013-08-18T13:45:22Z</time>
      </trkpt>
      <trkpt lat="44.53968" lon="6.7747">
        <ele>1927</ele>
        <time>2013-08-18T13:45:50Z</time>
      </trkpt>
      <trkpt lat="44.53968" lon="6.77478">
        <ele>1921</ele>
        <time>2013-08-18T13:46:26Z</time>
      </trkpt>
      <trkpt lat="44.53988" lon="6.77483">
        <ele>1922</ele>
        <time>2013-08-18T13:46:38Z</time>
      </trkpt>
      <trkpt lat="44.54003" lon="6.77521">
        <ele>1920</ele>
        <time>2013-08-18T13:46:48Z</time>
      </trkpt>
      <trkpt lat="44.54007" lon="6.77552">
        <ele>1917</ele>
        <time>2013-08-18T13:46:56Z</time>
      </trkpt>
      <trkpt lat="44.54001" lon="6.77566">
        <ele>1915</ele>
        <time>2013-08-18T13:47:03Z</time>
      </trkpt>
      <trkpt lat="44.53998" lon="6.77572">
        <ele>1912</ele>
        <time>2013-08-18T13:47:32Z</time>
      </trkpt>
      <trkpt lat="44.53984" lon="6.77597">
        <ele>1906</ele>
        <time>2013-08-18T13:47:42Z</time>
      </trkpt>
      <trkpt lat="44.53977" lon="6.7761">
        <ele>1903</ele>
        <time>2013-08-18T13:47:48Z</time>
      </trkpt>
      <trkpt lat="44.53969" lon="6.77626">
        <ele>1898</ele>
        <time>2013-08-18T13:47:54Z</time>
      </trkpt>
      <trkpt lat="44.53961" lon="6.77647">
        <ele>1892</ele>
        <time>2013-08-18T13:48:03Z</time>
      </trkpt>
      <trkpt lat="44.53956" lon="6.77643">
        <ele>1888</ele>
        <time>2013-08-18T13:50:25Z</time>
      </trkpt>
      <trkpt lat="44.53949" lon="6.77621">
        <ele>1886</ele>
        <time>2013-08-18T13:50:37Z</time>
      </trkpt>
      <trkpt lat="44.53941" lon="6.77612">
        <ele>1882</ele>
        <time>2013-08-18T13:50:43Z</time>
      </trkpt>
      <trkpt lat="44.53935" lon="6.77607">
        <ele>1879</ele>
        <time>2013-08-18T13:51:00Z</time>
      </trkpt>
      <trkpt lat="44.53926" lon="6.77606">
        <ele>1876</ele>
        <time>2013-08-18T13:51:08Z</time>
      </trkpt>
      <trkpt lat="44.53926" lon="6.77602">
        <ele>1873</ele>
        <time>2013-08-18T13:51:29Z</time>
      </trkpt>
      <trkpt lat="44.53929" lon="6.77626">
        <ele>1872</ele>
        <time>2013-08-18T13:52:24Z</time>
      </trkpt>
      <trkpt lat="44.53914" lon="6.77645">
        <ele>1865</ele>
        <time>2013-08-18T13:52:31Z</time>
      </trkpt>
      <trkpt lat="44.5389" lon="6.77685">
        <ele>1853</ele>
        <time>2013-08-18T13:52:40Z</time>
      </trkpt>
      <trkpt lat="44.53893" lon="6.77693">
        <ele>1848</ele>
        <time>2013-08-18T13:53:15Z</time>
      </trkpt>
      <trkpt lat="44.53892" lon="6.77695">
        <ele>1847</ele>
        <time>2013-08-18T13:53:23Z</time>
      </trkpt>
      <trkpt lat="44.53874" lon="6.77687">
        <ele>1845</ele>
        <time>2013-08-18T13:53:33Z</time>
      </trkpt>
      <trkpt lat="44.53848" lon="6.77673">
        <ele>1840</ele>
        <time>2013-08-18T13:53:44Z</time>
      </trkpt>
      <trkpt lat="44.53821" lon="6.77678">
        <ele>1833</ele>
        <time>2013-08-18T13:53:52Z</time>
      </trkpt>
      <trkpt lat="44.5379" lon="6.77666">
        <ele>1824</ele>
        <time>2013-08-18T13:54:01Z</time>
      </trkpt>
      <trkpt lat="44.53777" lon="6.77657">
        <ele>1820</ele>
        <time>2013-08-18T13:54:06Z</time>
      </trkpt>
      <trkpt lat="44.53767" lon="6.77643">
        <ele>1816</ele>
        <time>2013-08-18T13:54:12Z</time>
      </trkpt>
      <trkpt lat="44.53755" lon="6.77644">
        <ele>1811</ele>
        <time>2013-08-18T13:54:18Z</time>
      </trkpt>
      <trkpt lat="44.53739" lon="6.77643">
        <ele>1807</ele>
        <time>2013-08-18T13:54:23Z</time>
      </trkpt>
      <trkpt lat="44.53717" lon="6.77665">
        <ele>1800</ele>
        <time>2013-08-18T13:54:29Z</time>
      </trkpt>
      <trkpt lat="44.53681" lon="6.77685">
        <ele>1788</ele>
        <time>2013-08-18T13:54:38Z</time>
      </trkpt>
      <trkpt lat="44.53669" lon="6.77683">
        <ele>1782</ele>
        <time>2013-08-18T13:54:47Z</time>
      </trkpt>
      <trkpt lat="44.53665" lon="6.77689">
        <ele>1779</ele>
        <time>2013-08-18T13:54:55Z</time>
      </trkpt>
      <trkpt lat="44.53663" lon="6.7771">
        <ele>1775</ele>
        <time>2013-08-18T13:55:10Z</time>
      </trkpt>
      <trkpt lat="44.53662" lon="6.77725">
        <ele>1773</ele>
        <time>2013-08-18T13:55:15Z</time>
      </trkpt>
      <trkpt lat="44.53662" lon="6.77743">
        <ele>1770</ele>
        <time>2013-08-18T13:55:28Z</time>
      </trkpt>
      <trkpt lat="44.53663" lon="6.77778">
        <ele>1765</ele>
        <time>2013-08-18T13:55:36Z</time>
      </trkpt>
      <trkpt lat="44.53673" lon="6.7778">
        <ele>1763</ele>
        <time>2013-08-18T13:55:43Z</time>
      </trkpt>
      <trkpt lat="44.53681" lon="6.77795">
        <ele>1761</ele>
        <time>2013-08-18T13:57:06Z</time>
      </trkpt>
      <trkpt lat="44.53685" lon="6.77811">
        <ele>1757</ele>
        <time>2013-08-18T13:57:14Z</time>
      </trkpt>
      <trkpt lat="44.53685" lon="6.77813">
        <ele>1754</ele>
        <time>2013-08-18T13:57:42Z</time>
      </trkpt>
      <trkpt lat="44.53674" lon="6.77808">
        <ele>1756</ele>
        <time>2013-08-18T13:57:56Z</time>
      </trkpt>
      <trkpt lat="44.53687" lon="6.77823">
        <ele>1752</ele>
        <time>2013-08-18T13:58:11Z</time>
      </trkpt>
      <trkpt lat="44.53708" lon="6.7784">
        <ele>1748</ele>
        <time>2013-08-18T13:58:19Z</time>
      </trkpt>
      <trkpt lat="44.53736" lon="6.77859">
        <ele>1743</ele>
        <time>2013-08-18T13:58:29Z</time>
      </trkpt>
      <trkpt lat="44.53747" lon="6.77871">
        <ele>1739</ele>
        <time>2013-08-18T13:58:36Z</time>
      </trkpt>
      <trkpt lat="44.53747" lon="6.77873">
        <ele>1737</ele>
        <time>2013-08-18T13:58:41Z</time>
      </trkpt>
      <trkpt lat="44.53746" lon="6.77883">
        <ele>1735</ele>
        <time>2013-08-18T13:58:48Z</time>
      </trkpt>
      <trkpt lat="44.53736" lon="6.77892">
        <ele>1732</ele>
        <time>2013-08-18T13:58:54Z</time>
      </trkpt>
      <trkpt lat="44.53703" lon="6.77905">
        <ele>1724</ele>
        <time>2013-08-18T13:59:04Z</time>
      </trkpt>
      <trkpt lat="44.53685" lon="6.77905">
        <ele>1720</ele>
        <time>2013-08-18T13:59:12Z</time>
      </trkpt>
      <trkpt lat="44.53686" lon="6.77919">
        <ele>1718</ele>
        <time>2013-08-18T13:59:18Z</time>
      </trkpt>
      <trkpt lat="44.53679" lon="6.77925">
        <ele>1715</ele>
        <time>2013-08-18T13:59:24Z</time>
      </trkpt>
      <trkpt lat="44.53671" lon="6.77931">
        <ele>1711</ele>
        <time>2013-08-18T13:59:34Z</time>
      </trkpt>
      <trkpt lat="44.53678" lon="6.77936">
        <ele>1709</ele>
        <time>2013-08-18T13:59:41Z</time>
      </trkpt>
      <trkpt lat="44.53682" lon="6.77946">
        <ele>1709</ele>
        <time>2013-08-18T13:59:49Z</time>
      </trkpt>
      <trkpt lat="44.53685" lon="6.77949">
        <ele>1707</ele>
        <time>2013-08-18T13:59:55Z</time>
      </trkpt>
      <trkpt lat="44.5369" lon="6.7796">
        <ele>1706</ele>
        <time>2013-08-18T14:00:00Z</time>
      </trkpt>
      <trkpt lat="44.53698" lon="6.77966">
        <ele>1702</ele>
        <time>2013-08-18T14:00:08Z</time>
      </trkpt>
      <trkpt lat="44.53691" lon="6.77961">
        <ele>1701</ele>
        <time>2013-08-18T14:00:17Z</time>
      </trkpt>
      <trkpt lat="44.5368" lon="6.77954">
        <ele>1703</ele>
        <time>2013-08-18T14:00:33Z</time>
      </trkpt>
      <trkpt lat="44.53675" lon="6.77947">
        <ele>1704</ele>
        <time>2013-08-18T14:00:50Z</time>
      </trkpt>
      <trkpt lat="44.53671" lon="6.77939">
        <ele>1707</ele>
        <time>2013-08-18T14:01:02Z</time>
      </trkpt>
      <trkpt lat="44.53657" lon="6.7792">
        <ele>1707</ele>
        <time>2013-08-18T14:01:33Z</time>
      </trkpt>
      <trkpt lat="44.53654" lon="6.77916">
        <ele>1707</ele>
        <time>2013-08-18T14:01:38Z</time>
      </trkpt>
      <trkpt lat="44.53634" lon="6.77918">
        <ele>1703</ele>
        <time>2013-08-18T14:01:48Z</time>
      </trkpt>
      <trkpt lat="44.53637" lon="6.77933">
        <ele>1699</ele>
        <time>2013-08-18T14:01:54Z</time>
      </trkpt>
      <trkpt lat="44.53629" lon="6.77955">
        <ele>1691</ele>
        <time>2013-08-18T14:02:02Z</time>
      </trkpt>
      <trkpt lat="44.53617" lon="6.77945">
        <ele>1689</ele>
        <time>2013-08-18T14:02:10Z</time>
      </trkpt>
      <trkpt lat="44.53588" lon="6.77934">
        <ele>1687</ele>
        <time>2013-08-18T14:02:22Z</time>
      </trkpt>
      <trkpt lat="44.53569" lon="6.77935">
        <ele>1684</ele>
        <time>2013-08-18T14:02:31Z</time>
      </trkpt>
      <trkpt lat="44.53564" lon="6.77933">
        <ele>1682</ele>
        <time>2013-08-18T14:02:56Z</time>
      </trkpt>
      <trkpt lat="44.53548" lon="6.77917">
        <ele>1678</ele>
        <time>2013-08-18T14:03:02Z</time>
      </trkpt>
      <trkpt lat="44.53529" lon="6.77906">
        <ele>1672</ele>
        <time>2013-08-18T14:03:09Z</time>
      </trkpt>
      <trkpt lat="44.53505" lon="6.77877">
        <ele>1664</ele>
        <time>2013-08-18T14:03:17Z</time>
      </trkpt>
      <trkpt lat="44.53494" lon="6.77865">
        <ele>1662</ele>
        <time>2013-08-18T14:03:22Z</time>
      </trkpt>
      <trkpt lat="44.53483" lon="6.7784">
        <ele>1659</ele>
        <time>2013-08-18T14:03:29Z</time>
      </trkpt>
      <trkpt lat="44.53462" lon="6.77803">
        <ele>1657</ele>
        <time>2013-08-18T14:03:41Z</time>
      </trkpt>
      <trkpt lat="44.53442" lon="6.77788">
        <ele>1655</ele>
        <time>2013-08-18T14:03:49Z</time>
      </trkpt>
      <trkpt lat="44.53436" lon="6.77789">
        <ele>1654</ele>
        <time>2013-08-18T14:04:13Z</time>
      </trkpt>
      <trkpt lat="44.53404" lon="6.77777">
        <ele>1650</ele>
        <time>2013-08-18T14:04:24Z</time>
      </trkpt>
      <trkpt lat="44.53397" lon="6.7777">
        <ele>1648</ele>
        <time>2013-08-18T14:04:30Z</time>
      </trkpt>
      <trkpt lat="44.53377" lon="6.77751">
        <ele>1646</ele>
        <time>2013-08-18T14:04:42Z</time>
      </trkpt>
      <trkpt lat="44.53363" lon="6.77739">
        <ele>1645</ele>
        <time>2013-08-18T14:04:49Z</time>
      </trkpt>
      <trkpt lat="44.5334" lon="6.7772">
        <ele>1643</ele>
        <time>2013-08-18T14:04:59Z</time>
      </trkpt>
      <trkpt lat="44.53326" lon="6.77719">
        <ele>1638</ele>
        <time>2013-08-18T14:05:07Z</time>
      </trkpt>
      <trkpt lat="44.53337" lon="6.77739">
        <ele>1636</ele>
        <time>2013-08-18T14:05:17Z</time>
      </trkpt>
      <trkpt lat="44.5335" lon="6.7776">
        <ele>1635</ele>
        <time>2013-08-18T14:05:24Z</time>
      </trkpt>
      <trkpt lat="44.53369" lon="6.77774">
        <ele>1635</ele>
        <time>2013-08-18T14:05:31Z</time>
      </trkpt>
      <trkpt lat="44.53374" lon="6.77777">
        <ele>1635</ele>
        <time>2013-08-18T14:05:39Z</time>
      </trkpt>
      <trkpt lat="44.53367" lon="6.77772">
        <ele>1634</ele>
        <time>2013-08-18T14:05:59Z</time>
      </trkpt>
      <trkpt lat="44.53359" lon="6.77767">
        <ele>1634</ele>
        <time>2013-08-18T14:06:09Z</time>
      </trkpt>
      <trkpt lat="44.53346" lon="6.77758">
        <ele>1634</ele>
        <time>2013-08-18T14:06:19Z</time>
      </trkpt>
      <trkpt lat="44.53339" lon="6.7775">
        <ele>1634</ele>
        <time>2013-08-18T14:06:57Z</time>
      </trkpt>
      <trkpt lat="44.53336" lon="6.77742">
        <ele>1634</ele>
        <time>2013-08-18T14:07:12Z</time>
      </trkpt>
      <trkpt lat="44.53324" lon="6.77717">
        <ele>1634</ele>
        <time>2013-08-18T14:07:20Z</time>
      </trkpt>
      <trkpt lat="44.53304" lon="6.77697">
        <ele>1632</ele>
        <time>2013-08-18T14:07:28Z</time>
      </trkpt>
      <trkpt lat="44.53284" lon="6.77677">
        <ele>1628</ele>
        <time>2013-08-18T14:07:39Z</time>
      </trkpt>
      <trkpt lat="44.53281" lon="6.77672">
        <ele>1626</ele>
        <time>2013-08-18T14:08:11Z</time>
      </trkpt>
      <trkpt lat="44.53276" lon="6.77661">
        <ele>1625</ele>
        <time>2013-08-18T14:08:22Z</time>
      </trkpt>
      <trkpt lat="44.53261" lon="6.77643">
        <ele>1625</ele>
        <time>2013-08-18T14:08:31Z</time>
      </trkpt>
      <trkpt lat="44.53254" lon="6.77637">
        <ele>1624</ele>
        <time>2013-08-18T14:08:46Z</time>
      </trkpt>
      <trkpt lat="44.53239" lon="6.7762">
        <ele>1623</ele>
        <time>2013-08-18T14:08:53Z</time>
      </trkpt>
      <trkpt lat="44.53228" lon="6.77598">
        <ele>1623</ele>
        <time>2013-08-18T14:09:03Z</time>
      </trkpt>
      <trkpt lat="44.53221" lon="6.77584">
        <ele>1623</ele>
        <time>2013-08-18T14:09:08Z</time>
      </trkpt>
      <trkpt lat="44.53219" lon="6.77564">
        <ele>1623</ele>
        <time>2013-08-18T14:09:23Z</time>
      </trkpt>
      <trkpt lat="44.5322" lon="6.77545">
        <ele>1620</ele>
        <time>2013-08-18T14:09:30Z</time>
      </trkpt>
      <trkpt lat="44.53219" lon="6.77527">
        <ele>1614</ele>
        <time>2013-08-18T14:09:36Z</time>
      </trkpt>
      <trkpt lat="44.53212" lon="6.7753">
        <ele>1612</ele>
        <time>2013-08-18T14:09:40Z</time>
      </trkpt>
      <trkpt lat="44.53199" lon="6.77536">
        <ele>1607</ele>
        <time>2013-08-18T14:09:47Z</time>
      </trkpt>
      <trkpt lat="44.53198" lon="6.77538">
        <ele>1606</ele>
        <time>2013-08-18T14:09:54Z</time>
      </trkpt>
      <trkpt lat="44.53196" lon="6.77549">
        <ele>1606</ele>
        <time>2013-08-18T14:10:04Z</time>
      </trkpt>
      <trkpt lat="44.53197" lon="6.7757">
        <ele>1604</ele>
        <time>2013-08-18T14:10:13Z</time>
      </trkpt>
      <trkpt lat="44.53189" lon="6.77566">
        <ele>1601</ele>
        <time>2013-08-18T14:11:29Z</time>
      </trkpt>
      <trkpt lat="44.53169" lon="6.77554">
        <ele>1598</ele>
        <time>2013-08-18T14:11:36Z</time>
      </trkpt>
      <trkpt lat="44.53154" lon="6.77571">
        <ele>1591</ele>
        <time>2013-08-18T14:11:45Z</time>
      </trkpt>
      <trkpt lat="44.53148" lon="6.77581">
        <ele>1589</ele>
        <time>2013-08-18T14:11:51Z</time>
      </trkpt>
      <trkpt lat="44.5313" lon="6.77581">
        <ele>1584</ele>
        <time>2013-08-18T14:12:00Z</time>
      </trkpt>
      <trkpt lat="44.53115" lon="6.77574">
        <ele>1577</ele>
        <time>2013-08-18T14:12:07Z</time>
      </trkpt>
      <trkpt lat="44.53112" lon="6.77562">
        <ele>1573</ele>
        <time>2013-08-18T14:12:12Z</time>
      </trkpt>
      <trkpt lat="44.53098" lon="6.7757">
        <ele>1569</ele>
        <time>2013-08-18T14:12:18Z</time>
      </trkpt>
      <trkpt lat="44.53079" lon="6.77574">
        <ele>1565</ele>
        <time>2013-08-18T14:12:26Z</time>
      </trkpt>
      <trkpt lat="44.53073" lon="6.77577">
        <ele>1562</ele>
        <time>2013-08-18T14:12:39Z</time>
      </trkpt>
      <trkpt lat="44.5306" lon="6.77573">
        <ele>1562</ele>
        <time>2013-08-18T14:13:38Z</time>
      </trkpt>
      <trkpt lat="44.53054" lon="6.7759">
        <ele>1560</ele>
        <time>2013-08-18T14:14:50Z</time>
      </trkpt>
      <trkpt lat="44.53049" lon="6.7762">
        <ele>1562</ele>
        <time>2013-08-18T14:15:02Z</time>
      </trkpt>
      <trkpt lat="44.53062" lon="6.77656">
        <ele>1563</ele>
        <time>2013-08-18T14:15:14Z</time>
      </trkpt>
      <trkpt lat="44.53089" lon="6.77692">
        <ele>1562</ele>
        <time>2013-08-18T14:15:27Z</time>
      </trkpt>
      <trkpt lat="44.53108" lon="6.77721">
        <ele>1563</ele>
        <time>2013-08-18T14:15:37Z</time>
      </trkpt>
      <trkpt lat="44.53119" lon="6.77745">
        <ele>1562</ele>
        <time>2013-08-18T14:15:42Z</time>
      </trkpt>
      <trkpt lat="44.5313" lon="6.77771">
        <ele>1560</ele>
        <time>2013-08-18T14:15:55Z</time>
      </trkpt>
      <trkpt lat="44.53145" lon="6.77805">
        <ele>1557</ele>
        <time>2013-08-18T14:16:10Z</time>
      </trkpt>
      <trkpt lat="44.53155" lon="6.77877">
        <ele>1552</ele>
        <time>2013-08-18T14:16:19Z</time>
      </trkpt>
      <trkpt lat="44.53143" lon="6.77915">
        <ele>1548</ele>
        <time>2013-08-18T14:16:23Z</time>
      </trkpt>
      <trkpt lat="44.53118" lon="6.77951">
        <ele>1542</ele>
        <time>2013-08-18T14:16:28Z</time>
      </trkpt>
      <trkpt lat="44.53072" lon="6.77969">
        <ele>1537</ele>
        <time>2013-08-18T14:16:37Z</time>
      </trkpt>
      <trkpt lat="44.53053" lon="6.77987">
        <ele>1540</ele>
        <time>2013-08-18T14:16:48Z</time>
      </trkpt>
      <trkpt lat="44.53043" lon="6.77988">
        <ele>1542</ele>
        <time>2013-08-18T14:16:54Z</time>
      </trkpt>
      <trkpt lat="44.53041" lon="6.77981">
        <ele>1542</ele>
        <time>2013-08-18T14:16:57Z</time>
      </trkpt>
      <trkpt lat="44.53042" lon="6.77945">
        <ele>1544</ele>
        <time>2013-08-18T14:17:10Z</time>
      </trkpt>
      <trkpt lat="44.53031" lon="6.77923">
        <ele>1545</ele>
        <time>2013-08-18T14:17:23Z</time>
      </trkpt>
      <trkpt lat="44.53009" lon="6.77892">
        <ele>1547</ele>
        <time>2013-08-18T14:17:38Z</time>
      </trkpt>
      <trkpt lat="44.5299" lon="6.77862">
        <ele>1549</ele>
        <time>2013-08-18T14:17:51Z</time>
      </trkpt>
      <trkpt lat="44.52972" lon="6.77812">
        <ele>1548</ele>
        <time>2013-08-18T14:18:01Z</time>
      </trkpt>
      <trkpt lat="44.52935" lon="6.77758">
        <ele>1548</ele>
        <time>2013-08-18T14:18:13Z</time>
      </trkpt>
      <trkpt lat="44.52907" lon="6.77721">
        <ele>1548</ele>
        <time>2013-08-18T14:18:21Z</time>
      </trkpt>
      <trkpt lat="44.52871" lon="6.7768">
        <ele>1547</ele>
        <time>2013-08-18T14:18:28Z</time>
      </trkpt>
      <trkpt lat="44.52843" lon="6.77657">
        <ele>1546</ele>
        <time>2013-08-18T14:18:33Z</time>
      </trkpt>
      <trkpt lat="44.52795" lon="6.77609">
        <ele>1543</ele>
        <time>2013-08-18T14:18:40Z</time>
      </trkpt>
      <trkpt lat="44.52774" lon="6.77572">
        <ele>1539</ele>
        <time>2013-08-18T14:18:44Z</time>
      </trkpt>
      <trkpt lat="44.52739" lon="6.77535">
        <ele>1530</ele>
        <time>2013-08-18T14:18:51Z</time>
      </trkpt>
      <trkpt lat="44.52706" lon="6.77533">
        <ele>1524</ele>
        <time>2013-08-18T14:18:57Z</time>
      </trkpt>
      <trkpt lat="44.52684" lon="6.77519">
        <ele>1522</ele>
        <time>2013-08-18T14:19:00Z</time>
      </trkpt>
      <trkpt lat="44.52661" lon="6.77493">
        <ele>1520</ele>
        <time>2013-08-18T14:19:04Z</time>
      </trkpt>
      <trkpt lat="44.52619" lon="6.77432">
        <ele>1517</ele>
        <time>2013-08-18T14:19:12Z</time>
      </trkpt>
      <trkpt lat="44.5258" lon="6.77392">
        <ele>1516</ele>
        <time>2013-08-18T14:19:21Z</time>
      </trkpt>
      <trkpt lat="44.52549" lon="6.77343">
        <ele>1516</ele>
        <time>2013-08-18T14:19:34Z</time>
      </trkpt>
      <trkpt lat="44.52533" lon="6.77312">
        <ele>1521</ele>
        <time>2013-08-18T14:19:49Z</time>
      </trkpt>
      <trkpt lat="44.52529" lon="6.77297">
        <ele>1523</ele>
        <time>2013-08-18T14:19:58Z</time>
      </trkpt>
      <trkpt lat="44.52527" lon="6.77273">
        <ele>1522</ele>
        <time>2013-08-18T14:20:10Z</time>
      </trkpt>
      <trkpt lat="44.52505" lon="6.77226">
        <ele>1520</ele>
        <time>2013-08-18T14:20:17Z</time>
      </trkpt>
      <trkpt lat="44.52462" lon="6.77161">
        <ele>1517</ele>
        <time>2013-08-18T14:20:24Z</time>
      </trkpt>
      <trkpt lat="44.52431" lon="6.77071">
        <ele>1508</ele>
        <time>2013-08-18T14:20:31Z</time>
      </trkpt>
      <trkpt lat="44.52416" lon="6.76997">
        <ele>1503</ele>
        <time>2013-08-18T14:20:37Z</time>
      </trkpt>
      <trkpt lat="44.52407" lon="6.76939">
        <ele>1502</ele>
        <time>2013-08-18T14:20:42Z</time>
      </trkpt>
      <trkpt lat="44.52393" lon="6.76889">
        <ele>1501</ele>
        <time>2013-08-18T14:20:49Z</time>
      </trkpt>
      <trkpt lat="44.52373" lon="6.7686">
        <ele>1502</ele>
        <time>2013-08-18T14:21:00Z</time>
      </trkpt>
      <trkpt lat="44.52364" lon="6.76853">
        <ele>1503</ele>
        <time>2013-08-18T14:21:10Z</time>
      </trkpt>
      <trkpt lat="44.52357" lon="6.76852">
        <ele>1502</ele>
        <time>2013-08-18T14:21:20Z</time>
      </trkpt>
      <trkpt lat="44.52347" lon="6.76842">
        <ele>1503</ele>
        <time>2013-08-18T14:21:33Z</time>
      </trkpt>
      <trkpt lat="44.52317" lon="6.76806">
        <ele>1503</ele>
        <time>2013-08-18T14:21:40Z</time>
      </trkpt>
      <trkpt lat="44.52293" lon="6.76776">
        <ele>1505</ele>
        <time>2013-08-18T14:21:51Z</time>
      </trkpt>
      <trkpt lat="44.52266" lon="6.76736">
        <ele>1504</ele>
        <time>2013-08-18T14:22:00Z</time>
      </trkpt>
      <trkpt lat="44.52215" lon="6.76663">
        <ele>1501</ele>
        <time>2013-08-18T14:22:10Z</time>
      </trkpt>
      <trkpt lat="44.52221" lon="6.76611">
        <ele>1498</ele>
        <time>2013-08-18T14:22:15Z</time>
      </trkpt>
      <trkpt lat="44.52211" lon="6.76572">
        <ele>1496</ele>
        <time>2013-08-18T14:22:19Z</time>
      </trkpt>
      <trkpt lat="44.5222" lon="6.76552">
        <ele>1492</ele>
        <time>2013-08-18T14:22:24Z</time>
      </trkpt>
      <trkpt lat="44.52222" lon="6.76555">
        <ele>1489</ele>
        <time>2013-08-18T14:22:32Z</time>
      </trkpt>
      <trkpt lat="44.52212" lon="6.7653">
        <ele>1489</ele>
        <time>2013-08-18T14:23:05Z</time>
      </trkpt>
      <trkpt lat="44.52194" lon="6.76502">
        <ele>1488</ele>
        <time>2013-08-18T14:23:12Z</time>
      </trkpt>
      <trkpt lat="44.52149" lon="6.76484">
        <ele>1487</ele>
        <time>2013-08-18T14:23:26Z</time>
      </trkpt>
      <trkpt lat="44.52125" lon="6.76478">
        <ele>1487</ele>
        <time>2013-08-18T14:23:39Z</time>
      </trkpt>
      <trkpt lat="44.52099" lon="6.7646">
        <ele>1486</ele>
        <time>2013-08-18T14:23:49Z</time>
      </trkpt>
      <trkpt lat="44.52098" lon="6.76456">
        <ele>1485</ele>
        <time>2013-08-18T14:23:53Z</time>
      </trkpt>
      <trkpt lat="44.52112" lon="6.76438">
        <ele>1485</ele>
        <time>2013-08-18T14:24:38Z</time>
      </trkpt>
      <trkpt lat="44.52116" lon="6.7643">
        <ele>1485</ele>
        <time>2013-08-18T14:24:43Z</time>
      </trkpt>
      <trkpt lat="44.52124" lon="6.76425">
        <ele>1485</ele>
        <time>2013-08-18T14:25:03Z</time>
      </trkpt>
      <trkpt lat="44.5211" lon="6.76403">
        <ele>1485</ele>
        <time>2013-08-18T14:25:08Z</time>
      </trkpt>
      <trkpt lat="44.52076" lon="6.7637">
        <ele>1483</ele>
        <time>2013-08-18T14:25:20Z</time>
      </trkpt>
      <trkpt lat="44.52029" lon="6.76334">
        <ele>1482</ele>
        <time>2013-08-18T14:25:34Z</time>
      </trkpt>
      <trkpt lat="44.51992" lon="6.76293">
        <ele>1481</ele>
        <time>2013-08-18T14:25:48Z</time>
      </trkpt>
      <trkpt lat="44.51972" lon="6.76251">
        <ele>1480</ele>
        <time>2013-08-18T14:25:56Z</time>
      </trkpt>
      <trkpt lat="44.5196" lon="6.762">
        <ele>1479</ele>
        <time>2013-08-18T14:26:07Z</time>
      </trkpt>
      <trkpt lat="44.51975" lon="6.76182">
        <ele>1479</ele>
        <time>2013-08-18T14:26:16Z</time>
      </trkpt>
      <trkpt lat="44.51974" lon="6.76179">
        <ele>1478</ele>
        <time>2013-08-18T14:26:25Z</time>
      </trkpt>
      <trkpt lat="44.5196" lon="6.76199">
        <ele>1479</ele>
        <time>2013-08-18T14:26:36Z</time>
      </trkpt>
      <trkpt lat="44.51929" lon="6.76182">
        <ele>1478</ele>
        <time>2013-08-18T14:26:49Z</time>
      </trkpt>
      <trkpt lat="44.5191" lon="6.76163">
        <ele>1478</ele>
        <time>2013-08-18T14:26:59Z</time>
      </trkpt>
      <trkpt lat="44.51898" lon="6.76149">
        <ele>1478</ele>
        <time>2013-08-18T14:27:04Z</time>
      </trkpt>
      <trkpt lat="44.51877" lon="6.7613">
        <ele>1476</ele>
        <time>2013-08-18T14:27:12Z</time>
      </trkpt>
      <trkpt lat="44.51836" lon="6.76122">
        <ele>1476</ele>
        <time>2013-08-18T14:27:24Z</time>
      </trkpt>
      <trkpt lat="44.51816" lon="6.761">
        <ele>1474</ele>
        <time>2013-08-18T14:27:30Z</time>
      </trkpt>
      <trkpt lat="44.51793" lon="6.7608">
        <ele>1473</ele>
        <time>2013-08-18T14:27:39Z</time>
      </trkpt>
      <trkpt lat="44.51782" lon="6.76072">
        <ele>1473</ele>
        <time>2013-08-18T14:27:46Z</time>
      </trkpt>
      <trkpt lat="44.51759" lon="6.76065">
        <ele>1472</ele>
        <time>2013-08-18T14:27:55Z</time>
      </trkpt>
      <trkpt lat="44.51737" lon="6.76032">
        <ele>1472</ele>
        <time>2013-08-18T14:28:05Z</time>
      </trkpt>
      <trkpt lat="44.51728" lon="6.76017">
        <ele>1472</ele>
        <time>2013-08-18T14:28:11Z</time>
      </trkpt>
      <trkpt lat="44.51716" lon="6.75981">
        <ele>1472</ele>
        <time>2013-08-18T14:28:20Z</time>
      </trkpt>
      <trkpt lat="44.51697" lon="6.75949">
        <ele>1471</ele>
        <time>2013-08-18T14:28:29Z</time>
      </trkpt>
      <trkpt lat="44.5168" lon="6.75907">
        <ele>1470</ele>
        <time>2013-08-18T14:28:41Z</time>
      </trkpt>
      <trkpt lat="44.51669" lon="6.75855">
        <ele>1470</ele>
        <time>2013-08-18T14:28:53Z</time>
      </trkpt>
      <trkpt lat="44.51651" lon="6.75839">
        <ele>1469</ele>
        <time>2013-08-18T14:29:01Z</time>
      </trkpt>
      <trkpt lat="44.51651" lon="6.75836">
        <ele>1469</ele>
        <time>2013-08-18T14:29:08Z</time>
      </trkpt>
      <trkpt lat="44.51668" lon="6.75816">
        <ele>1469</ele>
        <time>2013-08-18T14:29:16Z</time>
      </trkpt>
      <trkpt lat="44.51694" lon="6.75766">
        <ele>1469</ele>
        <time>2013-08-18T14:29:31Z</time>
      </trkpt>
      <trkpt lat="44.51691" lon="6.75747">
        <ele>1469</ele>
        <time>2013-08-18T14:29:40Z</time>
      </trkpt>
      <trkpt lat="44.51705" lon="6.75773">
        <ele>1470</ele>
        <time>2013-08-18T14:29:51Z</time>
      </trkpt>
      <trkpt lat="44.5172" lon="6.75783">
        <ele>1471</ele>
        <time>2013-08-18T14:30:03Z</time>
      </trkpt>
      <trkpt lat="44.51725" lon="6.75789">
        <ele>1473</ele>
        <time>2013-08-18T14:30:18Z</time>
      </trkpt>
      <trkpt lat="44.51726" lon="6.75789">
        <ele>1473</ele>
        <time>2013-08-18T14:30:21Z</time>
      </trkpt>
    </trkseg>
  </trk>
</gpx>